Darstellungsparameter: Aktuell verwendete Einstellungen:
Skalierung der Graphiken ... ?
xyx+y,   Skalierungsfaktor:      Skalierung: Modus: x, Faktor: 1
Darstellungszeitraum ... ?
Vom - - bis: - -   Zeitraum: 02.06.2003 - 01.12.2003
Min/Max/Avg-Anzeige ... ?
Zeige MMA aktuell
Zeige MMA Monat
Zeige MMA alles
Zeige --A aktuell
Zeige --A Monat
Zeige --A alles
Keine MMA-Anzeige
MMA:
Keine MMA-Graphiken
MMA-Basis: 02.06.2003 - 01.12.2003
Quicknavigation für Darstellung... ?
Tage:      1T, 2T, 3T, 5T -1T -2T -3T -5T +1T +2T +3T +5T
Wochen: 1W, 2W, 3W -1W -2W -3W +1W +2W +3W
Monate: 1M, 3M, 6M -1M -3M -6M +1M +3M +6M
Jahre:    1J, 3J, 5J, 10J -1J -3J -5J -10J +1J +3J +5J +10J
Nutze für die Darstellung ... ?
Originaldaten oder Mittelwerte auf ...
Stundenbasis Tagesbasis Wochenbasis
Monatsbasis Jahresbasis      Datenbasis: Original-Daten
Darstellen als:
Statistik (Auto) Statistik J:M      Darstellung:
Zur Graphik,    zurück zur Übersicht aller Sensoren.
 
Tabellarische Datenbersicht: ?
 
Sensor: Nr:Datum:Temp:Abs-Feuchte:Windchill:Wind:
Aussen-T/F 1 02-06-2003 00:09:01 20.8 C 12.49 g/m*3 20.8 C 0 km/h
2 02-06-2003 00:19:01 20.5 C 12.46 g/m*3 20.5 C 0 km/h
3 02-06-2003 00:29:01 20.4 C 12.38 g/m*3 20.4 C 0 km/h
4 02-06-2003 00:39:01 20.2 C 12.24 g/m*3 20.2 C 0 km/h
5 02-06-2003 00:49:01 20 C 12.27 g/m*3 20 C 0 km/h
6 02-06-2003 00:59:01 19.8 C 12.3 g/m*3 19.8 C 0 km/h
7 02-06-2003 01:09:01 19.7 C 12.4 g/m*3 19.7 C 0 km/h
8 02-06-2003 01:19:01 19.6 C 12.32 g/m*3 19.6 C 0 km/h
9 02-06-2003 01:29:01 19.4 C 12.18 g/m*3 19.4 C 0 km/h
10 02-06-2003 01:39:01 19.3 C 12.27 g/m*3 19.3 C 0 km/h
11 02-06-2003 01:49:01 19.1 C 11.97 g/m*3 19.1 C 0 km/h
12 02-06-2003 01:59:01 18.9 C 11.99 g/m*3 18.9 C 0 km/h
13 02-06-2003 02:09:01 18.9 C 11.99 g/m*3 18.9 C 0 km/h
14 02-06-2003 02:19:01 19.1 C 11.97 g/m*3 19.1 C 0 km/h
15 02-06-2003 02:29:01 18.7 C 12.01 g/m*3 18.7 C 0 km/h
16 02-06-2003 02:39:01 18.5 C 12.02 g/m*3 18.5 C 0 km/h
17 02-06-2003 02:49:01 18.5 C 12.18 g/m*3 18.5 C 0 km/h
18 02-06-2003 02:59:01 18.2 C 12.12 g/m*3 18.2 C 0 km/h
19 02-06-2003 03:09:01 18.1 C 11.9 g/m*3 18.1 C 0 km/h
20 02-06-2003 03:19:01 17.8 C 11.99 g/m*3 17.8 C 0 km/h
21 02-06-2003 03:29:01 17.8 C 11.99 g/m*3 17.8 C 0 km/h
22 02-06-2003 03:39:01 17.8 C 11.99 g/m*3 17.8 C 0 km/h
23 02-06-2003 03:49:01 17.7 C 11.92 g/m*3 17.7 C 0 km/h
24 02-06-2003 03:59:01 17.7 C 12.07 g/m*3 17.7 C 0 km/h
25 02-06-2003 04:09:01 17.5 C 11.93 g/m*3 17.5 C 0 km/h
Sensor: Nr:Datum:Temp:Abs-Feuchte:Windchill:Wind:
Aussen-T/F 26 02-06-2003 04:19:01 17.4 C 12 g/m*3 17.4 C 0 km/h
27 02-06-2003 04:29:01 17.5 C 11.93 g/m*3 17.5 C 0 km/h
28 02-06-2003 04:39:01 17.3 C 11.93 g/m*3 17.3 C 0 km/h
29 02-06-2003 04:49:01 17.4 C 12 g/m*3 17.4 C 0 km/h
30 02-06-2003 04:59:01 17.2 C 11.86 g/m*3 17.2 C 0 km/h
31 02-06-2003 05:09:01 17 C 11.72 g/m*3 17 C 0 km/h
32 02-06-2003 05:19:01 17 C 11.87 g/m*3 17 C 0 km/h
33 02-06-2003 05:29:01 16.8 C 11.72 g/m*3 16.8 C 0 km/h
34 02-06-2003 05:39:01 16.7 C 11.8 g/m*3 16.7 C 0 km/h
35 02-06-2003 05:49:01 16.6 C 11.72 g/m*3 16.6 C 0 km/h
36 02-06-2003 05:59:01 16.7 C 11.8 g/m*3 16.7 C 0 km/h
37 02-06-2003 06:09:01 16.7 C 11.8 g/m*3 16.7 C 0 km/h
38 02-06-2003 06:19:01 16.7 C 11.8 g/m*3 16.7 C 0 km/h
39 02-06-2003 06:29:01 16.8 C 11.87 g/m*3 16.8 C 0 km/h
40 02-06-2003 06:39:01 17 C 11.87 g/m*3 17 C 0 km/h
41 02-06-2003 06:49:01 17 C 11.87 g/m*3 17 C 0 km/h
42 02-06-2003 06:59:01 17.1 C 11.94 g/m*3 17.1 C 0 km/h
43 02-06-2003 07:09:01 17.4 C 12.15 g/m*3 17.4 C 0 km/h
44 02-06-2003 07:19:01 17.7 C 12.07 g/m*3 17.7 C 0 km/h
45 02-06-2003 07:29:01 17.9 C 12.21 g/m*3 17.9 C 0 km/h
46 02-06-2003 07:39:01 18 C 11.98 g/m*3 18 C 0 km/h
47 02-06-2003 07:49:01 18.1 C 12.21 g/m*3 18.1 C 0 km/h
48 02-06-2003 07:59:01 18.4 C 11.95 g/m*3 18.4 C 0 km/h
49 02-06-2003 08:09:01 18.5 C 12.18 g/m*3 18.5 C 0 km/h
50 02-06-2003 08:19:01 18.7 C 12.33 g/m*3 18.7 C 0 km/h
Sensor: Nr:Datum:Temp:Abs-Feuchte:Windchill:Wind:
Aussen-T/F 51 02-06-2003 08:29:01 19.1 C 12.29 g/m*3 19.1 C 0 km/h
52 02-06-2003 08:39:01 19.5 C 12.42 g/m*3 19.5 C 0 km/h
53 02-06-2003 08:49:01 20 C 12.44 g/m*3 20 C 0 km/h
54 02-06-2003 08:59:01 20.4 C 12.74 g/m*3 20.4 C 0 km/h
55 02-06-2003 09:09:01 20.8 C 12.67 g/m*3 20.8 C 0 km/h
56 02-06-2003 09:19:01 21.5 C 13.01 g/m*3 21.5 C 0 km/h
57 02-06-2003 09:29:01 22.2 C 12.76 g/m*3 22.2 C 0 km/h
58 02-06-2003 09:39:01 23 C 12.95 g/m*3 23 C 0 km/h
59 02-06-2003 09:49:01 23.5 C 13.32 g/m*3 23.5 C 0 km/h
60 02-06-2003 09:59:01 24 C 12.84 g/m*3 24 C 0 km/h
61 02-06-2003 10:09:01 24.7 C 12.45 g/m*3 24.7 C 0 km/h
62 02-06-2003 10:19:01 25.2 C 12.8 g/m*3 25.2 C 0 km/h
63 02-06-2003 10:29:01 25.4 C 13.18 g/m*3 25.4 C 0 km/h
64 02-06-2003 10:39:02 26 C 12.66 g/m*3 26 C 0 km/h
65 02-06-2003 10:49:02 26.4 C 12.2 g/m*3 26.4 C 0 km/h
66 02-06-2003 10:59:02 26.7 C 12.15 g/m*3 26.7 C 0 km/h
67 02-06-2003 11:09:01 26.9 C 12.8 g/m*3 26.9 C 0 km/h
68 02-06-2003 11:19:01 27.1 C 12.42 g/m*3 27.1 C 0 km/h
69 02-06-2003 11:29:01 27.3 C 12.56 g/m*3 27.3 C 0 km/h
70 02-06-2003 11:39:03 27.3 C 12.3 g/m*3 27.3 C 0 km/h
71 02-06-2003 11:49:03 28.8 C 12.22 g/m*3 28.8 C 0 km/h
72 02-06-2003 11:59:03 27.9 C 11.9 g/m*3 27.9 C 0 km/h
73 02-06-2003 12:09:02 27.8 C 12.37 g/m*3 27.8 C 0 km/h
74 02-06-2003 12:19:02 27.4 C 12.63 g/m*3 27.4 C 0 km/h
75 02-06-2003 12:29:02 27.9 C 12.98 g/m*3 27.9 C 0 km/h
Sensor: Nr:Datum:Temp:Abs-Feuchte:Windchill:Wind:
Aussen-T/F 76 02-06-2003 12:39:00 27.6 C 13.3 g/m*3 27.6 C 0 km/h
77 02-06-2003 12:49:00 28 C 11.69 g/m*3 28 C 0 km/h
78 02-06-2003 12:59:00 27.9 C 12.44 g/m*3 27.9 C 0 km/h
79 02-06-2003 13:09:00 28.7 C 12.15 g/m*3 28.7 C 0 km/h
80 02-06-2003 13:19:00 29.5 C 11.22 g/m*3 29.5 C 0 km/h
81 02-06-2003 13:29:00 29.6 C 10.98 g/m*3 29.6 C 0 km/h
82 02-06-2003 13:39:01 29.1 C 10.97 g/m*3 29.1 C 0 km/h
83 02-06-2003 13:49:01 29.2 C 10.74 g/m*3 29.2 C 0 km/h
84 02-06-2003 13:59:01 29.1 C 11.26 g/m*3 29.1 C 0 km/h
85 02-06-2003 14:09:01 28.4 C 11.67 g/m*3 28.4 C 0 km/h
86 02-06-2003 14:19:01 29.1 C 11.55 g/m*3 29.1 C 0 km/h
87 02-06-2003 14:29:01 29.6 C 11.57 g/m*3 29.6 C 0 km/h
88 02-06-2003 14:39:01 29.5 C 11.81 g/m*3 29.5 C 0 km/h
89 02-06-2003 14:49:01 29.5 C 11.22 g/m*3 29.5 C 0 km/h
90 02-06-2003 14:59:01 30 C 11.22 g/m*3 30 C 0 km/h
91 02-06-2003 15:09:02 29.9 C 10.86 g/m*3 29.9 C 0 km/h
92 02-06-2003 15:19:02 30.2 C 10.73 g/m*3 30.2 C 0 km/h
93 02-06-2003 15:29:02 30 C 10.61 g/m*3 30 C 0 km/h
94 02-06-2003 15:39:01 30.3 C 10.79 g/m*3 30.3 C 0 km/h
95 02-06-2003 15:49:01 30.4 C 10.54 g/m*3 30.4 C 0 km/h
96 02-06-2003 15:59:01 30.5 C 10.59 g/m*3 30.5 C 0 km/h
97 02-06-2003 16:09:01 30.4 C 10.54 g/m*3 30.4 C 0 km/h
98 02-06-2003 16:19:01 30.5 C 10.59 g/m*3 30.5 C 0 km/h
99 02-06-2003 16:29:01 30.6 C 10.02 g/m*3 30.6 C 0 km/h
100 02-06-2003 16:39:01 30.4 C 10.54 g/m*3 30.4 C 0 km/h
Sensor: Nr:Datum:Temp:Abs-Feuchte:Windchill:Wind:
Aussen-T/F 101 02-06-2003 16:49:01 30.1 C 10.67 g/m*3 30.1 C 0 km/h
102 02-06-2003 16:59:01 30.4 C 10.85 g/m*3 30.4 C 0 km/h
103 02-06-2003 17:09:00 30.4 C 11.16 g/m*3 30.4 C 0 km/h
104 02-06-2003 17:19:00 30.5 C 11.53 g/m*3 30.5 C 0 km/h
105 02-06-2003 17:39:01 28.3 C 11.61 g/m*3 28.3 C 0 km/h
106 02-06-2003 17:49:01 28.3 C 11.61 g/m*3 28.3 C 0 km/h
107 02-06-2003 17:59:01 28.7 C 11.59 g/m*3 28.7 C 0 km/h
108 02-06-2003 18:09:02 29.3 C 10.51 g/m*3 29.3 C 0 km/h
109 02-06-2003 18:19:02 29.3 C 10.8 g/m*3 29.3 C 0 km/h
110 02-06-2003 18:29:02 28.9 C 11.14 g/m*3 28.9 C 0 km/h
111 02-06-2003 18:39:01 28.2 C 11.55 g/m*3 28.2 C 0 km/h
112 02-06-2003 18:49:01 28.1 C 11.76 g/m*3 28.1 C 0 km/h
113 02-06-2003 18:59:01 27.4 C 11.84 g/m*3 27.4 C 0 km/h
114 02-06-2003 19:09:02 27.1 C 11.65 g/m*3 27.1 C 0 km/h
115 02-06-2003 19:19:02 27 C 11.58 g/m*3 27 C 0 km/h
116 02-06-2003 19:29:02 25.6 C 14.52 g/m*3 25.6 C 0 km/h
117 02-06-2003 19:39:01 26.7 C 14.17 g/m*3 26.7 C 0 km/h
118 02-06-2003 19:49:01 27.5 C 13.23 g/m*3 27.5 C 0 km/h
119 02-06-2003 19:59:01 27.7 C 12.04 g/m*3 27.7 C 0 km/h
120 02-06-2003 20:09:01 27.9 C 12.17 g/m*3 27.9 C 0 km/h
121 02-06-2003 20:19:01 27.5 C 11.38 g/m*3 27.5 C 0 km/h
122 02-06-2003 20:29:01 26.3 C 11.64 g/m*3 26.3 C 0 km/h
123 02-06-2003 20:39:01 25.6 C 11.9 g/m*3 25.6 C 0 km/h
124 02-06-2003 20:49:01 24.8 C 12.06 g/m*3 24.8 C 0 km/h
125 02-06-2003 20:59:01 24.5 C 11.86 g/m*3 24.5 C 0 km/h
Sensor: Nr:Datum:Temp:Abs-Feuchte:Windchill:Wind:
Aussen-T/F 126 02-06-2003 21:09:01 24.3 C 12.17 g/m*3 24.3 C 0 km/h
127 02-06-2003 21:19:01 24 C 12.18 g/m*3 24 C 0 km/h
128 02-06-2003 21:29:01 23.6 C 12.34 g/m*3 23.6 C 0 km/h
129 02-06-2003 21:39:01 23.6 C 12.55 g/m*3 23.6 C 0 km/h
130 02-06-2003 21:49:01 23.3 C 12.13 g/m*3 23.3 C 0 km/h
131 02-06-2003 21:59:01 23.2 C 11.85 g/m*3 23.2 C 0 km/h
132 02-06-2003 22:10:00 23.1 C 11.78 g/m*3 23.1 C 0 km/h
133 02-06-2003 22:20:00 23 C 11.72 g/m*3 23 C 0 km/h
134 02-06-2003 22:30:00 22.9 C 11.65 g/m*3 22.9 C 0 km/h
135 02-06-2003 22:40:00 22.7 C 11.72 g/m*3 22.7 C 0 km/h
136 02-06-2003 22:50:00 22.6 C 11.85 g/m*3 22.6 C 0 km/h
137 02-06-2003 23:00:00 22.5 C 11.98 g/m*3 22.5 C 0 km/h
138 02-06-2003 23:10:00 22.3 C 12.05 g/m*3 22.3 C 0 km/h
139 02-06-2003 23:20:00 22.2 C 11.98 g/m*3 22.2 C 0 km/h
140 02-06-2003 23:30:00 22.1 C 12.1 g/m*3 22.1 C 0 km/h
141 02-06-2003 23:40:00 21.8 C 12.28 g/m*3 21.8 C 0 km/h
142 02-06-2003 23:50:00 21.8 C 12.28 g/m*3 21.8 C 0 km/h
143 03-06-2003 00:00:00 21.6 C 12.33 g/m*3 21.6 C 0 km/h
144 03-06-2003 00:10:00 21.4 C 12.37 g/m*3 21.4 C 0 km/h
145 03-06-2003 00:20:00 21.3 C 12.49 g/m*3 21.3 C 0 km/h
146 03-06-2003 00:30:00 21.1 C 12.53 g/m*3 21.1 C 0 km/h
147 03-06-2003 00:40:00 21 C 12.64 g/m*3 21 C 0 km/h
148 03-06-2003 00:50:00 21 C 12.64 g/m*3 21 C 0 km/h
149 03-06-2003 01:00:00 20.9 C 12.75 g/m*3 20.9 C 0 km/h
150 03-06-2003 01:10:00 20.8 C 12.86 g/m*3 20.8 C 0 km/h
Sensor: Nr:Datum:Temp:Abs-Feuchte:Windchill:Wind:
Aussen-T/F 151 03-06-2003 01:20:00 20.7 C 12.78 g/m*3 20.7 C 0 km/h
152 03-06-2003 01:30:00 20.4 C 12.74 g/m*3 20.4 C 0 km/h
153 03-06-2003 01:40:00 20.2 C 12.76 g/m*3 20.2 C 0 km/h
154 03-06-2003 01:50:00 20.1 C 12.69 g/m*3 20.1 C 0 km/h
155 03-06-2003 02:00:00 20 C 12.62 g/m*3 20 C 0 km/h
156 03-06-2003 02:10:00 20.3 C 12.84 g/m*3 20.3 C 0 km/h
157 03-06-2003 02:20:00 20.4 C 12.91 g/m*3 20.4 C 0 km/h
158 03-06-2003 02:30:00 20.4 C 12.91 g/m*3 20.4 C 0 km/h
159 03-06-2003 02:40:00 20.4 C 12.91 g/m*3 20.4 C 0 km/h
160 03-06-2003 02:50:00 20.4 C 12.91 g/m*3 20.4 C 0 km/h
161 03-06-2003 03:00:00 20.2 C 12.94 g/m*3 20.2 C 0 km/h
162 03-06-2003 03:10:00 20 C 12.79 g/m*3 20 C 0 km/h
163 03-06-2003 03:20:00 19.9 C 13.06 g/m*3 19.9 C 0 km/h
164 03-06-2003 03:30:00 19.6 C 12.83 g/m*3 19.6 C 0 km/h
165 03-06-2003 03:40:00 19.4 C 12.85 g/m*3 19.4 C 0 km/h
166 03-06-2003 03:50:00 19.4 C 12.85 g/m*3 19.4 C 0 km/h
167 03-06-2003 04:00:00 19.5 C 12.92 g/m*3 19.5 C 0 km/h
168 03-06-2003 04:10:00 19.4 C 12.85 g/m*3 19.4 C 0 km/h
169 03-06-2003 04:20:00 19.4 C 13.01 g/m*3 19.4 C 0 km/h
170 03-06-2003 04:30:00 19.4 C 13.01 g/m*3 19.4 C 0 km/h
171 03-06-2003 04:40:00 19.4 C 13.01 g/m*3 19.4 C 0 km/h
172 03-06-2003 04:50:00 19.4 C 12.85 g/m*3 19.4 C 0 km/h
173 03-06-2003 05:00:00 19.3 C 12.94 g/m*3 19.3 C 0 km/h
174 03-06-2003 05:10:00 19.1 C 12.79 g/m*3 19.1 C 0 km/h
175 03-06-2003 05:20:00 19.1 C 12.95 g/m*3 19.1 C 0 km/h
Sensor: Nr:Datum:Temp:Abs-Feuchte:Windchill:Wind:
Aussen-T/F 176 03-06-2003 05:30:00 19.2 C 13.03 g/m*3 19.2 C 0 km/h
177 03-06-2003 05:40:00 19.3 C 13.1 g/m*3 19.3 C 0 km/h
178 03-06-2003 05:50:00 19.3 C 13.1 g/m*3 19.3 C 0 km/h
179 03-06-2003 06:00:00 19.2 C 12.86 g/m*3 19.2 C 0 km/h
180 03-06-2003 06:10:00 19.1 C 12.95 g/m*3 19.1 C 0 km/h
181 03-06-2003 06:20:00 19.2 C 13.03 g/m*3 19.2 C 0 km/h
182 03-06-2003 06:30:00 19.2 C 13.03 g/m*3 19.2 C 0 km/h
183 03-06-2003 06:40:00 19.3 C 13.1 g/m*3 19.3 C 0 km/h
184 03-06-2003 06:50:00 19.3 C 13.1 g/m*3 19.3 C 0 km/h
185 03-06-2003 07:00:00 19.5 C 13.09 g/m*3 19.5 C 0 km/h
186 03-06-2003 07:10:00 19.6 C 13.17 g/m*3 19.6 C 0 km/h
187 03-06-2003 07:20:00 19.7 C 13.25 g/m*3 19.7 C 0 km/h
188 03-06-2003 07:30:00 19.9 C 13.23 g/m*3 19.9 C 0 km/h
189 03-06-2003 07:40:00 19.9 C 13.06 g/m*3 19.9 C 0 km/h
190 03-06-2003 07:50:00 20 C 12.96 g/m*3 20 C 0 km/h
191 03-06-2003 08:00:00 20 C 12.96 g/m*3 20 C 0 km/h
192 03-06-2003 08:10:01 20.2 C 13.11 g/m*3 20.2 C 0 km/h
193 03-06-2003 08:20:01 20.4 C 13.09 g/m*3 20.4 C 0 km/h
194 03-06-2003 08:30:01 20.8 C 13.04 g/m*3 20.8 C 0 km/h
195 03-06-2003 08:40:01 21.1 C 13.08 g/m*3 21.1 C 0 km/h
196 03-06-2003 08:50:01 21.5 C 13.01 g/m*3 21.5 C 0 km/h
197 03-06-2003 09:00:01 22 C 13 g/m*3 22 C 0 km/h
198 03-06-2003 09:10:00 22.2 C 12.96 g/m*3 22.2 C 0 km/h
199 03-06-2003 09:20:00 21.9 C 13.12 g/m*3 21.9 C 0 km/h
200 03-06-2003 09:30:00 22.5 C 13.18 g/m*3 22.5 C 0 km/h
Sensor: Nr:Datum:Temp:Abs-Feuchte:Windchill:Wind:
Aussen-T/F 201 03-06-2003 09:40:01 23 C 12.95 g/m*3 23 C 0 km/h
202 03-06-2003 09:50:01 22.9 C 12.88 g/m*3 22.9 C 0 km/h
203 03-06-2003 10:00:01 22.8 C 13 g/m*3 22.8 C 0 km/h
204 03-06-2003 10:10:01 22.9 C 13.08 g/m*3 22.9 C 0 km/h
205 03-06-2003 10:20:01 23.1 C 12.61 g/m*3 23.1 C 0 km/h
206 03-06-2003 10:30:01 23.1 C 12.61 g/m*3 23.1 C 0 km/h
207 03-06-2003 10:40:01 24 C 12.62 g/m*3 24 C 0 km/h
208 03-06-2003 10:50:01 24.5 C 12.76 g/m*3 24.5 C 0 km/h
209 03-06-2003 11:00:01 25.8 C 13 g/m*3 25.8 C 0 km/h
210 03-06-2003 11:10:02 25.5 C 12.55 g/m*3 25.5 C 0 km/h
211 03-06-2003 11:20:02 25.5 C 12.55 g/m*3 25.5 C 0 km/h
212 03-06-2003 11:30:02 26.3 C 12.63 g/m*3 26.3 C 0 km/h
213 03-06-2003 11:40:01 27 C 11.84 g/m*3 27 C 0 km/h
214 03-06-2003 11:50:01 27.3 C 12.3 g/m*3 27.3 C 0 km/h
215 03-06-2003 12:00:01 27.4 C 11.58 g/m*3 27.4 C 0 km/h
216 03-06-2003 12:10:02 28.7 C 11.87 g/m*3 28.7 C 0 km/h
217 03-06-2003 12:20:02 29.1 C 11.84 g/m*3 29.1 C 0 km/h
218 03-06-2003 12:30:02 29.2 C 11.91 g/m*3 29.2 C 0 km/h
219 03-06-2003 12:40:01 30.1 C 12.2 g/m*3 30.1 C 0 km/h
220 03-06-2003 12:50:01 30.3 C 11.4 g/m*3 30.3 C 0 km/h
221 03-06-2003 13:00:01 30.8 C 11.08 g/m*3 30.8 C 0 km/h
222 03-06-2003 13:10:01 30.3 C 10.79 g/m*3 30.3 C 0 km/h
223 03-06-2003 13:20:01 31.4 C 10.46 g/m*3 31.4 C 0 km/h
224 03-06-2003 13:30:01 30.9 C 9.87 g/m*3 30.9 C 0 km/h
225 03-06-2003 13:40:00 31.3 C 10.08 g/m*3 31.3 C 0 km/h
Sensor: Nr:Datum:Temp:Abs-Feuchte:Windchill:Wind:
Aussen-T/F 226 03-06-2003 13:50:00 31.3 C 9.76 g/m*3 31.3 C 0 km/h
227 03-06-2003 14:00:00 31.2 C 10.03 g/m*3 31.2 C 0 km/h
228 03-06-2003 14:10:01 30.7 C 10.39 g/m*3 30.7 C 0 km/h
229 03-06-2003 14:20:01 30.4 C 10.85 g/m*3 30.4 C 0 km/h
230 03-06-2003 14:30:01 30.3 C 11.1 g/m*3 30.3 C 0 km/h
231 03-06-2003 14:40:01 30.6 C 11.28 g/m*3 30.6 C 0 km/h
232 03-06-2003 14:50:01 31 C 11.84 g/m*3 31 C 0 km/h
233 03-06-2003 15:00:01 30.7 C 11.02 g/m*3 30.7 C 0 km/h
234 03-06-2003 15:10:02 31.6 C 11.57 g/m*3 31.6 C 0 km/h
235 03-06-2003 15:20:02 31.2 C 10.67 g/m*3 31.2 C 0 km/h
236 03-06-2003 15:30:02 30.6 C 11.28 g/m*3 30.6 C 0 km/h
237 03-06-2003 15:40:01 30.3 C 12.33 g/m*3 30.3 C 0 km/h
238 03-06-2003 15:50:01 30.7 C 11.65 g/m*3 30.7 C 0 km/h
239 03-06-2003 16:00:01 31.6 C 11.57 g/m*3 31.6 C 0 km/h
240 03-06-2003 16:10:02 32.1 C 10.86 g/m*3 32.1 C 0 km/h
241 03-06-2003 16:20:02 32 C 10.8 g/m*3 32 C 0 km/h
242 03-06-2003 16:30:02 31.5 C 10.85 g/m*3 31.5 C 0 km/h
243 03-06-2003 16:40:02 31.7 C 10.96 g/m*3 31.7 C 0 km/h
244 03-06-2003 16:50:02 31.2 C 11.65 g/m*3 31.2 C 0 km/h
245 03-06-2003 17:00:02 30.6 C 13.16 g/m*3 30.6 C 0 km/h
246 03-06-2003 17:10:01 30.1 C 13.42 g/m*3 30.1 C 0 km/h
247 03-06-2003 17:20:01 29.7 C 14.02 g/m*3 29.7 C 0 km/h
248 03-06-2003 17:30:01 29 C 14.07 g/m*3 29 C 0 km/h
249 03-06-2003 17:40:23 27.2 C 14.57 g/m*3 27.2 C 0 km/h
250 03-06-2003 17:50:23 23.5 C 15.86 g/m*3 23.5 C 0 km/h
Sensor: Nr:Datum:Temp:Abs-Feuchte:Windchill:Wind:
Aussen-T/F 251 03-06-2003 18:00:54 22.3 C 16.19 g/m*3 22.3 C 0 km/h
252 03-06-2003 18:10:54 22.1 C 16.59 g/m*3 22.1 C 0 km/h
253 03-06-2003 18:20:54 23.9 C 18.82 g/m*3 23.9 C 0 km/h
254 03-06-2003 18:30:08 23.8 C 17.21 g/m*3 23.8 C 0 km/h
255 03-06-2003 18:40:08 24.7 C 17.65 g/m*3 24.7 C 0 km/h
256 03-06-2003 18:50:08 25.1 C 17.59 g/m*3 25.1 C 0 km/h
257 03-06-2003 19:00:08 21.9 C 15.05 g/m*3 21.9 C 0 km/h
258 03-06-2003 19:10:08 20.7 C 15.3 g/m*3 20.7 C 0 km/h
259 03-06-2003 19:20:52 21.2 C 16.12 g/m*3 21.2 C 0 km/h
260 03-06-2003 19:30:52 19.6 C 14.69 g/m*3 19.6 C 0 km/h
261 03-06-2003 19:40:52 19.2 C 14.68 g/m*3 19.2 C 0 km/h
262 03-06-2003 19:50:01 19.3 C 14.93 g/m*3 19.3 C 0 km/h
263 03-06-2003 20:00:01 19.4 C 15.02 g/m*3 19.4 C 0 km/h
264 03-06-2003 20:10:01 19.5 C 14.77 g/m*3 19.5 C 0 km/h
265 03-06-2003 20:20:01 19.3 C 14.76 g/m*3 19.3 C 0 km/h
266 03-06-2003 20:30:01 19.5 C 14.94 g/m*3 19.5 C 0 km/h
267 03-06-2003 20:40:01 19.4 C 14.68 g/m*3 19.4 C 0 km/h
268 03-06-2003 20:50:01 19.4 C 14.68 g/m*3 19.4 C 0 km/h
269 03-06-2003 21:00:01 19.4 C 14.52 g/m*3 19.4 C 0 km/h
270 03-06-2003 21:10:01 19.3 C 14.6 g/m*3 19.3 C 0 km/h
271 03-06-2003 21:20:01 19.4 C 14.68 g/m*3 19.4 C 0 km/h
272 03-06-2003 21:30:01 19.2 C 14.35 g/m*3 19.2 C 0 km/h
273 03-06-2003 21:40:01 19.2 C 14.51 g/m*3 19.2 C 0 km/h
274 03-06-2003 21:50:01 19.2 C 14.51 g/m*3 19.2 C 0 km/h
275 03-06-2003 22:00:01 19.4 C 14.52 g/m*3 19.4 C 0 km/h
Sensor: Nr:Datum:Temp:Abs-Feuchte:Windchill:Wind:
Aussen-T/F 276 03-06-2003 22:11:04 19.4 C 14.52 g/m*3 19.4 C 0 km/h
277 03-06-2003 22:21:04 19.3 C 14.43 g/m*3 19.3 C 0 km/h
278 03-06-2003 22:31:04 19.4 C 14.52 g/m*3 19.4 C 0 km/h
279 03-06-2003 22:41:04 19.3 C 14.43 g/m*3 19.3 C 0 km/h
280 03-06-2003 22:51:04 19.1 C 14.43 g/m*3 19.1 C 0 km/h
281 03-06-2003 23:01:04 19.1 C 14.59 g/m*3 19.1 C 0 km/h
282 03-06-2003 23:11:04 19.1 C 14.59 g/m*3 19.1 C 0 km/h
283 03-06-2003 23:21:04 19 C 14.5 g/m*3 19 C 0 km/h
284 03-06-2003 23:31:04 19.1 C 14.59 g/m*3 19.1 C 0 km/h
285 03-06-2003 23:41:04 19 C 14.5 g/m*3 19 C 0 km/h
286 03-06-2003 23:51:04 19.1 C 14.59 g/m*3 19.1 C 0 km/h
287 04-06-2003 00:01:04 19.1 C 14.59 g/m*3 19.1 C 0 km/h
288 04-06-2003 00:11:04 19 C 14.34 g/m*3 19 C 0 km/h
289 04-06-2003 00:21:04 19.1 C 14.43 g/m*3 19.1 C 0 km/h
290 04-06-2003 00:31:04 19 C 14.34 g/m*3 19 C 0 km/h
291 04-06-2003 00:41:04 19.1 C 14.43 g/m*3 19.1 C 0 km/h
292 04-06-2003 00:51:04 18.8 C 14.33 g/m*3 18.8 C 0 km/h
293 04-06-2003 01:01:04 18.7 C 14.25 g/m*3 18.7 C 0 km/h
294 04-06-2003 01:11:04 18.6 C 14.17 g/m*3 18.6 C 0 km/h
295 04-06-2003 01:21:04 18.6 C 14.17 g/m*3 18.6 C 0 km/h
296 04-06-2003 01:31:04 18.5 C 14.08 g/m*3 18.5 C 0 km/h
297 04-06-2003 01:41:04 18.5 C 14.08 g/m*3 18.5 C 0 km/h
298 04-06-2003 01:51:04 18.6 C 14.17 g/m*3 18.6 C 0 km/h
299 04-06-2003 02:01:04 18.7 C 14.25 g/m*3 18.7 C 0 km/h
300 04-06-2003 02:11:04 18.8 C 14.33 g/m*3 18.8 C 0 km/h
Sensor: Nr:Datum:Temp:Abs-Feuchte:Windchill:Wind:
Aussen-T/F 301 04-06-2003 02:21:04 18.7 C 14.25 g/m*3 18.7 C 0 km/h
302 04-06-2003 02:31:04 18.7 C 14.25 g/m*3 18.7 C 0 km/h
303 04-06-2003 02:41:04 18.7 C 14.25 g/m*3 18.7 C 0 km/h
304 04-06-2003 02:51:04 18.6 C 14.17 g/m*3 18.6 C 0 km/h
305 04-06-2003 03:01:04 18.6 C 14.17 g/m*3 18.6 C 0 km/h
306 04-06-2003 03:11:04 18.7 C 14.41 g/m*3 18.7 C 0 km/h
307 04-06-2003 03:21:04 18.7 C 14.41 g/m*3 18.7 C 0 km/h
308 04-06-2003 03:31:04 18.8 C 14.49 g/m*3 18.8 C 0 km/h
309 04-06-2003 03:41:04 18.8 C 14.49 g/m*3 18.8 C 0 km/h
310 04-06-2003 03:51:04 18.9 C 14.58 g/m*3 18.9 C 0 km/h
311 04-06-2003 04:01:04 18.9 C 14.42 g/m*3 18.9 C 0 km/h
312 04-06-2003 04:11:04 18.9 C 14.42 g/m*3 18.9 C 0 km/h
313 04-06-2003 04:21:04 18.8 C 14.33 g/m*3 18.8 C 0 km/h
314 04-06-2003 04:31:04 18.7 C 14.25 g/m*3 18.7 C 0 km/h
315 04-06-2003 04:41:04 18.5 C 14.08 g/m*3 18.5 C 0 km/h
316 04-06-2003 04:51:04 18.4 C 14 g/m*3 18.4 C 0 km/h
317 04-06-2003 05:01:04 18.3 C 13.92 g/m*3 18.3 C 0 km/h
318 04-06-2003 05:11:04 18.3 C 13.92 g/m*3 18.3 C 0 km/h
319 04-06-2003 05:21:04 18.3 C 13.92 g/m*3 18.3 C 0 km/h
320 04-06-2003 05:31:04 18.4 C 14.16 g/m*3 18.4 C 0 km/h
321 04-06-2003 05:41:04 18.4 C 14.16 g/m*3 18.4 C 0 km/h
322 04-06-2003 05:51:04 18.5 C 14.24 g/m*3 18.5 C 0 km/h
323 04-06-2003 06:01:04 18.6 C 14.32 g/m*3 18.6 C 0 km/h
324 04-06-2003 06:11:04 18.6 C 14.32 g/m*3 18.6 C 0 km/h
325 04-06-2003 06:21:04 18.6 C 14.17 g/m*3 18.6 C 0 km/h
Sensor: Nr:Datum:Temp:Abs-Feuchte:Windchill:Wind:
Aussen-T/F 326 04-06-2003 06:31:04 18.5 C 14.08 g/m*3 18.5 C 0 km/h
327 04-06-2003 06:41:04 18.4 C 14 g/m*3 18.4 C 0 km/h
328 04-06-2003 06:51:04 18.5 C 14.24 g/m*3 18.5 C 0 km/h
329 04-06-2003 07:01:01 18.7 C 14.41 g/m*3 18.7 C 0 km/h
330 04-06-2003 07:11:02 18.9 C 14.42 g/m*3 18.9 C 0 km/h
331 04-06-2003 07:21:02 18.9 C 14.42 g/m*3 18.9 C 0 km/h
332 04-06-2003 07:31:02 18.9 C 14.42 g/m*3 18.9 C 0 km/h
333 04-06-2003 07:41:00 19.1 C 14.43 g/m*3 19.1 C 0 km/h
334 04-06-2003 07:51:00 19.5 C 14.43 g/m*3 19.5 C 0 km/h
335 04-06-2003 08:01:00 19.7 C 14.43 g/m*3 19.7 C 0 km/h
336 04-06-2003 08:11:00 19.8 C 14.35 g/m*3 19.8 C 0 km/h
337 04-06-2003 08:21:00 20 C 14.34 g/m*3 20 C 0 km/h
338 04-06-2003 08:31:00 20.4 C 14.51 g/m*3 20.4 C 0 km/h
339 04-06-2003 08:41:01 20.8 C 14.85 g/m*3 20.8 C 0 km/h
340 04-06-2003 08:51:01 20.8 C 14.67 g/m*3 20.8 C 0 km/h
341 04-06-2003 09:01:01 20.7 C 14.76 g/m*3 20.7 C 0 km/h
342 04-06-2003 09:11:01 20.7 C 14.76 g/m*3 20.7 C 0 km/h
343 04-06-2003 09:21:01 20.6 C 14.86 g/m*3 20.6 C 0 km/h
344 04-06-2003 09:31:01 21.2 C 15.2 g/m*3 21.2 C 0 km/h
345 04-06-2003 09:41:01 21.8 C 15.54 g/m*3 21.8 C 0 km/h
346 04-06-2003 09:51:01 22.6 C 15.87 g/m*3 22.6 C 0 km/h
347 04-06-2003 10:01:01 23.1 C 16.12 g/m*3 23.1 C 0 km/h
348 04-06-2003 10:11:01 23.5 C 16.07 g/m*3 23.5 C 0 km/h
349 04-06-2003 10:21:01 23.9 C 16.44 g/m*3 23.9 C 0 km/h
350 04-06-2003 10:31:01 24.1 C 16.19 g/m*3 24.1 C 0 km/h
Sensor: Nr:Datum:Temp:Abs-Feuchte:Windchill:Wind:
Aussen-T/F 351 04-06-2003 10:41:01 25.1 C 15.28 g/m*3 25.1 C 0 km/h
352 04-06-2003 10:51:01 26 C 16.07 g/m*3 26 C 0 km/h
353 04-06-2003 11:01:01 26.6 C 15.35 g/m*3 26.6 C 0 km/h
354 04-06-2003 11:11:02 27.1 C 14.75 g/m*3 27.1 C 0 km/h
355 04-06-2003 11:21:02 27.4 C 14.21 g/m*3 27.4 C 0 km/h
356 04-06-2003 11:31:02 28 C 14.14 g/m*3 28 C 0 km/h
357 04-06-2003 11:41:01 28.2 C 14.02 g/m*3 28.2 C 0 km/h
358 04-06-2003 11:51:01 29 C 14.65 g/m*3 29 C 0 km/h
359 04-06-2003 12:01:01 28.8 C 13.07 g/m*3 28.8 C 0 km/h
360 04-06-2003 12:21:02 30.5 C 12.77 g/m*3 30.5 C 0 km/h
361 04-06-2003 12:31:02 30.4 C 12.08 g/m*3 30.4 C 0 km/h
362 04-06-2003 12:41:01 30.3 C 11.71 g/m*3 30.3 C 0 km/h
363 04-06-2003 12:51:01 30.6 C 10.96 g/m*3 30.6 C 0 km/h
364 04-06-2003 13:01:01 30.6 C 10.96 g/m*3 30.6 C 0 km/h
365 04-06-2003 13:11:01 31.3 C 9.76 g/m*3 31.3 C 0 km/h
366 04-06-2003 13:21:01 31.2 C 9.7 g/m*3 31.2 C 0 km/h
367 04-06-2003 13:31:01 31.8 C 9.69 g/m*3 31.8 C 0 km/h
368 04-06-2003 13:41:00 31.7 C 9.97 g/m*3 31.7 C 0 km/h
369 04-06-2003 13:51:00 31.9 C 9.74 g/m*3 31.9 C 0 km/h
370 04-06-2003 14:01:00 31.5 C 9.86 g/m*3 31.5 C 0 km/h
371 04-06-2003 14:11:01 30.9 C 10.19 g/m*3 30.9 C 0 km/h
372 04-06-2003 14:21:01 31 C 9.92 g/m*3 31 C 0 km/h
373 04-06-2003 14:31:01 31.4 C 9.81 g/m*3 31.4 C 0 km/h
374 04-06-2003 14:41:02 31.7 C 9.97 g/m*3 31.7 C 0 km/h
375 04-06-2003 14:51:02 31.7 C 9.63 g/m*3 31.7 C 0 km/h
Sensor: Nr:Datum:Temp:Abs-Feuchte:Windchill:Wind:
Aussen-T/F 376 04-06-2003 15:01:02 32 C 9.45 g/m*3 32 C 0 km/h
377 04-06-2003 15:11:01 32.1 C 9.84 g/m*3 32.1 C 0 km/h
378 04-06-2003 15:21:01 32.3 C 8.58 g/m*3 32.3 C 0 km/h
379 04-06-2003 15:31:01 32.1 C 8.48 g/m*3 32.1 C 0 km/h
380 04-06-2003 15:41:01 32.4 C 7.93 g/m*3 32.4 C 0 km/h
381 04-06-2003 15:51:01 31.8 C 8.35 g/m*3 31.8 C 0 km/h
382 04-06-2003 16:01:01 32.1 C 8.82 g/m*3 32.1 C 0 km/h
383 04-06-2003 16:11:02 31.5 C 7.89 g/m*3 31.5 C 0 km/h
384 04-06-2003 16:21:02 31.4 C 8.5 g/m*3 31.4 C 0 km/h
385 04-06-2003 16:31:02 31.9 C 8.73 g/m*3 31.9 C 0 km/h
386 04-06-2003 16:41:00 32 C 8.44 g/m*3 32 C 0 km/h
387 04-06-2003 16:51:00 32.1 C 8.48 g/m*3 32.1 C 0 km/h
388 04-06-2003 17:01:00 32 C 8.44 g/m*3 32 C 0 km/h
389 04-06-2003 17:11:00 31.7 C 8.97 g/m*3 31.7 C 0 km/h
390 04-06-2003 17:21:00 31.7 C 9.3 g/m*3 31.7 C 0 km/h
391 04-06-2003 17:31:00 31.8 C 8.68 g/m*3 31.8 C 0 km/h
392 04-06-2003 17:41:01 31.8 C 9.02 g/m*3 31.8 C 0 km/h
393 04-06-2003 17:51:01 32.3 C 8.92 g/m*3 32.3 C 0 km/h
394 04-06-2003 18:01:01 32 C 9.11 g/m*3 32 C 0 km/h
395 04-06-2003 18:11:01 32.2 C 9.21 g/m*3 32.2 C 0 km/h
396 04-06-2003 18:21:01 32 C 8.78 g/m*3 32 C 0 km/h
397 04-06-2003 18:31:01 32.2 C 9.21 g/m*3 32.2 C 0 km/h
398 04-06-2003 18:41:01 31.7 C 8.97 g/m*3 31.7 C 0 km/h
399 04-06-2003 18:51:01 31.8 C 9.69 g/m*3 31.8 C 0 km/h
400 04-06-2003 19:01:01 31.8 C 8.68 g/m*3 31.8 C 0 km/h
Sensor: Nr:Datum:Temp:Abs-Feuchte:Windchill:Wind:
Aussen-T/F 401 04-06-2003 19:11:01 32 C 9.79 g/m*3 32 C 0 km/h
402 04-06-2003 19:21:01 31.8 C 10.35 g/m*3 31.8 C 0 km/h
403 04-06-2003 19:31:01 31.4 C 9.81 g/m*3 31.4 C 0 km/h
404 04-06-2003 19:41:01 31.4 C 10.46 g/m*3 31.4 C 0 km/h
405 04-06-2003 19:51:01 31.3 C 11.38 g/m*3 31.3 C 0 km/h
406 04-06-2003 20:01:01 31 C 10.88 g/m*3 31 C 0 km/h
407 04-06-2003 20:11:01 30.7 C 11.02 g/m*3 30.7 C 0 km/h
408 04-06-2003 20:21:01 30.4 C 11.16 g/m*3 30.4 C 0 km/h
409 04-06-2003 20:31:01 30 C 11.52 g/m*3 30 C 0 km/h
410 04-06-2003 20:41:01 29.7 C 11.93 g/m*3 29.7 C 0 km/h
411 04-06-2003 20:51:01 28.9 C 12.28 g/m*3 28.9 C 0 km/h
412 04-06-2003 21:01:01 28.2 C 11.55 g/m*3 28.2 C 0 km/h
413 04-06-2003 21:11:01 27.8 C 12.1 g/m*3 27.8 C 0 km/h
414 04-06-2003 21:21:01 26.9 C 12.03 g/m*3 26.9 C 0 km/h
415 04-06-2003 21:31:01 26.7 C 12.15 g/m*3 26.7 C 0 km/h
416 04-06-2003 21:41:01 26.5 C 12.52 g/m*3 26.5 C 0 km/h
417 04-06-2003 21:51:01 26.4 C 12.45 g/m*3 26.4 C 0 km/h
418 04-06-2003 22:01:01 26.1 C 12.73 g/m*3 26.1 C 0 km/h
419 04-06-2003 22:12:01 25.6 C 12.62 g/m*3 25.6 C 0 km/h
420 04-06-2003 22:22:01 25.3 C 12.64 g/m*3 25.3 C 0 km/h
421 04-06-2003 22:32:01 24.9 C 12.82 g/m*3 24.9 C 0 km/h
422 04-06-2003 22:42:01 24.7 C 12.45 g/m*3 24.7 C 0 km/h
423 04-06-2003 22:52:01 24.5 C 12.53 g/m*3 24.5 C 0 km/h
424 04-06-2003 23:02:01 24.6 C 13.28 g/m*3 24.6 C 0 km/h
425 04-06-2003 23:12:01 24.5 C 13.2 g/m*3 24.5 C 0 km/h
Sensor: Nr:Datum:Temp:Abs-Feuchte:Windchill:Wind:
Aussen-T/F 426 04-06-2003 23:22:01 24.3 C 13.06 g/m*3 24.3 C 0 km/h
427 04-06-2003 23:32:01 23.9 C 13.2 g/m*3 23.9 C 0 km/h
428 04-06-2003 23:42:01 23.7 C 13.05 g/m*3 23.7 C 0 km/h
429 04-06-2003 23:52:01 23.6 C 13.19 g/m*3 23.6 C 0 km/h
430 05-06-2003 00:02:01 23.4 C 13.04 g/m*3 23.4 C 0 km/h
431 05-06-2003 00:12:01 23.3 C 13.17 g/m*3 23.3 C 0 km/h
432 05-06-2003 00:22:01 23.1 C 13.02 g/m*3 23.1 C 0 km/h
433 05-06-2003 00:32:01 22.9 C 13.28 g/m*3 22.9 C 0 km/h
434 05-06-2003 00:42:01 22.7 C 13.13 g/m*3 22.7 C 0 km/h
435 05-06-2003 00:52:01 22.6 C 13.06 g/m*3 22.6 C 0 km/h
436 05-06-2003 01:02:01 22.2 C 12.76 g/m*3 22.2 C 0 km/h
437 05-06-2003 01:12:01 22.1 C 12.69 g/m*3 22.1 C 0 km/h
438 05-06-2003 01:22:01 22 C 12.81 g/m*3 22 C 0 km/h
439 05-06-2003 01:32:01 21.8 C 12.85 g/m*3 21.8 C 0 km/h
440 05-06-2003 01:42:01 21.8 C 13.05 g/m*3 21.8 C 0 km/h
441 05-06-2003 01:52:01 21.7 C 12.97 g/m*3 21.7 C 0 km/h
442 05-06-2003 02:02:01 21.7 C 12.97 g/m*3 21.7 C 0 km/h
443 05-06-2003 02:12:01 21.7 C 12.97 g/m*3 21.7 C 0 km/h
444 05-06-2003 02:22:01 21.8 C 13.05 g/m*3 21.8 C 0 km/h
445 05-06-2003 02:32:01 21.9 C 13.31 g/m*3 21.9 C 0 km/h
446 05-06-2003 02:42:01 22 C 13.2 g/m*3 22 C 0 km/h
447 05-06-2003 02:52:01 21.9 C 13.12 g/m*3 21.9 C 0 km/h
448 05-06-2003 03:02:01 22 C 13.2 g/m*3 22 C 0 km/h
449 05-06-2003 03:12:01 21.7 C 13.16 g/m*3 21.7 C 0 km/h
450 05-06-2003 03:22:01 21.7 C 13.35 g/m*3 21.7 C 0 km/h
Sensor: Nr:Datum:Temp:Abs-Feuchte:Windchill:Wind:
Aussen-T/F 451 05-06-2003 03:32:01 21.3 C 13.05 g/m*3 21.3 C 0 km/h
452 05-06-2003 03:42:01 21.4 C 13.31 g/m*3 21.4 C 0 km/h
453 05-06-2003 03:52:01 21.1 C 13.08 g/m*3 21.1 C 0 km/h
454 05-06-2003 04:02:01 20.8 C 13.04 g/m*3 20.8 C 0 km/h
455 05-06-2003 04:12:01 20.8 C 13.22 g/m*3 20.8 C 0 km/h
456 05-06-2003 04:22:01 20.9 C 13.11 g/m*3 20.9 C 0 km/h
457 05-06-2003 04:32:01 21 C 13.19 g/m*3 21 C 0 km/h
458 05-06-2003 04:42:01 20.9 C 13.11 g/m*3 20.9 C 0 km/h
459 05-06-2003 04:52:01 20.6 C 13.07 g/m*3 20.6 C 0 km/h
460 05-06-2003 05:02:01 20.7 C 13.14 g/m*3 20.7 C 0 km/h
461 05-06-2003 05:12:01 20.8 C 13.04 g/m*3 20.8 C 0 km/h
462 05-06-2003 05:22:01 20.8 C 13.04 g/m*3 20.8 C 0 km/h
463 05-06-2003 05:32:01 20.8 C 13.04 g/m*3 20.8 C 0 km/h
464 05-06-2003 05:42:01 20.8 C 13.04 g/m*3 20.8 C 0 km/h
465 05-06-2003 05:52:01 20.8 C 13.22 g/m*3 20.8 C 0 km/h
466 05-06-2003 06:02:01 20.6 C 13.24 g/m*3 20.6 C 0 km/h
467 05-06-2003 06:12:01 20.4 C 13.09 g/m*3 20.4 C 0 km/h
468 05-06-2003 06:22:01 20.3 C 13.19 g/m*3 20.3 C 0 km/h
469 05-06-2003 06:32:01 20.2 C 13.29 g/m*3 20.2 C 0 km/h
470 05-06-2003 06:42:01 20.6 C 13.42 g/m*3 20.6 C 0 km/h
471 05-06-2003 06:52:01 20.5 C 13.35 g/m*3 20.5 C 0 km/h
472 05-06-2003 07:02:01 20.7 C 13.32 g/m*3 20.7 C 0 km/h
473 05-06-2003 07:12:01 21 C 13.37 g/m*3 21 C 0 km/h
474 05-06-2003 07:22:01 21.5 C 13.39 g/m*3 21.5 C 0 km/h
475 05-06-2003 07:32:01 21.7 C 13.16 g/m*3 21.7 C 0 km/h
Sensor: Nr:Datum:Temp:Abs-Feuchte:Windchill:Wind:
Aussen-T/F 476 05-06-2003 07:42:01 21.8 C 13.24 g/m*3 21.8 C 0 km/h
477 05-06-2003 07:52:01 21.7 C 13.35 g/m*3 21.7 C 0 km/h
478 05-06-2003 08:02:00 22.1 C 13.47 g/m*3 22.1 C 0 km/h
479 05-06-2003 08:12:00 22.1 C 13.47 g/m*3 22.1 C 0 km/h
480 05-06-2003 08:22:00 22.4 C 13.7 g/m*3 22.4 C 0 km/h
481 05-06-2003 08:32:00 22.6 C 13.86 g/m*3 22.6 C 0 km/h
482 05-06-2003 08:42:00 22.8 C 13.82 g/m*3 22.8 C 0 km/h
483 05-06-2003 08:52:00 23 C 13.77 g/m*3 23 C 0 km/h
484 05-06-2003 09:02:00 23.5 C 13.75 g/m*3 23.5 C 0 km/h
485 05-06-2003 09:12:00 24.2 C 13.86 g/m*3 24.2 C 0 km/h
486 05-06-2003 09:22:00 24.7 C 13.58 g/m*3 24.7 C 0 km/h
487 05-06-2003 09:32:01 25 C 13.35 g/m*3 25 C 0 km/h
488 05-06-2003 09:42:01 25 C 12.89 g/m*3 25 C 0 km/h
489 05-06-2003 09:52:01 25.6 C 13.09 g/m*3 25.6 C 0 km/h
490 05-06-2003 10:02:01 26.7 C 12.91 g/m*3 26.7 C 0 km/h
491 05-06-2003 10:12:01 26.8 C 12.98 g/m*3 26.8 C 0 km/h
492 05-06-2003 10:22:01 27.1 C 13.2 g/m*3 27.1 C 0 km/h
493 05-06-2003 10:32:00 27.5 C 12.96 g/m*3 27.5 C 0 km/h
494 05-06-2003 10:42:00 27.3 C 12.82 g/m*3 27.3 C 0 km/h
495 05-06-2003 10:52:00 27 C 12.61 g/m*3 27 C 0 km/h
496 05-06-2003 11:02:00 27.1 C 12.68 g/m*3 27.1 C 0 km/h
497 05-06-2003 11:02:01 27.1 C 12.68 g/m*3 27.1 C 0 km/h
498 05-06-2003 11:12:00 26.8 C 12.98 g/m*3 26.8 C 0 km/h
499 05-06-2003 11:22:00 26.6 C 12.84 g/m*3 26.6 C 0 km/h
500 05-06-2003 11:32:00 27.1 C 12.94 g/m*3 27.1 C 0 km/h
Sensor: Nr:Datum:Temp:Abs-Feuchte:Windchill:Wind:
Aussen-T/F 501 05-06-2003 11:42:00 26.9 C 13.31 g/m*3 26.9 C 0 km/h
502 05-06-2003 11:52:00 25.8 C 13.48 g/m*3 25.8 C 0 km/h
503 05-06-2003 12:02:01 23.9 C 14.71 g/m*3 23.9 C 0 km/h
504 05-06-2003 12:12:01 24 C 14.79 g/m*3 24 C 0 km/h
505 05-06-2003 12:22:01 24.5 C 14.55 g/m*3 24.5 C 0 km/h
506 05-06-2003 12:32:01 25 C 14.04 g/m*3 25 C 0 km/h
507 05-06-2003 12:42:01 25 C 13.35 g/m*3 25 C 0 km/h
508 05-06-2003 12:52:01 25.6 C 13.57 g/m*3 25.6 C 0 km/h
509 05-06-2003 13:02:01 27.4 C 13.42 g/m*3 27.4 C 0 km/h
510 05-06-2003 13:12:01 28.5 C 13.14 g/m*3 28.5 C 0 km/h
511 05-06-2003 13:22:01 28.4 C 13.06 g/m*3 28.4 C 0 km/h
512 05-06-2003 13:32:01 28.5 C 12.58 g/m*3 28.5 C 0 km/h
513 05-06-2003 13:42:01 30 C 12.43 g/m*3 30 C 0 km/h
514 05-06-2003 13:52:01 30 C 12.13 g/m*3 30 C 0 km/h
515 05-06-2003 14:02:07 30.1 C 11.28 g/m*3 30.1 C 0 km/h
516 05-06-2003 14:12:07 30.2 C 11.96 g/m*3 30.2 C 0 km/h
517 05-06-2003 14:22:07 28.1 C 12.3 g/m*3 28.1 C 0 km/h
518 05-06-2003 14:32:00 27.6 C 13.3 g/m*3 27.6 C 0 km/h
519 05-06-2003 14:42:00 26.1 C 12.98 g/m*3 26.1 C 0 km/h
520 05-06-2003 14:52:00 24.9 C 13.05 g/m*3 24.9 C 0 km/h
521 05-06-2003 15:02:00 24.1 C 12.69 g/m*3 24.1 C 0 km/h
522 05-06-2003 15:12:00 23.4 C 12.62 g/m*3 23.4 C 0 km/h
523 05-06-2003 15:22:00 22.6 C 12.05 g/m*3 22.6 C 0 km/h
524 05-06-2003 15:32:01 22.6 C 12.05 g/m*3 22.6 C 0 km/h
525 05-06-2003 15:42:01 22.7 C 12.53 g/m*3 22.7 C 0 km/h
Sensor: Nr:Datum:Temp:Abs-Feuchte:Windchill:Wind:
Aussen-T/F 526 05-06-2003 15:52:01 22.5 C 12.38 g/m*3 22.5 C 0 km/h
527 05-06-2003 16:02:01 21.7 C 12.78 g/m*3 21.7 C 0 km/h
528 05-06-2003 16:12:01 21.2 C 13.34 g/m*3 21.2 C 0 km/h
529 05-06-2003 16:22:01 22.1 C 13.86 g/m*3 22.1 C 0 km/h
530 05-06-2003 16:32:01 22.9 C 12.67 g/m*3 22.9 C 0 km/h
531 05-06-2003 16:42:01 24.8 C 12.75 g/m*3 24.8 C 0 km/h
532 05-06-2003 16:52:01 23.8 C 12.26 g/m*3 23.8 C 0 km/h
533 05-06-2003 17:02:01 25 C 12.2 g/m*3 25 C 0 km/h
534 05-06-2003 17:12:01 25 C 11.97 g/m*3 25 C 0 km/h
535 05-06-2003 17:22:01 25.2 C 12.11 g/m*3 25.2 C 0 km/h
536 05-06-2003 17:32:00 24.4 C 11.79 g/m*3 24.4 C 0 km/h
537 05-06-2003 17:42:00 24.1 C 11.38 g/m*3 24.1 C 0 km/h
538 05-06-2003 17:52:00 24.1 C 11.6 g/m*3 24.1 C 0 km/h
539 05-06-2003 18:02:01 23.4 C 11.35 g/m*3 23.4 C 0 km/h
540 05-06-2003 18:12:01 22.9 C 11.65 g/m*3 22.9 C 0 km/h
541 05-06-2003 18:22:01 22.9 C 11.65 g/m*3 22.9 C 0 km/h
542 05-06-2003 18:32:01 22 C 11.84 g/m*3 22 C 0 km/h
543 05-06-2003 18:42:01 22.2 C 11.98 g/m*3 22.2 C 0 km/h
544 05-06-2003 18:52:01 22.5 C 11.78 g/m*3 22.5 C 0 km/h
545 05-06-2003 19:02:02 22.2 C 11.78 g/m*3 22.2 C 0 km/h
546 05-06-2003 19:12:02 22.2 C 11.98 g/m*3 22.2 C 0 km/h
547 05-06-2003 19:22:02 21.8 C 12.09 g/m*3 21.8 C 0 km/h
548 05-06-2003 19:32:01 21.4 C 11.81 g/m*3 21.4 C 0 km/h
549 05-06-2003 19:42:01 21.4 C 11.62 g/m*3 21.4 C 0 km/h
550 05-06-2003 19:52:01 21 C 11.54 g/m*3 21 C 0 km/h
Sensor: Nr:Datum:Temp:Abs-Feuchte:Windchill:Wind:
Aussen-T/F 551 05-06-2003 20:02:01 21.3 C 11.74 g/m*3 21.3 C 0 km/h
552 05-06-2003 20:12:01 21.4 C 11.81 g/m*3 21.4 C 0 km/h
553 05-06-2003 20:22:01 21.3 C 11.74 g/m*3 21.3 C 0 km/h
554 05-06-2003 20:32:01 21.2 C 11.68 g/m*3 21.2 C 0 km/h
555 05-06-2003 20:42:01 21.2 C 11.86 g/m*3 21.2 C 0 km/h
556 05-06-2003 20:52:01 20.8 C 11.41 g/m*3 20.8 C 0 km/h
557 05-06-2003 21:02:02 20.5 C 11.39 g/m*3 20.5 C 0 km/h
558 05-06-2003 21:12:02 20.6 C 11.45 g/m*3 20.6 C 0 km/h
559 05-06-2003 21:22:02 20.4 C 11.32 g/m*3 20.4 C 0 km/h
560 05-06-2003 21:32:01 20.4 C 11.32 g/m*3 20.4 C 0 km/h
561 05-06-2003 21:42:01 20.5 C 11.21 g/m*3 20.5 C 0 km/h
562 05-06-2003 21:52:01 20.4 C 11.32 g/m*3 20.4 C 0 km/h
563 05-06-2003 22:03:01 20.3 C 11.43 g/m*3 20.3 C 0 km/h
564 05-06-2003 22:13:01 19.8 C 11.61 g/m*3 19.8 C 0 km/h
565 05-06-2003 22:23:01 19.2 C 11.54 g/m*3 19.2 C 0 km/h
566 05-06-2003 22:33:01 18.9 C 11.66 g/m*3 18.9 C 0 km/h
567 05-06-2003 22:43:01 19.1 C 11.64 g/m*3 19.1 C 0 km/h
568 05-06-2003 22:53:01 19.2 C 11.87 g/m*3 19.2 C 0 km/h
569 05-06-2003 23:03:01 18.9 C 11.66 g/m*3 18.9 C 0 km/h
570 05-06-2003 23:13:01 18.7 C 11.69 g/m*3 18.7 C 0 km/h
571 05-06-2003 23:23:01 18.3 C 11.57 g/m*3 18.3 C 0 km/h
572 05-06-2003 23:33:01 18.1 C 11.59 g/m*3 18.1 C 0 km/h
573 05-06-2003 23:43:01 18 C 11.67 g/m*3 18 C 0 km/h
574 05-06-2003 23:53:01 17.9 C 11.76 g/m*3 17.9 C 0 km/h
575 06-06-2003 00:03:01 17.8 C 11.69 g/m*3 17.8 C 0 km/h
Sensor: Nr:Datum:Temp:Abs-Feuchte:Windchill:Wind:
Aussen-T/F 576 06-06-2003 00:13:01 17.8 C 11.84 g/m*3 17.8 C 0 km/h
577 06-06-2003 00:23:01 17.7 C 11.77 g/m*3 17.7 C 0 km/h
578 06-06-2003 00:33:01 17.7 C 11.77 g/m*3 17.7 C 0 km/h
579 06-06-2003 00:43:01 17.5 C 11.78 g/m*3 17.5 C 0 km/h
580 06-06-2003 00:53:01 17.2 C 11.57 g/m*3 17.2 C 0 km/h
581 06-06-2003 01:03:01 17.2 C 11.57 g/m*3 17.2 C 0 km/h
582 06-06-2003 01:13:01 17.2 C 11.57 g/m*3 17.2 C 0 km/h
583 06-06-2003 01:23:01 16.9 C 11.65 g/m*3 16.9 C 0 km/h
584 06-06-2003 01:33:01 16.9 C 11.65 g/m*3 16.9 C 0 km/h
585 06-06-2003 01:43:01 16.9 C 11.79 g/m*3 16.9 C 0 km/h
586 06-06-2003 01:53:01 16.8 C 11.72 g/m*3 16.8 C 0 km/h
587 06-06-2003 02:03:01 16.7 C 11.65 g/m*3 16.7 C 0 km/h
588 06-06-2003 02:13:01 16.5 C 11.65 g/m*3 16.5 C 0 km/h
589 06-06-2003 02:23:01 16.3 C 11.52 g/m*3 16.3 C 0 km/h
590 06-06-2003 02:33:01 16.2 C 11.45 g/m*3 16.2 C 0 km/h
591 06-06-2003 02:43:01 16 C 11.44 g/m*3 16 C 0 km/h
592 06-06-2003 02:53:01 16 C 11.58 g/m*3 16 C 0 km/h
593 06-06-2003 03:03:01 15.8 C 11.44 g/m*3 15.8 C 0 km/h
594 06-06-2003 03:13:01 15.7 C 11.37 g/m*3 15.7 C 0 km/h
595 06-06-2003 03:23:01 15.6 C 11.44 g/m*3 15.6 C 0 km/h
596 06-06-2003 03:33:01 15.5 C 11.37 g/m*3 15.5 C 0 km/h
597 06-06-2003 03:43:01 15.5 C 11.37 g/m*3 15.5 C 0 km/h
598 06-06-2003 03:53:01 15.4 C 11.3 g/m*3 15.4 C 0 km/h
599 06-06-2003 04:03:01 15.4 C 11.3 g/m*3 15.4 C 0 km/h
600 06-06-2003 04:13:01 15.2 C 11.16 g/m*3 15.2 C 0 km/h
Sensor: Nr:Datum:Temp:Abs-Feuchte:Windchill:Wind:
Aussen-T/F 601 06-06-2003 04:23:01 15.2 C 11.29 g/m*3 15.2 C 0 km/h
602 06-06-2003 04:33:01 15.1 C 11.22 g/m*3 15.1 C 0 km/h
603 06-06-2003 04:43:01 15 C 11.16 g/m*3 15 C 0 km/h
604 06-06-2003 04:53:01 14.9 C 11.22 g/m*3 14.9 C 0 km/h
605 06-06-2003 05:03:01 14.8 C 11.15 g/m*3 14.8 C 0 km/h
606 06-06-2003 05:13:01 14.7 C 11.21 g/m*3 14.7 C 0 km/h
607 06-06-2003 05:23:01 14.6 C 11.14 g/m*3 14.6 C 0 km/h
608 06-06-2003 05:33:01 14.6 C 11.14 g/m*3 14.6 C 0 km/h
609 06-06-2003 05:43:01 14.6 C 11.14 g/m*3 14.6 C 0 km/h
610 06-06-2003 05:53:01 14.7 C 11.33 g/m*3 14.7 C 0 km/h
611 06-06-2003 06:03:01 14.6 C 11.26 g/m*3 14.6 C 0 km/h
612 06-06-2003 06:13:01 14.7 C 11.33 g/m*3 14.7 C 0 km/h
613 06-06-2003 06:23:01 14.7 C 11.21 g/m*3 14.7 C 0 km/h
614 06-06-2003 06:33:01 14.7 C 11.21 g/m*3 14.7 C 0 km/h
615 06-06-2003 06:43:01 14.6 C 11.14 g/m*3 14.6 C 0 km/h
616 06-06-2003 07:03:01 14.7 C 11.33 g/m*3 14.7 C 0 km/h
617 06-06-2003 07:13:01 15 C 11.28 g/m*3 15 C 0 km/h
618 06-06-2003 07:23:01 15.2 C 11.29 g/m*3 15.2 C 0 km/h
619 06-06-2003 07:33:01 15.7 C 11.51 g/m*3 15.7 C 0 km/h
620 06-06-2003 07:43:01 15.9 C 11.38 g/m*3 15.9 C 0 km/h
621 06-06-2003 07:53:01 16 C 11.31 g/m*3 16 C 0 km/h
622 06-06-2003 08:03:01 15.9 C 11.38 g/m*3 15.9 C 0 km/h
623 06-06-2003 08:13:01 16.3 C 11.38 g/m*3 16.3 C 0 km/h
624 06-06-2003 08:23:01 16.4 C 11.45 g/m*3 16.4 C 0 km/h
625 06-06-2003 08:33:01 17 C 11.58 g/m*3 17 C 0 km/h
Sensor: Nr:Datum:Temp:Abs-Feuchte:Windchill:Wind:
Aussen-T/F 626 06-06-2003 08:43:01 17.4 C 11.56 g/m*3 17.4 C 0 km/h
627 06-06-2003 08:53:01 17.8 C 11.69 g/m*3 17.8 C 0 km/h
628 06-06-2003 09:03:01 18.1 C 11.59 g/m*3 18.1 C 0 km/h
629 06-06-2003 09:13:01 18.3 C 11.88 g/m*3 18.3 C 0 km/h
630 06-06-2003 09:23:01 18.4 C 11.95 g/m*3 18.4 C 0 km/h
631 06-06-2003 09:33:00 18.9 C 11.99 g/m*3 18.9 C 0 km/h
632 06-06-2003 09:43:00 19.5 C 11.75 g/m*3 19.5 C 0 km/h
633 06-06-2003 09:53:00 19.8 C 11.61 g/m*3 19.8 C 0 km/h
634 06-06-2003 10:03:01 20.8 C 11.95 g/m*3 20.8 C 0 km/h
635 06-06-2003 10:13:01 21.6 C 12.33 g/m*3 21.6 C 0 km/h
636 06-06-2003 10:23:01 21.5 C 11.69 g/m*3 21.5 C 0 km/h
637 06-06-2003 10:33:01 21.8 C 12.09 g/m*3 21.8 C 0 km/h
638 06-06-2003 10:43:01 22.5 C 12.18 g/m*3 22.5 C 0 km/h
639 06-06-2003 10:53:01 22.7 C 11.92 g/m*3 22.7 C 0 km/h
640 06-06-2003 11:03:00 23.2 C 12.06 g/m*3 23.2 C 0 km/h
641 06-06-2003 11:13:00 23.7 C 12.19 g/m*3 23.7 C 0 km/h
642 06-06-2003 11:23:00 24.1 C 12.25 g/m*3 24.1 C 0 km/h
643 06-06-2003 11:33:02 24.5 C 11.86 g/m*3 24.5 C 0 km/h
644 06-06-2003 11:43:02 24.7 C 11.77 g/m*3 24.7 C 0 km/h
645 06-06-2003 11:53:02 25.3 C 11.71 g/m*3 25.3 C 0 km/h
646 06-06-2003 12:03:01 25.9 C 11.38 g/m*3 25.9 C 0 km/h
647 06-06-2003 12:13:01 26 C 10.96 g/m*3 26 C 0 km/h
648 06-06-2003 12:23:01 26.9 C 10.49 g/m*3 26.9 C 0 km/h
649 06-06-2003 12:33:01 27.5 C 10.58 g/m*3 27.5 C 0 km/h
650 06-06-2003 12:43:01 27.8 C 10.49 g/m*3 27.8 C 0 km/h
Sensor: Nr:Datum:Temp:Abs-Feuchte:Windchill:Wind:
Aussen-T/F 651 06-06-2003 12:53:01 28.3 C 11.06 g/m*3 28.3 C 0 km/h
652 06-06-2003 13:03:01 28.1 C 9.84 g/m*3 28.1 C 0 km/h
653 06-06-2003 13:13:01 28.9 C 10.57 g/m*3 28.9 C 0 km/h
654 06-06-2003 13:23:01 30 C 10.31 g/m*3 30 C 0 km/h
655 06-06-2003 13:33:00 29.8 C 10.5 g/m*3 29.8 C 0 km/h
656 06-06-2003 13:43:00 28.7 C 9.89 g/m*3 28.7 C 0 km/h
657 06-06-2003 13:53:00 28.6 C 10.96 g/m*3 28.6 C 0 km/h
658 06-06-2003 14:03:01 29.6 C 10.39 g/m*3 29.6 C 0 km/h
659 06-06-2003 14:13:01 29.8 C 10.8 g/m*3 29.8 C 0 km/h
660 06-06-2003 14:23:01 30.1 C 11.28 g/m*3 30.1 C 0 km/h
661 06-06-2003 14:33:01 30.4 C 10.23 g/m*3 30.4 C 0 km/h
662 06-06-2003 14:43:01 30.7 C 10.08 g/m*3 30.7 C 0 km/h
663 06-06-2003 14:53:01 30.4 C 10.23 g/m*3 30.4 C 0 km/h
664 06-06-2003 15:03:01 30.6 C 10.02 g/m*3 30.6 C 0 km/h
665 06-06-2003 15:13:01 30.3 C 10.48 g/m*3 30.3 C 0 km/h
666 06-06-2003 15:23:01 30.6 C 10.02 g/m*3 30.6 C 0 km/h
667 06-06-2003 15:33:02 30.7 C 9.76 g/m*3 30.7 C 0 km/h
668 06-06-2003 15:43:02 30.8 C 9.81 g/m*3 30.8 C 0 km/h
669 06-06-2003 15:53:02 31.3 C 10.41 g/m*3 31.3 C 0 km/h
670 06-06-2003 16:03:02 31.4 C 9.81 g/m*3 31.4 C 0 km/h
671 06-06-2003 16:13:02 31 C 9.92 g/m*3 31 C 0 km/h
672 06-06-2003 16:23:02 30.8 C 10.45 g/m*3 30.8 C 0 km/h
673 06-06-2003 16:33:18 31 C 10.24 g/m*3 31 C 0 km/h
674 06-06-2003 16:43:18 31.3 C 10.08 g/m*3 31.3 C 0 km/h
675 06-06-2003 16:53:01 30.7 C 10.08 g/m*3 30.7 C 0 km/h
Sensor: Nr:Datum:Temp:Abs-Feuchte:Windchill:Wind:
Aussen-T/F 676 06-06-2003 17:03:10 30.4 C 11.77 g/m*3 30.4 C 0 km/h
677 06-06-2003 17:13:01 30 C 12.43 g/m*3 30 C 0 km/h
678 06-06-2003 17:23:01 29.4 C 12.62 g/m*3 29.4 C 0 km/h
679 06-06-2003 17:33:02 29.1 C 13 g/m*3 29.1 C 0 km/h
680 06-06-2003 17:43:02 29.3 C 13.14 g/m*3 29.3 C 0 km/h
681 06-06-2003 17:53:02 29.5 C 12.69 g/m*3 29.5 C 0 km/h
682 06-06-2003 18:03:01 30.3 C 12.64 g/m*3 30.3 C 0 km/h
683 06-06-2003 18:13:01 30.8 C 12.66 g/m*3 30.8 C 0 km/h
684 06-06-2003 18:23:01 30.9 C 11.14 g/m*3 30.9 C 0 km/h
685 06-06-2003 18:33:01 31 C 11.52 g/m*3 31 C 0 km/h
686 06-06-2003 18:43:01 30.7 C 11.34 g/m*3 30.7 C 0 km/h
687 06-06-2003 18:53:01 30.5 C 11.22 g/m*3 30.5 C 0 km/h
688 06-06-2003 19:03:01 30.7 C 11.02 g/m*3 30.7 C 0 km/h
689 06-06-2003 19:13:01 30.2 C 10.12 g/m*3 30.2 C 0 km/h
690 06-06-2003 19:23:01 30.4 C 11.47 g/m*3 30.4 C 0 km/h
691 06-06-2003 19:33:01 30.6 C 10.96 g/m*3 30.6 C 0 km/h
692 06-06-2003 19:43:01 30.6 C 11.59 g/m*3 30.6 C 0 km/h
693 06-06-2003 19:53:01 30.4 C 12.08 g/m*3 30.4 C 0 km/h
694 06-06-2003 20:03:02 30 C 12.43 g/m*3 30 C 0 km/h
695 06-06-2003 20:13:02 29.6 C 12.46 g/m*3 29.6 C 0 km/h
696 06-06-2003 20:23:02 28.8 C 12.5 g/m*3 28.8 C 0 km/h
697 06-06-2003 20:33:02 28 C 12.51 g/m*3 28 C 0 km/h
698 06-06-2003 20:43:02 27.4 C 12.37 g/m*3 27.4 C 0 km/h
699 06-06-2003 20:53:02 26.7 C 12.4 g/m*3 26.7 C 0 km/h
700 06-06-2003 21:03:02 25.5 C 12.31 g/m*3 25.5 C 0 km/h
Sensor: Nr:Datum:Temp:Abs-Feuchte:Windchill:Wind:
Aussen-T/F 701 06-06-2003 21:13:02 25 C 12.43 g/m*3 25 C 0 km/h
702 06-06-2003 21:23:02 24.3 C 11.73 g/m*3 24.3 C 0 km/h
703 06-06-2003 21:33:01 24 C 11.75 g/m*3 24 C 0 km/h
704 06-06-2003 21:43:01 23.6 C 11.91 g/m*3 23.6 C 0 km/h
705 06-06-2003 21:53:01 23.3 C 11.71 g/m*3 23.3 C 0 km/h
706 06-06-2003 22:03:01 23 C 11.72 g/m*3 23 C 0 km/h
707 06-06-2003 22:13:01 22.9 C 12.06 g/m*3 22.9 C 0 km/h
708 06-06-2003 22:23:01 22.8 C 11.99 g/m*3 22.8 C 0 km/h
709 06-06-2003 22:34:01 22.7 C 11.92 g/m*3 22.7 C 0 km/h
710 06-06-2003 22:44:01 22.4 C 11.92 g/m*3 22.4 C 0 km/h
711 06-06-2003 22:54:01 22.1 C 11.91 g/m*3 22.1 C 0 km/h
712 06-06-2003 23:04:01 22 C 12.03 g/m*3 22 C 0 km/h
713 06-06-2003 23:14:01 22 C 12.03 g/m*3 22 C 0 km/h
714 06-06-2003 23:24:01 21.8 C 12.09 g/m*3 21.8 C 0 km/h
715 06-06-2003 23:34:01 21.6 C 12.14 g/m*3 21.6 C 0 km/h
716 06-06-2003 23:44:01 21.3 C 11.93 g/m*3 21.3 C 0 km/h
717 06-06-2003 23:54:01 21.2 C 12.05 g/m*3 21.2 C 0 km/h
718 07-06-2003 00:04:01 21 C 11.91 g/m*3 21 C 0 km/h
719 07-06-2003 00:14:01 20.9 C 12.02 g/m*3 20.9 C 0 km/h
720 07-06-2003 00:24:01 20.5 C 11.74 g/m*3 20.5 C 0 km/h
721 07-06-2003 00:34:01 20.4 C 11.85 g/m*3 20.4 C 0 km/h
722 07-06-2003 00:44:01 20.3 C 11.96 g/m*3 20.3 C 0 km/h
723 07-06-2003 00:54:01 20.4 C 12.03 g/m*3 20.4 C 0 km/h
724 07-06-2003 01:04:01 20.3 C 11.96 g/m*3 20.3 C 0 km/h
725 07-06-2003 01:14:01 20.2 C 11.89 g/m*3 20.2 C 0 km/h
Sensor: Nr:Datum:Temp:Abs-Feuchte:Windchill:Wind:
Aussen-T/F 726 07-06-2003 01:24:01 19.8 C 12.13 g/m*3 19.8 C 0 km/h
727 07-06-2003 01:34:01 19.7 C 12.06 g/m*3 19.7 C 0 km/h
728 07-06-2003 01:44:01 19.7 C 12.23 g/m*3 19.7 C 0 km/h
729 07-06-2003 01:54:01 19.6 C 12.32 g/m*3 19.6 C 0 km/h
730 07-06-2003 02:04:01 19.5 C 12.25 g/m*3 19.5 C 0 km/h
731 07-06-2003 02:14:01 19.3 C 12.27 g/m*3 19.3 C 0 km/h
732 07-06-2003 02:24:01 19.1 C 12.13 g/m*3 19.1 C 0 km/h
733 07-06-2003 02:34:01 18.8 C 12.24 g/m*3 18.8 C 0 km/h
734 07-06-2003 02:44:01 18.8 C 12.24 g/m*3 18.8 C 0 km/h
735 07-06-2003 02:54:01 18.7 C 12.17 g/m*3 18.7 C 0 km/h
736 07-06-2003 03:04:01 18.6 C 12.1 g/m*3 18.6 C 0 km/h
737 07-06-2003 03:14:01 18.5 C 12.18 g/m*3 18.5 C 0 km/h
738 07-06-2003 03:24:01 18.4 C 12.11 g/m*3 18.4 C 0 km/h
739 07-06-2003 03:34:01 18.3 C 12.2 g/m*3 18.3 C 0 km/h
740 07-06-2003 03:44:01 18.2 C 12.12 g/m*3 18.2 C 0 km/h
741 07-06-2003 03:54:01 18.1 C 12.05 g/m*3 18.1 C 0 km/h
742 07-06-2003 04:04:01 17.9 C 12.06 g/m*3 17.9 C 0 km/h
743 07-06-2003 04:14:01 17.9 C 12.21 g/m*3 17.9 C 0 km/h
744 07-06-2003 04:24:01 17.6 C 12.15 g/m*3 17.6 C 0 km/h
745 07-06-2003 04:34:01 17.5 C 12.08 g/m*3 17.5 C 0 km/h
746 07-06-2003 04:44:01 17.3 C 11.93 g/m*3 17.3 C 0 km/h
747 07-06-2003 04:54:01 17.5 C 12.08 g/m*3 17.5 C 0 km/h
748 07-06-2003 05:04:01 17.4 C 12 g/m*3 17.4 C 0 km/h
749 07-06-2003 05:14:01 17.4 C 12.15 g/m*3 17.4 C 0 km/h
750 07-06-2003 05:24:01 17.3 C 12.08 g/m*3 17.3 C 0 km/h
Sensor: Nr:Datum:Temp:Abs-Feuchte:Windchill:Wind:
Aussen-T/F 751 07-06-2003 05:34:01 17.3 C 11.93 g/m*3 17.3 C 0 km/h
752 07-06-2003 05:44:01 17.2 C 11.86 g/m*3 17.2 C 0 km/h
753 07-06-2003 05:54:01 17.2 C 11.86 g/m*3 17.2 C 0 km/h
754 07-06-2003 06:04:01 17.3 C 11.93 g/m*3 17.3 C 0 km/h
755 07-06-2003 06:14:01 17.2 C 12.01 g/m*3 17.2 C 0 km/h
756 07-06-2003 06:24:01 17.2 C 12.15 g/m*3 17.2 C 0 km/h
757 07-06-2003 06:34:01 17.3 C 12.08 g/m*3 17.3 C 0 km/h
758 07-06-2003 06:44:01 17.2 C 12.01 g/m*3 17.2 C 0 km/h
759 07-06-2003 06:54:01 17.2 C 12.01 g/m*3 17.2 C 0 km/h
760 07-06-2003 07:04:01 17.2 C 12.01 g/m*3 17.2 C 0 km/h
761 07-06-2003 07:14:01 17.5 C 12.23 g/m*3 17.5 C 0 km/h
762 07-06-2003 07:24:01 17.6 C 12.3 g/m*3 17.6 C 0 km/h
763 07-06-2003 07:34:01 17.6 C 12.15 g/m*3 17.6 C 0 km/h
764 07-06-2003 07:44:01 17.9 C 12.37 g/m*3 17.9 C 0 km/h
765 07-06-2003 07:54:01 18.3 C 12.35 g/m*3 18.3 C 0 km/h
766 07-06-2003 08:04:01 18.3 C 12.35 g/m*3 18.3 C 0 km/h
767 07-06-2003 08:14:01 18.5 C 12.34 g/m*3 18.5 C 0 km/h
768 07-06-2003 08:24:01 18.8 C 12.56 g/m*3 18.8 C 0 km/h
769 07-06-2003 08:34:01 19.2 C 12.53 g/m*3 19.2 C 0 km/h
770 07-06-2003 08:44:01 19.5 C 12.59 g/m*3 19.5 C 0 km/h
771 07-06-2003 08:54:01 20 C 12.62 g/m*3 20 C 0 km/h
772 07-06-2003 09:04:01 20.5 C 12.81 g/m*3 20.5 C 0 km/h
773 07-06-2003 09:14:01 21.2 C 12.97 g/m*3 21.2 C 0 km/h
774 07-06-2003 09:24:01 21.6 C 12.9 g/m*3 21.6 C 0 km/h
775 07-06-2003 09:34:01 22 C 13 g/m*3 22 C 0 km/h
Sensor: Nr:Datum:Temp:Abs-Feuchte:Windchill:Wind:
Aussen-T/F 776 07-06-2003 09:44:01 22.8 C 13.61 g/m*3 22.8 C 0 km/h
777 07-06-2003 09:54:01 22.8 C 13.21 g/m*3 22.8 C 0 km/h
778 07-06-2003 10:04:00 23.5 C 14.17 g/m*3 23.5 C 0 km/h
779 07-06-2003 10:14:00 23.9 C 14.49 g/m*3 23.9 C 0 km/h
780 07-06-2003 10:24:00 24.5 C 14.77 g/m*3 24.5 C 0 km/h
781 07-06-2003 10:34:01 25.2 C 14.2 g/m*3 25.2 C 0 km/h
782 07-06-2003 10:44:01 25.8 C 14.69 g/m*3 25.8 C 0 km/h
783 07-06-2003 10:54:01 26.6 C 14.6 g/m*3 26.6 C 0 km/h
784 07-06-2003 11:04:00 27 C 14.93 g/m*3 27 C 0 km/h
785 07-06-2003 11:14:00 27.6 C 15.16 g/m*3 27.6 C 0 km/h
786 07-06-2003 11:24:00 27.9 C 14.06 g/m*3 27.9 C 0 km/h
787 07-06-2003 11:34:01 27.9 C 15.15 g/m*3 27.9 C 0 km/h
788 07-06-2003 11:44:01 28.7 C 14.13 g/m*3 28.7 C 0 km/h
789 07-06-2003 11:54:01 30 C 13.65 g/m*3 30 C 0 km/h
790 07-06-2003 12:04:01 30.4 C 12.08 g/m*3 30.4 C 0 km/h
791 07-06-2003 12:14:01 30.3 C 12.64 g/m*3 30.3 C 0 km/h
792 07-06-2003 12:24:01 30.4 C 13.32 g/m*3 30.4 C 0 km/h
793 07-06-2003 12:34:01 30.9 C 12.73 g/m*3 30.9 C 0 km/h
794 07-06-2003 12:44:01 31.1 C 12.55 g/m*3 31.1 C 0 km/h
795 07-06-2003 12:54:01 29.7 C 11.93 g/m*3 29.7 C 0 km/h
796 07-06-2003 13:04:01 30.4 C 11.16 g/m*3 30.4 C 0 km/h
797 07-06-2003 13:14:01 30.4 C 11.47 g/m*3 30.4 C 0 km/h
798 07-06-2003 13:24:01 30.1 C 13.72 g/m*3 30.1 C 0 km/h
799 07-06-2003 13:34:00 29.8 C 12.6 g/m*3 29.8 C 0 km/h
800 07-06-2003 13:44:00 29 C 12.06 g/m*3 29 C 0 km/h
Sensor: Nr:Datum:Temp:Abs-Feuchte:Windchill:Wind:
Aussen-T/F 801 07-06-2003 13:54:00 28.8 C 14.49 g/m*3 28.8 C 0 km/h
802 07-06-2003 14:04:01 28.7 C 14.41 g/m*3 28.7 C 0 km/h
803 07-06-2003 14:14:01 30.4 C 12.7 g/m*3 30.4 C 0 km/h
804 07-06-2003 14:24:01 31.5 C 11.5 g/m*3 31.5 C 0 km/h
805 07-06-2003 14:34:00 31.5 C 11.83 g/m*3 31.5 C 0 km/h
806 07-06-2003 14:44:00 31.8 C 11.36 g/m*3 31.8 C 0 km/h
807 07-06-2003 14:54:00 32.1 C 11.2 g/m*3 32.1 C 0 km/h
808 07-06-2003 15:04:00 31.8 C 11.02 g/m*3 31.8 C 0 km/h
809 07-06-2003 15:14:00 31 C 11.52 g/m*3 31 C 0 km/h
810 07-06-2003 15:24:00 31.2 C 11.65 g/m*3 31.2 C 0 km/h
811 07-06-2003 15:34:01 31.3 C 11.38 g/m*3 31.3 C 0 km/h
812 07-06-2003 15:44:01 31.8 C 10.69 g/m*3 31.8 C 0 km/h
813 07-06-2003 15:54:01 31.8 C 11.02 g/m*3 31.8 C 0 km/h
814 07-06-2003 16:04:02 32.3 C 10.63 g/m*3 32.3 C 0 km/h
815 07-06-2003 16:14:02 32.3 C 10.29 g/m*3 32.3 C 0 km/h
816 07-06-2003 16:24:02 32.3 C 10.63 g/m*3 32.3 C 0 km/h
817 07-06-2003 16:34:01 32.4 C 10 g/m*3 32.4 C 0 km/h
818 07-06-2003 16:44:01 32.3 C 10.29 g/m*3 32.3 C 0 km/h
819 07-06-2003 16:54:01 32.5 C 10.05 g/m*3 32.5 C 0 km/h
820 07-06-2003 17:04:01 32.7 C 10.51 g/m*3 32.7 C 0 km/h
821 07-06-2003 17:14:01 32.8 C 10.21 g/m*3 32.8 C 0 km/h
822 07-06-2003 17:24:01 32.9 C 9.91 g/m*3 32.9 C 0 km/h
823 07-06-2003 17:34:01 33.4 C 9.82 g/m*3 33.4 C 0 km/h
824 07-06-2003 17:44:01 33.3 C 9.4 g/m*3 33.3 C 0 km/h
825 07-06-2003 17:54:01 32.7 C 11.21 g/m*3 32.7 C 0 km/h
Sensor: Nr:Datum:Temp:Abs-Feuchte:Windchill:Wind:
Aussen-T/F 826 07-06-2003 18:04:02 32.4 C 10.35 g/m*3 32.4 C 0 km/h
827 07-06-2003 18:14:02 32.6 C 10.46 g/m*3 32.6 C 0 km/h
828 07-06-2003 18:24:02 32 C 11.82 g/m*3 32 C 0 km/h
829 07-06-2003 18:34:01 31.2 C 12.62 g/m*3 31.2 C 0 km/h
830 07-06-2003 18:44:01 30.4 C 13.32 g/m*3 30.4 C 0 km/h
831 07-06-2003 18:54:01 30.7 C 12.91 g/m*3 30.7 C 0 km/h
832 07-06-2003 19:04:01 31.8 C 11.36 g/m*3 31.8 C 0 km/h
833 07-06-2003 19:14:01 31.8 C 12.36 g/m*3 31.8 C 0 km/h
834 07-06-2003 19:24:01 32 C 12.49 g/m*3 32 C 0 km/h
835 07-06-2003 19:34:01 31.8 C 12.36 g/m*3 31.8 C 0 km/h
836 07-06-2003 19:44:01 31.4 C 12.42 g/m*3 31.4 C 0 km/h
837 07-06-2003 19:54:01 31 C 12.8 g/m*3 31 C 0 km/h
838 07-06-2003 20:04:00 30.7 C 12.91 g/m*3 30.7 C 0 km/h
839 07-06-2003 20:14:00 30.1 C 13.42 g/m*3 30.1 C 0 km/h
840 07-06-2003 20:24:00 30 C 13.65 g/m*3 30 C 0 km/h
841 07-06-2003 20:34:01 29.9 C 13.87 g/m*3 29.9 C 0 km/h
842 07-06-2003 20:44:01 29 C 14.07 g/m*3 29 C 0 km/h
843 07-06-2003 20:54:01 28.5 C 14.25 g/m*3 28.5 C 0 km/h
844 07-06-2003 21:04:01 27.8 C 14.26 g/m*3 27.8 C 0 km/h
845 07-06-2003 21:14:01 27 C 13.64 g/m*3 27 C 0 km/h
846 07-06-2003 21:24:01 26.8 C 14 g/m*3 26.8 C 0 km/h
847 07-06-2003 21:35:58 26.5 C 13.77 g/m*3 26.5 C 0 km/h
848 07-06-2003 21:45:58 26.3 C 13.62 g/m*3 26.3 C 0 km/h
849 07-06-2003 21:55:58 25.7 C 13.41 g/m*3 25.7 C 0 km/h
850 07-06-2003 22:05:58 25.2 C 13.5 g/m*3 25.2 C 0 km/h
Sensor: Nr:Datum:Temp:Abs-Feuchte:Windchill:Wind:
Aussen-T/F 851 07-06-2003 22:15:58 24.9 C 13.28 g/m*3 24.9 C 0 km/h
852 07-06-2003 22:25:58 24.7 C 13.58 g/m*3 24.7 C 0 km/h
853 07-06-2003 22:35:58 24.5 C 13.43 g/m*3 24.5 C 0 km/h
854 07-06-2003 22:45:58 24.5 C 13.65 g/m*3 24.5 C 0 km/h
855 07-06-2003 22:55:58 24.5 C 13.2 g/m*3 24.5 C 0 km/h
856 07-06-2003 23:05:58 24.3 C 13.5 g/m*3 24.3 C 0 km/h
857 07-06-2003 23:15:58 24.1 C 13.35 g/m*3 24.1 C 0 km/h
858 07-06-2003 23:25:58 23.9 C 13.63 g/m*3 23.9 C 0 km/h
859 07-06-2003 23:35:58 23.8 C 13.55 g/m*3 23.8 C 0 km/h
860 07-06-2003 23:45:58 23.5 C 13.53 g/m*3 23.5 C 0 km/h
861 07-06-2003 23:55:58 23.3 C 13.38 g/m*3 23.3 C 0 km/h
862 08-06-2003 00:05:58 23.3 C 13.38 g/m*3 23.3 C 0 km/h
863 08-06-2003 00:15:58 23.1 C 13.23 g/m*3 23.1 C 0 km/h
864 08-06-2003 00:25:58 22.9 C 13.28 g/m*3 22.9 C 0 km/h
865 08-06-2003 00:35:58 22.7 C 13.33 g/m*3 22.7 C 0 km/h
866 08-06-2003 00:45:58 22.6 C 13.26 g/m*3 22.6 C 0 km/h
867 08-06-2003 00:54:58 22.7 C 13.33 g/m*3 22.7 C 0 km/h
868 08-06-2003 01:04:58 22.4 C 13.11 g/m*3 22.4 C 0 km/h
869 08-06-2003 01:14:58 22.4 C 13.5 g/m*3 22.4 C 0 km/h
870 08-06-2003 01:24:58 22.3 C 13.62 g/m*3 22.3 C 0 km/h
871 08-06-2003 01:44:58 22.1 C 13.47 g/m*3 22.1 C 0 km/h
872 08-06-2003 01:54:58 21.7 C 13.35 g/m*3 21.7 C 0 km/h
873 08-06-2003 02:04:58 21.6 C 13.28 g/m*3 21.6 C 0 km/h
874 08-06-2003 02:14:58 21.3 C 13.23 g/m*3 21.3 C 0 km/h
875 08-06-2003 02:24:58 21.2 C 13.34 g/m*3 21.2 C 0 km/h
Sensor: Nr:Datum:Temp:Abs-Feuchte:Windchill:Wind:
Aussen-T/F 876 08-06-2003 02:34:58 21 C 13.19 g/m*3 21 C 0 km/h
877 08-06-2003 02:44:58 20.9 C 13.3 g/m*3 20.9 C 0 km/h
878 08-06-2003 02:54:58 20.6 C 13.24 g/m*3 20.6 C 0 km/h
879 08-06-2003 03:04:58 20.4 C 13.27 g/m*3 20.4 C 0 km/h
880 08-06-2003 03:14:58 20.2 C 13.29 g/m*3 20.2 C 0 km/h
881 08-06-2003 03:24:58 20.2 C 13.29 g/m*3 20.2 C 0 km/h
882 08-06-2003 03:34:58 20.2 C 13.29 g/m*3 20.2 C 0 km/h
883 08-06-2003 03:44:58 20 C 13.13 g/m*3 20 C 0 km/h
884 08-06-2003 03:54:58 20 C 13.13 g/m*3 20 C 0 km/h
885 08-06-2003 04:04:58 19.9 C 13.23 g/m*3 19.9 C 0 km/h
886 08-06-2003 04:14:58 19.8 C 13.32 g/m*3 19.8 C 0 km/h
887 08-06-2003 04:24:58 19.5 C 13.26 g/m*3 19.5 C 0 km/h
888 08-06-2003 04:34:58 19.5 C 13.09 g/m*3 19.5 C 0 km/h
889 08-06-2003 04:44:58 19.4 C 13.18 g/m*3 19.4 C 0 km/h
890 08-06-2003 04:54:58 19.3 C 13.1 g/m*3 19.3 C 0 km/h
891 08-06-2003 05:04:58 19.3 C 13.1 g/m*3 19.3 C 0 km/h
892 08-06-2003 05:14:58 19.1 C 12.95 g/m*3 19.1 C 0 km/h
893 08-06-2003 05:24:58 19.1 C 12.95 g/m*3 19.1 C 0 km/h
894 08-06-2003 05:34:58 18.9 C 13.12 g/m*3 18.9 C 0 km/h
895 08-06-2003 05:44:58 18.9 C 13.12 g/m*3 18.9 C 0 km/h
896 08-06-2003 05:54:58 18.9 C 13.12 g/m*3 18.9 C 0 km/h
897 08-06-2003 06:04:58 18.9 C 13.12 g/m*3 18.9 C 0 km/h
898 08-06-2003 06:14:58 18.8 C 13.05 g/m*3 18.8 C 0 km/h
899 08-06-2003 06:24:58 18.7 C 13.13 g/m*3 18.7 C 0 km/h
900 08-06-2003 06:34:58 18.7 C 13.13 g/m*3 18.7 C 0 km/h
Sensor: Nr:Datum:Temp:Abs-Feuchte:Windchill:Wind:
Aussen-T/F 901 08-06-2003 06:44:58 18.9 C 13.12 g/m*3 18.9 C 0 km/h
902 08-06-2003 06:54:58 19.2 C 13.19 g/m*3 19.2 C 0 km/h
903 08-06-2003 07:04:58 19.1 C 12.95 g/m*3 19.1 C 0 km/h
904 08-06-2003 07:14:58 19.1 C 13.11 g/m*3 19.1 C 0 km/h
905 08-06-2003 07:24:58 19.1 C 12.95 g/m*3 19.1 C 0 km/h
906 08-06-2003 07:34:58 19.3 C 13.1 g/m*3 19.3 C 0 km/h
907 08-06-2003 07:44:58 19.5 C 13.09 g/m*3 19.5 C 0 km/h
908 08-06-2003 07:54:58 19.7 C 13.25 g/m*3 19.7 C 0 km/h
909 08-06-2003 08:04:58 19.8 C 13.32 g/m*3 19.8 C 0 km/h
910 08-06-2003 08:14:58 20.2 C 13.29 g/m*3 20.2 C 0 km/h
911 08-06-2003 08:24:58 20.5 C 13.52 g/m*3 20.5 C 0 km/h
912 08-06-2003 08:34:58 20.9 C 13.84 g/m*3 20.9 C 0 km/h
913 08-06-2003 08:44:58 21.3 C 13.98 g/m*3 21.3 C 0 km/h
914 08-06-2003 08:54:58 21.6 C 14.03 g/m*3 21.6 C 0 km/h
915 08-06-2003 09:04:58 22.3 C 14.22 g/m*3 22.3 C 0 km/h
916 08-06-2003 09:15:01 22.8 C 14.43 g/m*3 22.8 C 0 km/h
917 08-06-2003 09:25:01 23.4 C 14.51 g/m*3 23.4 C 0 km/h
918 08-06-2003 09:35:01 24.1 C 14.44 g/m*3 24.1 C 0 km/h
919 08-06-2003 09:45:01 24.6 C 14.85 g/m*3 24.6 C 0 km/h
920 08-06-2003 09:55:01 25.2 C 14.67 g/m*3 25.2 C 0 km/h
921 08-06-2003 10:05:02 25.9 C 15.25 g/m*3 25.9 C 0 km/h
922 08-06-2003 10:15:02 26.5 C 14.52 g/m*3 26.5 C 0 km/h
923 08-06-2003 10:25:02 27.3 C 14.39 g/m*3 27.3 C 0 km/h
924 08-06-2003 10:35:01 27.8 C 15.06 g/m*3 27.8 C 0 km/h
925 08-06-2003 10:45:01 28.1 C 14.49 g/m*3 28.1 C 0 km/h
Sensor: Nr:Datum:Temp:Abs-Feuchte:Windchill:Wind:
Aussen-T/F 926 08-06-2003 10:55:01 28.1 C 13.95 g/m*3 28.1 C 0 km/h
927 08-06-2003 11:05:01 28.5 C 14.25 g/m*3 28.5 C 0 km/h
928 08-06-2003 11:15:01 29 C 14.36 g/m*3 29 C 0 km/h
929 08-06-2003 11:25:01 29.1 C 14.44 g/m*3 29.1 C 0 km/h
930 08-06-2003 11:35:02 29.7 C 14.02 g/m*3 29.7 C 0 km/h
931 08-06-2003 11:45:02 30.3 C 13.87 g/m*3 30.3 C 0 km/h
932 08-06-2003 11:55:02 30.2 C 14.41 g/m*3 30.2 C 0 km/h
933 08-06-2003 12:05:01 30.8 C 13.61 g/m*3 30.8 C 0 km/h
934 08-06-2003 12:15:01 31.1 C 13.19 g/m*3 31.1 C 0 km/h
935 08-06-2003 12:25:01 30.8 C 12.35 g/m*3 30.8 C 0 km/h
936 08-06-2003 12:35:01 31.6 C 11.9 g/m*3 31.6 C 0 km/h
937 08-06-2003 12:45:01 31.8 C 11.69 g/m*3 31.8 C 0 km/h
938 08-06-2003 12:55:01 31.5 C 11.18 g/m*3 31.5 C 0 km/h
939 08-06-2003 13:05:02 32 C 11.82 g/m*3 32 C 0 km/h
940 08-06-2003 13:15:02 31.8 C 10.69 g/m*3 31.8 C 0 km/h
941 08-06-2003 13:25:02 32.2 C 9.55 g/m*3 32.2 C 0 km/h
942 08-06-2003 13:35:02 31.2 C 10.03 g/m*3 31.2 C 0 km/h
943 08-06-2003 13:45:02 30.3 C 11.1 g/m*3 30.3 C 0 km/h
944 08-06-2003 13:55:02 30.1 C 11.59 g/m*3 30.1 C 0 km/h
945 08-06-2003 14:05:09 26.6 C 9.57 g/m*3 26.6 C 0 km/h
946 08-06-2003 14:15:56 27.6 C 15.7 g/m*3 27.6 C 0 km/h
947 08-06-2003 14:25:06 27.3 C 15.44 g/m*3 27.3 C 0 km/h
948 08-06-2003 14:35:01 27.3 C 15.96 g/m*3 27.3 C 0 km/h
949 08-06-2003 14:45:01 27.4 C 13.68 g/m*3 27.4 C 0 km/h
950 08-06-2003 14:55:01 27.2 C 14.57 g/m*3 27.2 C 0 km/h
Sensor: Nr:Datum:Temp:Abs-Feuchte:Windchill:Wind:
Aussen-T/F 951 08-06-2003 15:05:14 27.1 C 15.27 g/m*3 27.1 C 0 km/h
952 08-06-2003 15:15:01 28.1 C 14.22 g/m*3 28.1 C 0 km/h
953 08-06-2003 15:25:01 30 C 12.43 g/m*3 30 C 0 km/h
954 08-06-2003 15:35:01 30.4 C 11.16 g/m*3 30.4 C 0 km/h
955 08-06-2003 15:45:01 30.8 C 9.81 g/m*3 30.8 C 0 km/h
956 08-06-2003 15:55:01 31.2 C 10.03 g/m*3 31.2 C 0 km/h
957 08-06-2003 16:05:01 31.4 C 9.81 g/m*3 31.4 C 0 km/h
958 08-06-2003 16:15:01 31.5 C 10.19 g/m*3 31.5 C 0 km/h
959 08-06-2003 16:25:01 30.5 C 10.59 g/m*3 30.5 C 0 km/h
960 08-06-2003 16:35:51 30 C 11.22 g/m*3 30 C 0 km/h
961 08-06-2003 16:45:51 26.3 C 10.15 g/m*3 26.3 C 0 km/h
962 08-06-2003 16:55:01 24.1 C 11.16 g/m*3 24.1 C 0 km/h
963 08-06-2003 17:05:47 22.1 C 13.47 g/m*3 22.1 C 0 km/h
964 08-06-2003 17:15:02 20.8 C 13.94 g/m*3 20.8 C 0 km/h
965 08-06-2003 17:25:02 21 C 14.11 g/m*3 21 C 0 km/h
966 08-06-2003 17:35:18 19.9 C 13.92 g/m*3 19.9 C 0 km/h
967 08-06-2003 17:45:43 17.4 C 12.89 g/m*3 17.4 C 0 km/h
968 08-06-2003 17:55:43 17.3 C 13.26 g/m*3 17.3 C 0 km/h
969 08-06-2003 18:05:46 17.5 C 13.72 g/m*3 17.5 C 0 km/h
970 08-06-2003 18:15:31 17.9 C 14.2 g/m*3 17.9 C 0 km/h
971 08-06-2003 18:26:01 18.2 C 14.3 g/m*3 18.2 C 0 km/h
972 08-06-2003 18:36:01 18.1 C 14.37 g/m*3 18.1 C 0 km/h
973 08-06-2003 18:46:01 17.9 C 14.2 g/m*3 17.9 C 0 km/h
974 08-06-2003 18:56:01 18.3 C 14.54 g/m*3 18.3 C 0 km/h
975 08-06-2003 19:06:01 18.4 C 14.63 g/m*3 18.4 C 0 km/h
Sensor: Nr:Datum:Temp:Abs-Feuchte:Windchill:Wind:
Aussen-T/F 976 08-06-2003 19:16:01 18.7 C 14.89 g/m*3 18.7 C 0 km/h
977 08-06-2003 19:26:01 18.7 C 14.73 g/m*3 18.7 C 0 km/h
978 08-06-2003 19:36:01 19.2 C 14.84 g/m*3 19.2 C 0 km/h
979 08-06-2003 19:46:01 19.4 C 14.52 g/m*3 19.4 C 0 km/h
980 08-06-2003 19:56:01 19.6 C 14.69 g/m*3 19.6 C 0 km/h
981 08-06-2003 20:06:01 20 C 14.17 g/m*3 20 C 0 km/h
982 08-06-2003 20:16:01 19.7 C 14.26 g/m*3 19.7 C 0 km/h
983 08-06-2003 20:26:01 20.2 C 14.34 g/m*3 20.2 C 0 km/h
984 08-06-2003 20:36:01 20.4 C 14.33 g/m*3 20.4 C 0 km/h
985 08-06-2003 20:46:01 20.7 C 14.4 g/m*3 20.7 C 0 km/h
986 08-06-2003 20:56:01 20.3 C 13.89 g/m*3 20.3 C 0 km/h
987 08-06-2003 21:06:01 19.7 C 13.75 g/m*3 19.7 C 0 km/h
988 08-06-2003 21:16:01 19.7 C 13.92 g/m*3 19.7 C 0 km/h
989 08-06-2003 21:26:01 19.5 C 13.93 g/m*3 19.5 C 0 km/h
990 08-06-2003 21:36:01 19.3 C 13.93 g/m*3 19.3 C 0 km/h
991 08-06-2003 21:46:01 19.1 C 13.77 g/m*3 19.1 C 0 km/h
992 08-06-2003 21:56:01 19.2 C 14.02 g/m*3 19.2 C 0 km/h
993 08-06-2003 22:06:01 19.3 C 14.26 g/m*3 19.3 C 0 km/h
994 08-06-2003 22:16:01 19.3 C 14.26 g/m*3 19.3 C 0 km/h
995 08-06-2003 22:26:01 18.9 C 14.09 g/m*3 18.9 C 0 km/h
996 08-06-2003 22:36:01 18.9 C 14.26 g/m*3 18.9 C 0 km/h
997 08-06-2003 22:46:01 18.8 C 14.17 g/m*3 18.8 C 0 km/h
998 08-06-2003 22:56:01 18.8 C 14.17 g/m*3 18.8 C 0 km/h
999 08-06-2003 23:06:01 18.9 C 14.26 g/m*3 18.9 C 0 km/h
1000 08-06-2003 23:16:01 19.1 C 14.26 g/m*3 19.1 C 0 km/h
Sensor: Nr:Datum:Temp:Abs-Feuchte:Windchill:Wind:
Aussen-T/F 1001 08-06-2003 23:26:01 19.1 C 14.26 g/m*3 19.1 C 0 km/h
1002 08-06-2003 23:36:01 19.2 C 13.85 g/m*3 19.2 C 0 km/h
1003 08-06-2003 23:46:01 19.2 C 13.03 g/m*3 19.2 C 0 km/h
1004 08-06-2003 23:56:01 19 C 12.71 g/m*3 19 C 0 km/h
1005 09-06-2003 00:06:01 18.8 C 12.08 g/m*3 18.8 C 0 km/h
1006 09-06-2003 00:16:01 18.4 C 10.07 g/m*3 18.4 C 0 km/h
1007 09-06-2003 00:26:01 18.1 C 9.58 g/m*3 18.1 C 0 km/h
1008 09-06-2003 00:36:01 17.8 C 9.71 g/m*3 17.8 C 0 km/h
1009 09-06-2003 00:46:01 17.7 C 9.51 g/m*3 17.7 C 0 km/h
1010 09-06-2003 00:56:01 17.5 C 9.09 g/m*3 17.5 C 0 km/h
1011 09-06-2003 01:06:01 17.3 C 8.4 g/m*3 17.3 C 0 km/h
1012 09-06-2003 01:16:01 16.9 C 9.21 g/m*3 16.9 C 0 km/h
1013 09-06-2003 01:26:01 16.8 C 8.86 g/m*3 16.8 C 0 km/h
1014 09-06-2003 01:36:01 16.8 C 9.15 g/m*3 16.8 C 0 km/h
1015 09-06-2003 01:46:01 16.4 C 9.21 g/m*3 16.4 C 0 km/h
1016 09-06-2003 01:56:01 16.2 C 8.55 g/m*3 16.2 C 0 km/h
1017 09-06-2003 02:06:01 16.2 C 8.41 g/m*3 16.2 C 0 km/h
1018 09-06-2003 02:16:01 16 C 8.58 g/m*3 16 C 0 km/h
1019 09-06-2003 02:26:01 15.8 C 8.75 g/m*3 15.8 C 0 km/h
1020 09-06-2003 02:36:01 15.5 C 8.33 g/m*3 15.5 C 0 km/h
1021 09-06-2003 02:46:01 15.2 C 8.18 g/m*3 15.2 C 0 km/h
1022 09-06-2003 02:56:01 14.8 C 8.49 g/m*3 14.8 C 0 km/h
1023 09-06-2003 03:06:01 14.6 C 8.76 g/m*3 14.6 C 0 km/h
1024 09-06-2003 03:16:01 14.5 C 8.71 g/m*3 14.5 C 0 km/h
1025 09-06-2003 03:26:01 14.8 C 8.36 g/m*3 14.8 C 0 km/h
Sensor: Nr:Datum:Temp:Abs-Feuchte:Windchill:Wind:
Aussen-T/F 1026 09-06-2003 03:36:01 14.7 C 8.31 g/m*3 14.7 C 0 km/h
1027 09-06-2003 03:46:01 14.7 C 8.81 g/m*3 14.7 C 0 km/h
1028 09-06-2003 03:56:01 14.6 C 8.63 g/m*3 14.6 C 0 km/h
1029 09-06-2003 04:06:01 14.5 C 8.71 g/m*3 14.5 C 0 km/h
1030 09-06-2003 04:16:01 14.2 C 8.3 g/m*3 14.2 C 0 km/h
1031 09-06-2003 04:26:01 14 C 8.08 g/m*3 14 C 0 km/h
1032 09-06-2003 04:36:01 13.6 C 8 g/m*3 13.6 C 0 km/h
1033 09-06-2003 04:46:01 13.4 C 8.02 g/m*3 13.4 C 0 km/h
1034 09-06-2003 04:56:01 13.2 C 8.27 g/m*3 13.2 C 0 km/h
1035 09-06-2003 05:06:01 12.8 C 8.29 g/m*3 12.8 C 0 km/h
1036 09-06-2003 05:16:01 12.7 C 8.57 g/m*3 12.7 C 0 km/h
1037 09-06-2003 05:26:01 12.6 C 8.52 g/m*3 12.6 C 0 km/h
1038 09-06-2003 05:36:01 12.6 C 8.52 g/m*3 12.6 C 0 km/h
1039 09-06-2003 05:46:01 12.7 C 8.68 g/m*3 12.7 C 0 km/h
1040 09-06-2003 05:56:01 12.6 C 8.63 g/m*3 12.6 C 0 km/h
1041 09-06-2003 06:06:01 12.5 C 8.58 g/m*3 12.5 C 0 km/h
1042 09-06-2003 06:16:01 12.4 C 8.63 g/m*3 12.4 C 0 km/h
1043 09-06-2003 06:26:01 12.4 C 8.74 g/m*3 12.4 C 0 km/h
1044 09-06-2003 06:36:01 12.7 C 9.02 g/m*3 12.7 C 0 km/h
1045 09-06-2003 06:46:01 12.8 C 8.96 g/m*3 12.8 C 0 km/h
1046 09-06-2003 06:56:01 13.3 C 8.9 g/m*3 13.3 C 0 km/h
1047 09-06-2003 07:06:01 13.5 C 8.77 g/m*3 13.5 C 0 km/h
1048 09-06-2003 07:16:01 13.6 C 8.36 g/m*3 13.6 C 0 km/h
1049 09-06-2003 07:26:01 13.5 C 8.07 g/m*3 13.5 C 0 km/h
1050 09-06-2003 07:36:01 13.6 C 8.24 g/m*3 13.6 C 0 km/h
Sensor: Nr:Datum:Temp:Abs-Feuchte:Windchill:Wind:
Aussen-T/F 1051 09-06-2003 07:46:01 13.7 C 8.41 g/m*3 13.7 C 0 km/h
1052 09-06-2003 07:56:01 13.7 C 8.05 g/m*3 13.7 C 0 km/h
1053 09-06-2003 08:06:01 13.8 C 7.98 g/m*3 13.8 C 0 km/h
1054 09-06-2003 08:16:01 13.9 C 7.79 g/m*3 13.9 C 0 km/h
1055 09-06-2003 08:26:01 14.1 C 7.77 g/m*3 14.1 C 0 km/h
1056 09-06-2003 08:36:01 14.4 C 7.42 g/m*3 14.4 C 0 km/h
1057 09-06-2003 08:46:01 14.4 C 7.42 g/m*3 14.4 C 0 km/h
1058 09-06-2003 08:56:01 14.7 C 7.3 g/m*3 14.7 C 0 km/h
1059 09-06-2003 09:06:01 14.8 C 6.97 g/m*3 14.8 C 0 km/h
1060 09-06-2003 09:16:01 15.2 C 7.01 g/m*3 15.2 C 0 km/h
1061 09-06-2003 09:26:01 15.4 C 6.96 g/m*3 15.4 C 0 km/h
1062 09-06-2003 09:36:01 15.6 C 6.92 g/m*3 15.6 C 0 km/h
1063 09-06-2003 09:46:01 16 C 6.95 g/m*3 16 C 0 km/h
1064 09-06-2003 09:56:01 16.4 C 7.26 g/m*3 16.4 C 0 km/h
1065 09-06-2003 10:06:00 16.6 C 6.92 g/m*3 16.6 C 0 km/h
1066 09-06-2003 10:16:00 16.9 C 7.19 g/m*3 16.9 C 0 km/h
1067 09-06-2003 10:26:00 17.4 C 6.97 g/m*3 17.4 C 0 km/h
1068 09-06-2003 10:36:08 17.5 C 6.86 g/m*3 17.5 C 0 km/h
1069 09-06-2003 10:46:08 18.1 C 7.26 g/m*3 18.1 C 0 km/h
1070 09-06-2003 10:56:01 18.3 C 7.19 g/m*3 18.3 C 0 km/h
1071 09-06-2003 11:06:01 18.4 C 6.76 g/m*3 18.4 C 0 km/h
1072 09-06-2003 11:16:01 18.9 C 6.97 g/m*3 18.9 C 0 km/h
1073 09-06-2003 11:26:01 19 C 7.01 g/m*3 19 C 0 km/h
1074 09-06-2003 11:36:01 19.3 C 6.97 g/m*3 19.3 C 0 km/h
1075 09-06-2003 11:46:01 20.3 C 7.56 g/m*3 20.3 C 0 km/h
Sensor: Nr:Datum:Temp:Abs-Feuchte:Windchill:Wind:
Aussen-T/F 1076 09-06-2003 11:56:01 20 C 7.09 g/m*3 20 C 0 km/h
1077 09-06-2003 12:06:01 20.5 C 6.94 g/m*3 20.5 C 0 km/h
1078 09-06-2003 12:16:01 21.3 C 6.9 g/m*3 21.3 C 0 km/h
1079 09-06-2003 12:26:01 21.8 C 6.91 g/m*3 21.8 C 0 km/h
1080 09-06-2003 12:36:01 21.6 C 6.83 g/m*3 21.6 C 0 km/h
1081 09-06-2003 12:46:01 23.1 C 6.61 g/m*3 23.1 C 0 km/h
1082 09-06-2003 12:56:01 23.1 C 6.82 g/m*3 23.1 C 0 km/h
1083 09-06-2003 13:06:01 24.2 C 6.82 g/m*3 24.2 C 0 km/h
1084 09-06-2003 13:16:01 24.4 C 6.68 g/m*3 24.4 C 0 km/h
1085 09-06-2003 13:26:01 23.7 C 6.63 g/m*3 23.7 C 0 km/h
1086 09-06-2003 13:36:53 23.8 C 6.67 g/m*3 23.8 C 0 km/h
1087 09-06-2003 13:46:53 24.7 C 6.79 g/m*3 24.7 C 0 km/h
1088 09-06-2003 13:56:53 24.1 C 6.78 g/m*3 24.1 C 0 km/h
1089 09-06-2003 14:06:01 24.2 C 7.26 g/m*3 24.2 C 0 km/h
1090 09-06-2003 14:16:01 24.5 C 7.16 g/m*3 24.5 C 0 km/h
1091 09-06-2003 14:26:01 24.4 C 6.9 g/m*3 24.4 C 0 km/h
1092 09-06-2003 14:36:01 25.3 C 7.49 g/m*3 25.3 C 0 km/h
1093 09-06-2003 14:46:01 24.5 C 7.16 g/m*3 24.5 C 0 km/h
1094 09-06-2003 14:56:01 25.9 C 7.75 g/m*3 25.9 C 0 km/h
1095 09-06-2003 15:06:01 25.1 C 6.94 g/m*3 25.1 C 0 km/h
1096 09-06-2003 15:16:01 25.8 C 7.22 g/m*3 25.8 C 0 km/h
1097 09-06-2003 15:26:01 26 C 7.3 g/m*3 26 C 0 km/h
1098 09-06-2003 15:36:01 26.4 C 6.97 g/m*3 26.4 C 0 km/h
1099 09-06-2003 15:46:01 26.2 C 6.89 g/m*3 26.2 C 0 km/h
1100 09-06-2003 15:56:01 26.1 C 6.61 g/m*3 26.1 C 0 km/h
Sensor: Nr:Datum:Temp:Abs-Feuchte:Windchill:Wind:
Aussen-T/F 1101 09-06-2003 16:06:00 26.4 C 7.47 g/m*3 26.4 C 0 km/h
1102 09-06-2003 16:16:00 26.7 C 7.59 g/m*3 26.7 C 0 km/h
1103 09-06-2003 16:26:00 28.4 C 7.78 g/m*3 28.4 C 0 km/h
1104 09-06-2003 16:36:01 28.6 C 7.03 g/m*3 28.6 C 0 km/h
1105 09-06-2003 16:46:01 28.2 C 6.6 g/m*3 28.2 C 0 km/h
1106 09-06-2003 16:56:01 27.8 C 6.72 g/m*3 27.8 C 0 km/h
1107 09-06-2003 17:06:02 28.3 C 7.19 g/m*3 28.3 C 0 km/h
1108 09-06-2003 17:16:00 27.6 C 6.92 g/m*3 27.6 C 0 km/h
1109 09-06-2003 17:16:02 27.6 C 6.92 g/m*3 27.6 C 0 km/h
1110 09-06-2003 17:26:00 28.7 C 7.06 g/m*3 28.7 C 0 km/h
1111 09-06-2003 17:36:00 28.4 C 6.67 g/m*3 28.4 C 0 km/h
1112 09-06-2003 17:46:00 27.8 C 6.99 g/m*3 27.8 C 0 km/h
1113 09-06-2003 17:56:00 27.8 C 6.99 g/m*3 27.8 C 0 km/h
1114 09-06-2003 18:06:01 27.5 C 6.35 g/m*3 27.5 C 0 km/h
1115 09-06-2003 18:16:01 28 C 7.07 g/m*3 28 C 0 km/h
1116 09-06-2003 18:26:01 27.9 C 6.22 g/m*3 27.9 C 0 km/h
1117 09-06-2003 18:36:01 28.5 C 6.15 g/m*3 28.5 C 0 km/h
1118 09-06-2003 18:46:01 28.4 C 6.67 g/m*3 28.4 C 0 km/h
1119 09-06-2003 18:56:01 28.4 C 7.78 g/m*3 28.4 C 0 km/h
1120 09-06-2003 19:06:01 28.3 C 7.74 g/m*3 28.3 C 0 km/h
1121 09-06-2003 19:16:01 28.5 C 7.83 g/m*3 28.5 C 0 km/h
1122 09-06-2003 19:26:01 27.6 C 7.71 g/m*3 27.6 C 0 km/h
1123 09-06-2003 19:36:02 27.3 C 8.63 g/m*3 27.3 C 0 km/h
1124 09-06-2003 19:46:02 27.1 C 8.28 g/m*3 27.1 C 0 km/h
1125 09-06-2003 19:56:02 26.6 C 8.81 g/m*3 26.6 C 0 km/h
Sensor: Nr:Datum:Temp:Abs-Feuchte:Windchill:Wind:
Aussen-T/F 1126 09-06-2003 20:06:02 25.9 C 8.96 g/m*3 25.9 C 0 km/h
1127 09-06-2003 20:26:02 24.1 C 8.97 g/m*3 24.1 C 0 km/h
1128 09-06-2003 20:36:01 23.8 C 9.03 g/m*3 23.8 C 0 km/h
1129 09-06-2003 20:46:01 23.8 C 9.03 g/m*3 23.8 C 0 km/h
1130 09-06-2003 20:56:01 23.8 C 9.25 g/m*3 23.8 C 0 km/h
1131 09-06-2003 21:06:01 23.4 C 9.46 g/m*3 23.4 C 0 km/h
1132 09-06-2003 21:16:01 22.4 C 8.74 g/m*3 22.4 C 0 km/h
1133 09-06-2003 21:26:01 21.8 C 8.83 g/m*3 21.8 C 0 km/h
1134 09-06-2003 21:36:00 21.5 C 8.49 g/m*3 21.5 C 0 km/h
1135 09-06-2003 21:46:00 20.6 C 8.41 g/m*3 20.6 C 0 km/h
1136 09-06-2003 21:56:00 20.3 C 8.27 g/m*3 20.3 C 0 km/h
1137 09-06-2003 22:06:01 19.9 C 8.42 g/m*3 19.9 C 0 km/h
1138 09-06-2003 22:16:01 19.9 C 8.25 g/m*3 19.9 C 0 km/h
1139 09-06-2003 22:26:01 19.4 C 8.51 g/m*3 19.4 C 0 km/h
1140 09-06-2003 22:36:39 19.3 C 8.63 g/m*3 19.3 C 0 km/h
1141 09-06-2003 22:47:01 19 C 8.47 g/m*3 19 C 0 km/h
1142 09-06-2003 22:57:01 18.8 C 8.54 g/m*3 18.8 C 0 km/h
1143 09-06-2003 23:07:01 18.5 C 8.39 g/m*3 18.5 C 0 km/h
1144 09-06-2003 23:17:01 18.3 C 8.6 g/m*3 18.3 C 0 km/h
1145 09-06-2003 23:27:01 18.1 C 8.65 g/m*3 18.1 C 0 km/h
1146 09-06-2003 23:37:01 17.8 C 8.8 g/m*3 17.8 C 0 km/h
1147 09-06-2003 23:47:01 17.8 C 8.8 g/m*3 17.8 C 0 km/h
1148 09-06-2003 23:57:01 17.2 C 8.79 g/m*3 17.2 C 0 km/h
1149 10-06-2003 00:07:01 17.3 C 8.99 g/m*3 17.3 C 0 km/h
1150 10-06-2003 00:17:01 17.1 C 9.03 g/m*3 17.1 C 0 km/h
Sensor: Nr:Datum:Temp:Abs-Feuchte:Windchill:Wind:
Aussen-T/F 1151 10-06-2003 00:27:01 16.8 C 8.86 g/m*3 16.8 C 0 km/h
1152 10-06-2003 00:37:01 16.7 C 8.95 g/m*3 16.7 C 0 km/h
1153 10-06-2003 00:47:01 16.5 C 8.85 g/m*3 16.5 C 0 km/h
1154 10-06-2003 00:57:01 16.3 C 9.02 g/m*3 16.3 C 0 km/h
1155 10-06-2003 01:07:01 16.2 C 9.24 g/m*3 16.2 C 0 km/h
1156 10-06-2003 01:17:01 15.9 C 9.21 g/m*3 15.9 C 0 km/h
1157 10-06-2003 01:27:01 15.8 C 9.29 g/m*3 15.8 C 0 km/h
1158 10-06-2003 01:37:01 15.6 C 9.31 g/m*3 15.6 C 0 km/h
1159 10-06-2003 01:47:01 15.5 C 9.52 g/m*3 15.5 C 0 km/h
1160 10-06-2003 01:57:01 15.3 C 9.4 g/m*3 15.3 C 0 km/h
1161 10-06-2003 02:07:01 15.3 C 9.53 g/m*3 15.3 C 0 km/h
1162 10-06-2003 02:17:01 15.2 C 9.35 g/m*3 15.2 C 0 km/h
1163 10-06-2003 02:27:01 15.2 C 9.61 g/m*3 15.2 C 0 km/h
1164 10-06-2003 02:37:01 15 C 9.36 g/m*3 15 C 0 km/h
1165 10-06-2003 02:47:01 14.9 C 9.43 g/m*3 14.9 C 0 km/h
1166 10-06-2003 02:57:01 14.8 C 9.75 g/m*3 14.8 C 0 km/h
1167 10-06-2003 03:07:01 14.8 C 9.75 g/m*3 14.8 C 0 km/h
1168 10-06-2003 03:17:01 14.7 C 9.82 g/m*3 14.7 C 0 km/h
1169 10-06-2003 03:27:01 14.6 C 9.64 g/m*3 14.6 C 0 km/h
1170 10-06-2003 03:37:01 14.5 C 9.58 g/m*3 14.5 C 0 km/h
1171 10-06-2003 03:47:01 14.3 C 9.46 g/m*3 14.3 C 0 km/h
1172 10-06-2003 03:57:01 14.2 C 9.52 g/m*3 14.2 C 0 km/h
1173 10-06-2003 04:07:01 14.2 C 9.52 g/m*3 14.2 C 0 km/h
1174 10-06-2003 04:17:01 13.9 C 9.47 g/m*3 13.9 C 0 km/h
1175 10-06-2003 04:27:01 13.8 C 9.41 g/m*3 13.8 C 0 km/h
Sensor: Nr:Datum:Temp:Abs-Feuchte:Windchill:Wind:
Aussen-T/F 1176 10-06-2003 04:37:01 13.6 C 9.3 g/m*3 13.6 C 0 km/h
1177 10-06-2003 04:47:01 13.6 C 9.53 g/m*3 13.6 C 0 km/h
1178 10-06-2003 04:57:01 13.5 C 9.36 g/m*3 13.5 C 0 km/h
1179 10-06-2003 05:07:01 13.5 C 9.36 g/m*3 13.5 C 0 km/h
1180 10-06-2003 05:17:01 13.4 C 9.65 g/m*3 13.4 C 0 km/h
1181 10-06-2003 05:27:01 13.5 C 9.59 g/m*3 13.5 C 0 km/h
1182 10-06-2003 05:37:01 13.5 C 9.59 g/m*3 13.5 C 0 km/h
1183 10-06-2003 05:47:01 13.5 C 9.47 g/m*3 13.5 C 0 km/h
1184 10-06-2003 05:57:01 13.4 C 9.42 g/m*3 13.4 C 0 km/h
1185 10-06-2003 06:07:01 13.4 C 9.42 g/m*3 13.4 C 0 km/h
1186 10-06-2003 06:17:01 13.4 C 9.53 g/m*3 13.4 C 0 km/h
1187 10-06-2003 06:27:01 13.4 C 9.42 g/m*3 13.4 C 0 km/h
1188 10-06-2003 06:37:01 13.6 C 9.65 g/m*3 13.6 C 0 km/h
1189 10-06-2003 06:47:01 13.9 C 9.71 g/m*3 13.9 C 0 km/h
1190 10-06-2003 06:57:01 14.3 C 9.83 g/m*3 14.3 C 0 km/h
1191 10-06-2003 07:07:01 14.4 C 9.77 g/m*3 14.4 C 0 km/h
1192 10-06-2003 07:17:01 14.3 C 9.83 g/m*3 14.3 C 0 km/h
1193 10-06-2003 07:27:01 14.4 C 9.89 g/m*3 14.4 C 0 km/h
1194 10-06-2003 07:37:01 14.6 C 9.89 g/m*3 14.6 C 0 km/h
1195 10-06-2003 07:47:01 14.9 C 9.94 g/m*3 14.9 C 0 km/h
1196 10-06-2003 07:57:01 15.1 C 9.93 g/m*3 15.1 C 0 km/h
1197 10-06-2003 08:07:01 15.4 C 9.72 g/m*3 15.4 C 0 km/h
1198 10-06-2003 08:17:01 16.1 C 9.87 g/m*3 16.1 C 0 km/h
1199 10-06-2003 08:27:01 16.7 C 9.95 g/m*3 16.7 C 0 km/h
1200 10-06-2003 08:37:01 17.2 C 10.1 g/m*3 17.2 C 0 km/h
Sensor: Nr:Datum:Temp:Abs-Feuchte:Windchill:Wind:
Aussen-T/F 1201 10-06-2003 08:47:01 17.8 C 10.17 g/m*3 17.8 C 0 km/h
1202 10-06-2003 08:57:01 18.4 C 10.22 g/m*3 18.4 C 0 km/h
1203 10-06-2003 09:07:02 18.9 C 10.21 g/m*3 18.9 C 0 km/h
1204 10-06-2003 09:17:02 19.2 C 9.56 g/m*3 19.2 C 0 km/h
1205 10-06-2003 09:27:02 19.4 C 9.84 g/m*3 19.4 C 0 km/h
1206 10-06-2003 09:37:01 20.1 C 10.08 g/m*3 20.1 C 0 km/h
1207 10-06-2003 09:47:01 20.8 C 9.96 g/m*3 20.8 C 0 km/h
1208 10-06-2003 09:57:01 21.8 C 10.17 g/m*3 21.8 C 0 km/h
1209 10-06-2003 10:07:01 22.6 C 9.84 g/m*3 22.6 C 0 km/h
1210 10-06-2003 10:17:01 22.8 C 9.75 g/m*3 22.8 C 0 km/h
1211 10-06-2003 10:27:01 23.2 C 9.56 g/m*3 23.2 C 0 km/h
1212 10-06-2003 10:37:01 24 C 10.01 g/m*3 24 C 0 km/h
1213 10-06-2003 10:47:01 24 C 11.1 g/m*3 24 C 0 km/h
1214 10-06-2003 10:57:01 24.2 C 9.9 g/m*3 24.2 C 0 km/h
1215 10-06-2003 11:07:00 25.1 C 10.65 g/m*3 25.1 C 0 km/h
1216 10-06-2003 11:17:00 25.3 C 11 g/m*3 25.3 C 0 km/h
1217 10-06-2003 11:27:00 25.5 C 11.13 g/m*3 25.5 C 0 km/h
1218 10-06-2003 11:37:01 25.9 C 11.62 g/m*3 25.9 C 0 km/h
1219 10-06-2003 11:47:01 26.6 C 12.33 g/m*3 26.6 C 0 km/h
1220 10-06-2003 11:57:01 27.6 C 12.77 g/m*3 27.6 C 0 km/h
1221 10-06-2003 12:07:02 28.5 C 11.18 g/m*3 28.5 C 0 km/h
1222 10-06-2003 12:17:02 29.2 C 11.91 g/m*3 29.2 C 0 km/h
1223 10-06-2003 12:27:02 29.2 C 10.74 g/m*3 29.2 C 0 km/h
1224 10-06-2003 12:37:01 30.1 C 12.2 g/m*3 30.1 C 0 km/h
1225 10-06-2003 12:47:01 30.6 C 10.96 g/m*3 30.6 C 0 km/h
Sensor: Nr:Datum:Temp:Abs-Feuchte:Windchill:Wind:
Aussen-T/F 1226 10-06-2003 12:57:01 31.2 C 10.67 g/m*3 31.2 C 0 km/h
1227 10-06-2003 13:07:01 31.2 C 10.67 g/m*3 31.2 C 0 km/h
1228 10-06-2003 13:17:01 31.4 C 10.14 g/m*3 31.4 C 0 km/h
1229 10-06-2003 13:27:01 31.9 C 9.4 g/m*3 31.9 C 0 km/h
1230 10-06-2003 13:37:02 32.1 C 9.5 g/m*3 32.1 C 0 km/h
1231 10-06-2003 13:47:02 32 C 9.45 g/m*3 32 C 0 km/h
1232 10-06-2003 13:57:02 32 C 10.13 g/m*3 32 C 0 km/h
1233 10-06-2003 14:07:01 31.8 C 10.35 g/m*3 31.8 C 0 km/h
1234 10-06-2003 14:17:01 31.9 C 10.41 g/m*3 31.9 C 0 km/h
1235 10-06-2003 14:27:01 32 C 10.13 g/m*3 32 C 0 km/h
1236 10-06-2003 14:37:01 32.1 C 11.54 g/m*3 32.1 C 0 km/h
1237 10-06-2003 14:47:01 32 C 10.8 g/m*3 32 C 0 km/h
1238 10-06-2003 14:57:01 32 C 10.8 g/m*3 32 C 0 km/h
1239 10-06-2003 15:07:01 32.2 C 10.58 g/m*3 32.2 C 0 km/h
1240 10-06-2003 15:17:01 32.4 C 10.35 g/m*3 32.4 C 0 km/h
1241 10-06-2003 15:27:01 32.3 C 10.63 g/m*3 32.3 C 0 km/h
1242 10-06-2003 15:37:01 32.3 C 10.98 g/m*3 32.3 C 0 km/h
1243 10-06-2003 15:47:01 32.3 C 12.35 g/m*3 32.3 C 0 km/h
1244 10-06-2003 15:57:01 32 C 13.17 g/m*3 32 C 0 km/h
1245 10-06-2003 16:07:02 31.6 C 13.55 g/m*3 31.6 C 0 km/h
1246 10-06-2003 16:17:02 31.3 C 13.98 g/m*3 31.3 C 0 km/h
1247 10-06-2003 16:27:02 30.9 C 14.32 g/m*3 30.9 C 0 km/h
1248 10-06-2003 16:37:01 30.5 C 14.64 g/m*3 30.5 C 0 km/h
1249 10-06-2003 16:47:01 30.1 C 13.72 g/m*3 30.1 C 0 km/h
1250 10-06-2003 16:57:01 30.2 C 14.1 g/m*3 30.2 C 0 km/h
Sensor: Nr:Datum:Temp:Abs-Feuchte:Windchill:Wind:
Aussen-T/F 1251 10-06-2003 17:07:02 30.3 C 14.49 g/m*3 30.3 C 0 km/h
1252 10-06-2003 17:17:02 30.4 C 13.94 g/m*3 30.4 C 0 km/h
1253 10-06-2003 17:27:02 30.9 C 13.37 g/m*3 30.9 C 0 km/h
1254 10-06-2003 17:37:02 30.9 C 14.64 g/m*3 30.9 C 0 km/h
1255 10-06-2003 17:47:02 30.2 C 14.71 g/m*3 30.2 C 0 km/h
1256 10-06-2003 17:57:02 29.2 C 15.1 g/m*3 29.2 C 0 km/h
1257 10-06-2003 18:07:02 28 C 14.96 g/m*3 28 C 0 km/h
1258 10-06-2003 18:17:02 26.6 C 15.1 g/m*3 26.6 C 0 km/h
1259 10-06-2003 18:27:02 25.5 C 15.86 g/m*3 25.5 C 0 km/h
1260 10-06-2003 18:37:02 25.1 C 15.51 g/m*3 25.1 C 0 km/h
1261 10-06-2003 18:47:02 25 C 15.42 g/m*3 25 C 0 km/h
1262 10-06-2003 18:57:02 25.3 C 15.22 g/m*3 25.3 C 0 km/h
1263 10-06-2003 19:07:02 24.8 C 16.84 g/m*3 24.8 C 0 km/h
1264 10-06-2003 19:17:02 21.3 C 13.61 g/m*3 21.3 C 0 km/h
1265 10-06-2003 19:27:02 19.9 C 15.29 g/m*3 19.9 C 0 km/h
1266 10-06-2003 19:37:02 19.9 C 15.63 g/m*3 19.9 C 0 km/h
1267 10-06-2003 19:47:02 19.8 C 15.71 g/m*3 19.8 C 0 km/h
1268 10-06-2003 19:57:01 19.7 C 15.62 g/m*3 19.7 C 0 km/h
1269 10-06-2003 20:07:33 19.5 C 15.44 g/m*3 19.5 C 0 km/h
1270 10-06-2003 20:17:07 20.1 C 15.99 g/m*3 20.1 C 0 km/h
1271 10-06-2003 20:27:01 20 C 15.9 g/m*3 20 C 0 km/h
1272 10-06-2003 20:37:01 20.3 C 16.18 g/m*3 20.3 C 0 km/h
1273 10-06-2003 20:47:01 20.6 C 16.47 g/m*3 20.6 C 0 km/h
1274 10-06-2003 20:57:01 20.4 C 16.28 g/m*3 20.4 C 0 km/h
1275 10-06-2003 21:07:01 20.1 C 15.82 g/m*3 20.1 C 0 km/h
Sensor: Nr:Datum:Temp:Abs-Feuchte:Windchill:Wind:
Aussen-T/F 1276 10-06-2003 21:17:01 20.1 C 15.99 g/m*3 20.1 C 0 km/h
1277 10-06-2003 21:27:01 19.8 C 15.71 g/m*3 19.8 C 0 km/h
1278 10-06-2003 21:37:01 19.7 C 15.62 g/m*3 19.7 C 0 km/h
1279 10-06-2003 21:47:01 19.7 C 15.62 g/m*3 19.7 C 0 km/h
1280 10-06-2003 21:57:01 19.6 C 15.53 g/m*3 19.6 C 0 km/h
1281 10-06-2003 22:08:01 19.5 C 15.27 g/m*3 19.5 C 0 km/h
1282 10-06-2003 22:18:01 19.5 C 15.27 g/m*3 19.5 C 0 km/h
1283 10-06-2003 22:28:01 19.5 C 15.27 g/m*3 19.5 C 0 km/h
1284 10-06-2003 22:38:01 19.5 C 15.27 g/m*3 19.5 C 0 km/h
1285 10-06-2003 22:48:01 19.4 C 15.18 g/m*3 19.4 C 0 km/h
1286 10-06-2003 22:58:01 19.3 C 15.09 g/m*3 19.3 C 0 km/h
1287 10-06-2003 23:08:01 19.2 C 15.01 g/m*3 19.2 C 0 km/h
1288 10-06-2003 23:18:01 19.3 C 15.09 g/m*3 19.3 C 0 km/h
1289 10-06-2003 23:28:01 19.1 C 14.92 g/m*3 19.1 C 0 km/h
1290 10-06-2003 23:38:01 19.1 C 14.92 g/m*3 19.1 C 0 km/h
1291 10-06-2003 23:48:01 19.2 C 15.01 g/m*3 19.2 C 0 km/h
1292 10-06-2003 23:58:01 19.2 C 15.01 g/m*3 19.2 C 0 km/h
1293 11-06-2003 00:08:01 19.2 C 15.01 g/m*3 19.2 C 0 km/h
1294 11-06-2003 00:18:01 19.2 C 14.84 g/m*3 19.2 C 0 km/h
1295 11-06-2003 00:28:01 19.1 C 14.75 g/m*3 19.1 C 0 km/h
1296 11-06-2003 00:38:01 19.3 C 14.93 g/m*3 19.3 C 0 km/h
1297 11-06-2003 00:48:01 19.2 C 14.68 g/m*3 19.2 C 0 km/h
1298 11-06-2003 00:58:01 19.2 C 14.68 g/m*3 19.2 C 0 km/h
1299 11-06-2003 01:08:01 19.1 C 14.59 g/m*3 19.1 C 0 km/h
1300 11-06-2003 01:18:01 19.1 C 14.59 g/m*3 19.1 C 0 km/h
Sensor: Nr:Datum:Temp:Abs-Feuchte:Windchill:Wind:
Aussen-T/F 1301 11-06-2003 01:28:01 19.1 C 14.75 g/m*3 19.1 C 0 km/h
1302 11-06-2003 01:38:01 19.2 C 14.84 g/m*3 19.2 C 0 km/h
1303 11-06-2003 01:48:01 19.3 C 14.93 g/m*3 19.3 C 0 km/h
1304 11-06-2003 01:58:01 19 C 14.67 g/m*3 19 C 0 km/h
1305 11-06-2003 02:08:01 18.9 C 14.74 g/m*3 18.9 C 0 km/h
1306 11-06-2003 02:18:01 18.9 C 14.74 g/m*3 18.9 C 0 km/h
1307 11-06-2003 02:28:01 18.8 C 14.66 g/m*3 18.8 C 0 km/h
1308 11-06-2003 02:38:01 18.8 C 14.66 g/m*3 18.8 C 0 km/h
1309 11-06-2003 02:48:01 18.9 C 14.74 g/m*3 18.9 C 0 km/h
1310 11-06-2003 02:58:01 18.9 C 14.74 g/m*3 18.9 C 0 km/h
1311 11-06-2003 03:08:01 18.9 C 14.74 g/m*3 18.9 C 0 km/h
1312 11-06-2003 03:18:01 18.9 C 14.74 g/m*3 18.9 C 0 km/h
1313 11-06-2003 03:28:01 18.9 C 14.74 g/m*3 18.9 C 0 km/h
1314 11-06-2003 03:38:01 18.9 C 14.74 g/m*3 18.9 C 0 km/h
1315 11-06-2003 03:48:01 18.9 C 14.74 g/m*3 18.9 C 0 km/h
1316 11-06-2003 03:58:01 18.8 C 14.66 g/m*3 18.8 C 0 km/h
1317 11-06-2003 04:08:01 18.8 C 14.66 g/m*3 18.8 C 0 km/h
1318 11-06-2003 04:18:01 18.8 C 14.66 g/m*3 18.8 C 0 km/h
1319 11-06-2003 04:28:01 18.7 C 14.57 g/m*3 18.7 C 0 km/h
1320 11-06-2003 04:38:01 18.6 C 14.48 g/m*3 18.6 C 0 km/h
1321 11-06-2003 04:48:01 18.6 C 14.48 g/m*3 18.6 C 0 km/h
1322 11-06-2003 04:58:01 18.6 C 14.48 g/m*3 18.6 C 0 km/h
1323 11-06-2003 05:08:01 18.6 C 14.48 g/m*3 18.6 C 0 km/h
1324 11-06-2003 05:18:01 18.7 C 14.57 g/m*3 18.7 C 0 km/h
1325 11-06-2003 05:28:01 18.8 C 14.66 g/m*3 18.8 C 0 km/h
Sensor: Nr:Datum:Temp:Abs-Feuchte:Windchill:Wind:
Aussen-T/F 1326 11-06-2003 05:38:01 19 C 14.67 g/m*3 19 C 0 km/h
1327 11-06-2003 05:48:01 18.9 C 14.58 g/m*3 18.9 C 0 km/h
1328 11-06-2003 05:58:01 19.3 C 14.76 g/m*3 19.3 C 0 km/h
1329 11-06-2003 06:08:01 19.2 C 14.51 g/m*3 19.2 C 0 km/h
1330 11-06-2003 06:18:01 19.2 C 14.51 g/m*3 19.2 C 0 km/h
1331 11-06-2003 06:28:01 19.2 C 14.51 g/m*3 19.2 C 0 km/h
1332 11-06-2003 06:38:01 19.3 C 14.6 g/m*3 19.3 C 0 km/h
1333 11-06-2003 06:48:01 19.3 C 14.6 g/m*3 19.3 C 0 km/h
1334 11-06-2003 06:58:01 19.4 C 14.52 g/m*3 19.4 C 0 km/h
1335 11-06-2003 07:08:01 19.6 C 14.69 g/m*3 19.6 C 0 km/h
1336 11-06-2003 07:18:01 19.7 C 14.77 g/m*3 19.7 C 0 km/h
1337 11-06-2003 07:28:01 19.7 C 14.77 g/m*3 19.7 C 0 km/h
1338 11-06-2003 07:38:01 19.7 C 14.77 g/m*3 19.7 C 0 km/h
1339 11-06-2003 07:48:01 19.9 C 14.6 g/m*3 19.9 C 0 km/h
1340 11-06-2003 07:58:01 20 C 14.52 g/m*3 20 C 0 km/h
1341 11-06-2003 08:08:02 20.1 C 14.6 g/m*3 20.1 C 0 km/h
1342 11-06-2003 08:18:02 20.1 C 14.6 g/m*3 20.1 C 0 km/h
1343 11-06-2003 08:28:02 20.5 C 14.77 g/m*3 20.5 C 0 km/h
1344 11-06-2003 08:58:02 20.9 C 14.39 g/m*3 20.9 C 0 km/h
1345 11-06-2003 09:08:01 21.4 C 14.25 g/m*3 21.4 C 0 km/h
1346 11-06-2003 09:08:02 21.4 C 14.25 g/m*3 21.4 C 0 km/h
1347 11-06-2003 09:18:01 21.7 C 14.5 g/m*3 21.7 C 0 km/h
1348 11-06-2003 09:28:01 22 C 13.78 g/m*3 22 C 0 km/h
1349 11-06-2003 09:38:01 22.4 C 13.7 g/m*3 22.4 C 0 km/h
1350 11-06-2003 09:48:01 22.7 C 13.54 g/m*3 22.7 C 0 km/h
Sensor: Nr:Datum:Temp:Abs-Feuchte:Windchill:Wind:
Aussen-T/F 1351 11-06-2003 09:58:01 22.5 C 13.38 g/m*3 22.5 C 0 km/h
1352 11-06-2003 10:08:01 22.8 C 13.41 g/m*3 22.8 C 0 km/h
1353 11-06-2003 10:18:01 22.7 C 13.54 g/m*3 22.7 C 0 km/h
1354 11-06-2003 10:28:01 23 C 13.77 g/m*3 23 C 0 km/h
1355 11-06-2003 10:38:01 23.5 C 13.53 g/m*3 23.5 C 0 km/h
1356 11-06-2003 10:48:01 24.2 C 12.98 g/m*3 24.2 C 0 km/h
1357 11-06-2003 10:58:01 24.7 C 13.13 g/m*3 24.7 C 0 km/h
1358 11-06-2003 11:08:01 25.1 C 12.5 g/m*3 25.1 C 0 km/h
1359 11-06-2003 11:18:01 25.6 C 11.67 g/m*3 25.6 C 0 km/h
1360 11-06-2003 11:28:01 25.3 C 11.71 g/m*3 25.3 C 0 km/h
1361 11-06-2003 11:38:01 25.6 C 11.67 g/m*3 25.6 C 0 km/h
1362 11-06-2003 11:48:01 25.1 C 10.88 g/m*3 25.1 C 0 km/h
1363 11-06-2003 11:58:01 26.1 C 11.26 g/m*3 26.1 C 0 km/h
1364 11-06-2003 12:08:01 25.9 C 10.65 g/m*3 25.9 C 0 km/h
1365 11-06-2003 12:18:01 26.2 C 10.59 g/m*3 26.2 C 0 km/h
1366 11-06-2003 12:28:01 27.5 C 10.58 g/m*3 27.5 C 0 km/h
1367 11-06-2003 12:38:01 26.9 C 9.47 g/m*3 26.9 C 0 km/h
1368 11-06-2003 12:48:01 27.3 C 9.16 g/m*3 27.3 C 0 km/h
1369 11-06-2003 12:58:01 26.9 C 8.7 g/m*3 26.9 C 0 km/h
1370 11-06-2003 13:08:01 27.7 C 8.83 g/m*3 27.7 C 0 km/h
1371 11-06-2003 13:18:01 28.8 C 9.38 g/m*3 28.8 C 0 km/h
1372 11-06-2003 13:28:01 27.8 C 8.61 g/m*3 27.8 C 0 km/h
1373 11-06-2003 13:38:00 28.9 C 9.14 g/m*3 28.9 C 0 km/h
1374 11-06-2003 13:48:00 28.3 C 9.12 g/m*3 28.3 C 0 km/h
1375 11-06-2003 13:58:00 28 C 8.43 g/m*3 28 C 0 km/h
Sensor: Nr:Datum:Temp:Abs-Feuchte:Windchill:Wind:
Aussen-T/F 1376 11-06-2003 14:08:01 27.7 C 8.83 g/m*3 27.7 C 0 km/h
1377 11-06-2003 14:18:01 28.1 C 9.57 g/m*3 28.1 C 0 km/h
1378 11-06-2003 14:28:01 28.3 C 9.4 g/m*3 28.3 C 0 km/h
1379 11-06-2003 14:38:00 27.9 C 9.47 g/m*3 27.9 C 0 km/h
1380 11-06-2003 14:48:00 28.1 C 9.3 g/m*3 28.1 C 0 km/h
1381 11-06-2003 15:08:01 29.3 C 9.34 g/m*3 29.3 C 0 km/h
1382 11-06-2003 15:18:01 29.4 C 9.1 g/m*3 29.4 C 0 km/h
1383 11-06-2003 15:28:01 29.5 C 9.15 g/m*3 29.5 C 0 km/h
1384 11-06-2003 15:38:01 29.2 C 9.29 g/m*3 29.2 C 0 km/h
1385 11-06-2003 15:48:01 29.6 C 9.2 g/m*3 29.6 C 0 km/h
1386 11-06-2003 15:58:01 29.5 C 8.85 g/m*3 29.5 C 0 km/h
1387 11-06-2003 16:08:01 29.5 C 8.85 g/m*3 29.5 C 0 km/h
1388 11-06-2003 16:18:01 29.6 C 8.9 g/m*3 29.6 C 0 km/h
1389 11-06-2003 16:28:01 30 C 9.4 g/m*3 30 C 0 km/h
1390 11-06-2003 16:38:02 30.1 C 9.15 g/m*3 30.1 C 0 km/h
1391 11-06-2003 16:48:02 30.3 C 9.25 g/m*3 30.3 C 0 km/h
1392 11-06-2003 16:58:02 30.6 C 9.4 g/m*3 30.6 C 0 km/h
1393 11-06-2003 17:08:01 30.8 C 8.86 g/m*3 30.8 C 0 km/h
1394 11-06-2003 17:18:01 30.3 C 8.94 g/m*3 30.3 C 0 km/h
1395 11-06-2003 17:28:01 30.1 C 9.15 g/m*3 30.1 C 0 km/h
1396 11-06-2003 17:38:02 30.1 C 9.45 g/m*3 30.1 C 0 km/h
1397 11-06-2003 17:48:02 30 C 9.1 g/m*3 30 C 0 km/h
1398 11-06-2003 17:58:02 30 C 8.79 g/m*3 30 C 0 km/h
1399 11-06-2003 18:08:02 30.1 C 9.15 g/m*3 30.1 C 0 km/h
1400 11-06-2003 18:18:02 30 C 8.79 g/m*3 30 C 0 km/h
Sensor: Nr:Datum:Temp:Abs-Feuchte:Windchill:Wind:
Aussen-T/F 1401 11-06-2003 18:28:02 29.7 C 8.95 g/m*3 29.7 C 0 km/h
1402 11-06-2003 18:38:01 29.4 C 9.39 g/m*3 29.4 C 0 km/h
1403 11-06-2003 18:48:01 30 C 9.4 g/m*3 30 C 0 km/h
1404 11-06-2003 18:58:01 29.9 C 9.35 g/m*3 29.9 C 0 km/h
1405 11-06-2003 19:08:00 30 C 9.4 g/m*3 30 C 0 km/h
1406 11-06-2003 19:18:00 30 C 9.4 g/m*3 30 C 0 km/h
1407 11-06-2003 19:28:00 30 C 10.31 g/m*3 30 C 0 km/h
1408 11-06-2003 19:37:44 30.3 C 10.48 g/m*3 30.3 C 0 km/h
1409 11-06-2003 19:43:44 29.7 C 9.85 g/m*3 29.7 C 0 km/h
1410 11-06-2003 19:49:44 29.9 C 10.56 g/m*3 29.9 C 0 km/h
1411 11-06-2003 19:55:44 29 C 10.63 g/m*3 29 C 0 km/h
1412 11-06-2003 20:01:01 29.2 C 11.03 g/m*3 29.2 C 0 km/h
1413 11-06-2003 20:07:01 29.1 C 10.97 g/m*3 29.1 C 0 km/h
1414 11-06-2003 20:13:01 29 C 11.2 g/m*3 29 C 0 km/h
1415 11-06-2003 20:19:01 29 C 11.2 g/m*3 29 C 0 km/h
1416 11-06-2003 20:25:01 28.4 C 11.12 g/m*3 28.4 C 0 km/h
1417 11-06-2003 20:31:01 28.2 C 11.27 g/m*3 28.2 C 0 km/h
1418 11-06-2003 20:37:02 28 C 11.42 g/m*3 28 C 0 km/h
1419 11-06-2003 20:43:02 27.5 C 11.38 g/m*3 27.5 C 0 km/h
1420 11-06-2003 20:49:02 27.3 C 11.51 g/m*3 27.3 C 0 km/h
1421 11-06-2003 20:55:02 27.3 C 11.77 g/m*3 27.3 C 0 km/h
1422 11-06-2003 21:01:02 26.8 C 11.71 g/m*3 26.8 C 0 km/h
1423 11-06-2003 21:07:02 26.4 C 12.2 g/m*3 26.4 C 0 km/h
1424 11-06-2003 21:19:02 25.6 C 12.62 g/m*3 25.6 C 0 km/h
1425 11-06-2003 21:25:02 25.1 C 12.27 g/m*3 25.1 C 0 km/h
Sensor: Nr:Datum:Temp:Abs-Feuchte:Windchill:Wind:
Aussen-T/F 1426 11-06-2003 21:31:02 24.8 C 12.29 g/m*3 24.8 C 0 km/h
1427 11-06-2003 21:37:01 24.4 C 12.24 g/m*3 24.4 C 0 km/h
1428 11-06-2003 21:43:01 23.9 C 12.11 g/m*3 23.9 C 0 km/h
1429 11-06-2003 21:49:01 23.6 C 12.34 g/m*3 23.6 C 0 km/h
1430 11-06-2003 21:55:01 23.5 C 12.48 g/m*3 23.5 C 0 km/h
1431 11-06-2003 22:01:01 23.5 C 12.69 g/m*3 23.5 C 0 km/h
1432 11-06-2003 22:08:02 23.2 C 12.27 g/m*3 23.2 C 0 km/h
1433 11-06-2003 22:14:02 22.9 C 12.06 g/m*3 22.9 C 0 km/h
1434 11-06-2003 22:20:02 22.7 C 11.92 g/m*3 22.7 C 0 km/h
1435 11-06-2003 22:26:02 22.5 C 11.98 g/m*3 22.5 C 0 km/h
1436 11-06-2003 22:32:02 22.1 C 11.91 g/m*3 22.1 C 0 km/h
1437 11-06-2003 22:38:02 22 C 12.23 g/m*3 22 C 0 km/h
1438 11-06-2003 22:44:02 21.9 C 11.96 g/m*3 21.9 C 0 km/h
1439 11-06-2003 22:50:02 21.9 C 11.96 g/m*3 21.9 C 0 km/h
1440 11-06-2003 22:56:02 21.7 C 12.02 g/m*3 21.7 C 0 km/h
1441 11-06-2003 23:02:02 21.6 C 12.14 g/m*3 21.6 C 0 km/h
1442 11-06-2003 23:08:02 21.6 C 12.14 g/m*3 21.6 C 0 km/h
1443 11-06-2003 23:14:02 21.6 C 12.14 g/m*3 21.6 C 0 km/h
1444 11-06-2003 23:20:02 21.6 C 11.95 g/m*3 21.6 C 0 km/h
1445 11-06-2003 23:26:02 21.6 C 11.95 g/m*3 21.6 C 0 km/h
1446 11-06-2003 23:32:02 21.6 C 11.95 g/m*3 21.6 C 0 km/h
1447 11-06-2003 23:38:02 21.3 C 12.12 g/m*3 21.3 C 0 km/h
1448 11-06-2003 23:44:02 21.2 C 12.05 g/m*3 21.2 C 0 km/h
1449 11-06-2003 23:50:02 21 C 11.91 g/m*3 21 C 0 km/h
1450 11-06-2003 23:56:02 20.8 C 12.13 g/m*3 20.8 C 0 km/h
Sensor: Nr:Datum:Temp:Abs-Feuchte:Windchill:Wind:
Aussen-T/F 1451 12-06-2003 00:02:02 20.7 C 12.06 g/m*3 20.7 C 0 km/h
1452 12-06-2003 00:08:02 20.6 C 12.17 g/m*3 20.6 C 0 km/h
1453 12-06-2003 00:14:02 20.4 C 12.03 g/m*3 20.4 C 0 km/h
1454 12-06-2003 00:20:02 20.4 C 12.03 g/m*3 20.4 C 0 km/h
1455 12-06-2003 00:26:02 20.3 C 11.96 g/m*3 20.3 C 0 km/h
1456 12-06-2003 00:32:02 20.1 C 12.17 g/m*3 20.1 C 0 km/h
1457 12-06-2003 00:38:02 20 C 12.1 g/m*3 20 C 0 km/h
1458 12-06-2003 00:44:02 19.8 C 12.3 g/m*3 19.8 C 0 km/h
1459 12-06-2003 00:50:02 19.6 C 12.32 g/m*3 19.6 C 0 km/h
1460 12-06-2003 00:56:02 19.5 C 12.25 g/m*3 19.5 C 0 km/h
1461 12-06-2003 01:02:02 19.5 C 12.25 g/m*3 19.5 C 0 km/h
1462 12-06-2003 01:08:02 19.5 C 12.25 g/m*3 19.5 C 0 km/h
1463 12-06-2003 01:14:02 19.4 C 12.18 g/m*3 19.4 C 0 km/h
1464 12-06-2003 01:20:02 19.3 C 12.11 g/m*3 19.3 C 0 km/h
1465 12-06-2003 01:26:02 19.3 C 12.11 g/m*3 19.3 C 0 km/h
1466 12-06-2003 01:32:02 19.2 C 12.04 g/m*3 19.2 C 0 km/h
1467 12-06-2003 01:38:02 19.2 C 12.2 g/m*3 19.2 C 0 km/h
1468 12-06-2003 01:44:02 19 C 12.22 g/m*3 19 C 0 km/h
1469 12-06-2003 01:50:02 19 C 12.39 g/m*3 19 C 0 km/h
1470 12-06-2003 01:56:02 18.7 C 12.33 g/m*3 18.7 C 0 km/h
1471 12-06-2003 02:02:02 18.7 C 12.33 g/m*3 18.7 C 0 km/h
1472 12-06-2003 02:08:02 18.5 C 12.34 g/m*3 18.5 C 0 km/h
1473 12-06-2003 02:14:02 18.5 C 12.34 g/m*3 18.5 C 0 km/h
1474 12-06-2003 02:20:02 18.4 C 12.27 g/m*3 18.4 C 0 km/h
1475 12-06-2003 02:26:02 18.4 C 12.27 g/m*3 18.4 C 0 km/h
Sensor: Nr:Datum:Temp:Abs-Feuchte:Windchill:Wind:
Aussen-T/F 1476 12-06-2003 02:32:02 18.2 C 12.28 g/m*3 18.2 C 0 km/h
1477 12-06-2003 02:38:02 18.2 C 12.28 g/m*3 18.2 C 0 km/h
1478 12-06-2003 02:44:02 18 C 12.13 g/m*3 18 C 0 km/h
1479 12-06-2003 02:50:02 18.1 C 12.21 g/m*3 18.1 C 0 km/h
1480 12-06-2003 02:56:02 18 C 12.13 g/m*3 18 C 0 km/h
1481 12-06-2003 03:02:02 18 C 12.13 g/m*3 18 C 0 km/h
1482 12-06-2003 03:08:02 18 C 12.13 g/m*3 18 C 0 km/h
1483 12-06-2003 03:14:02 17.9 C 12.21 g/m*3 17.9 C 0 km/h
1484 12-06-2003 03:20:02 17.9 C 12.21 g/m*3 17.9 C 0 km/h
1485 12-06-2003 03:26:02 17.8 C 12.29 g/m*3 17.8 C 0 km/h
1486 12-06-2003 03:32:02 17.7 C 12.22 g/m*3 17.7 C 0 km/h
1487 12-06-2003 03:38:02 17.6 C 12.15 g/m*3 17.6 C 0 km/h
1488 12-06-2003 03:44:02 17.5 C 12.23 g/m*3 17.5 C 0 km/h
1489 12-06-2003 03:50:02 17.4 C 12.15 g/m*3 17.4 C 0 km/h
1490 12-06-2003 03:56:02 17.3 C 11.93 g/m*3 17.3 C 0 km/h
1491 12-06-2003 04:02:02 17.5 C 12.08 g/m*3 17.5 C 0 km/h
1492 12-06-2003 04:08:02 17.4 C 12.15 g/m*3 17.4 C 0 km/h
1493 12-06-2003 04:14:02 17.4 C 12.15 g/m*3 17.4 C 0 km/h
1494 12-06-2003 04:20:02 17.3 C 12.08 g/m*3 17.3 C 0 km/h
1495 12-06-2003 04:26:02 17.2 C 11.86 g/m*3 17.2 C 0 km/h
1496 12-06-2003 04:32:02 17.2 C 11.86 g/m*3 17.2 C 0 km/h
1497 12-06-2003 04:38:02 17.2 C 11.86 g/m*3 17.2 C 0 km/h
1498 12-06-2003 04:44:02 17 C 11.72 g/m*3 17 C 0 km/h
1499 12-06-2003 04:50:02 17 C 11.72 g/m*3 17 C 0 km/h
1500 12-06-2003 04:56:02 16.9 C 11.94 g/m*3 16.9 C 0 km/h
Sensor: Nr:Datum:Temp:Abs-Feuchte:Windchill:Wind:
Aussen-T/F 1501 12-06-2003 05:02:02 16.9 C 12.08 g/m*3 16.9 C 0 km/h
1502 12-06-2003 05:08:02 16.7 C 11.94 g/m*3 16.7 C 0 km/h
1503 12-06-2003 05:14:02 16.7 C 11.94 g/m*3 16.7 C 0 km/h
1504 12-06-2003 05:20:02 16.7 C 11.94 g/m*3 16.7 C 0 km/h
1505 12-06-2003 05:26:02 16.7 C 11.94 g/m*3 16.7 C 0 km/h
1506 12-06-2003 05:32:02 16.7 C 11.94 g/m*3 16.7 C 0 km/h
1507 12-06-2003 05:38:02 16.6 C 12.01 g/m*3 16.6 C 0 km/h
1508 12-06-2003 05:44:02 16.6 C 11.87 g/m*3 16.6 C 0 km/h
1509 12-06-2003 05:50:02 16.6 C 11.87 g/m*3 16.6 C 0 km/h
1510 12-06-2003 05:56:02 16.7 C 12.08 g/m*3 16.7 C 0 km/h
1511 12-06-2003 06:02:02 16.8 C 12.01 g/m*3 16.8 C 0 km/h
1512 12-06-2003 06:08:02 16.9 C 12.08 g/m*3 16.9 C 0 km/h
1513 12-06-2003 06:14:02 16.9 C 11.94 g/m*3 16.9 C 0 km/h
1514 12-06-2003 06:20:02 17 C 12.01 g/m*3 17 C 0 km/h
1515 12-06-2003 06:26:02 16.9 C 12.08 g/m*3 16.9 C 0 km/h
1516 12-06-2003 06:32:02 16.8 C 12.01 g/m*3 16.8 C 0 km/h
1517 12-06-2003 06:38:02 16.8 C 12.01 g/m*3 16.8 C 0 km/h
1518 12-06-2003 06:44:02 16.7 C 11.94 g/m*3 16.7 C 0 km/h
1519 12-06-2003 06:50:02 16.7 C 11.94 g/m*3 16.7 C 0 km/h
1520 12-06-2003 06:56:02 16.8 C 12.15 g/m*3 16.8 C 0 km/h
1521 12-06-2003 07:02:02 16.8 C 12.15 g/m*3 16.8 C 0 km/h
1522 12-06-2003 07:08:02 17 C 12.15 g/m*3 17 C 0 km/h
1523 12-06-2003 07:14:02 17.1 C 12.23 g/m*3 17.1 C 0 km/h
1524 12-06-2003 07:20:02 17.2 C 12.3 g/m*3 17.2 C 0 km/h
1525 12-06-2003 07:26:02 17.3 C 12.23 g/m*3 17.3 C 0 km/h
Sensor: Nr:Datum:Temp:Abs-Feuchte:Windchill:Wind:
Aussen-T/F 1526 12-06-2003 07:32:01 17.4 C 12.15 g/m*3 17.4 C 0 km/h
1527 12-06-2003 07:38:01 17.4 C 12.15 g/m*3 17.4 C 0 km/h
1528 12-06-2003 07:44:01 17.6 C 12.3 g/m*3 17.6 C 0 km/h
1529 12-06-2003 07:50:01 17.5 C 12.23 g/m*3 17.5 C 0 km/h
1530 12-06-2003 07:56:01 17.7 C 12.22 g/m*3 17.7 C 0 km/h
1531 12-06-2003 08:02:00 18 C 12.29 g/m*3 18 C 0 km/h
1532 12-06-2003 08:08:00 18.1 C 12.36 g/m*3 18.1 C 0 km/h
1533 12-06-2003 08:14:00 18.3 C 12.51 g/m*3 18.3 C 0 km/h
1534 12-06-2003 08:20:00 18.5 C 12.5 g/m*3 18.5 C 0 km/h
1535 12-06-2003 08:26:00 18.6 C 12.57 g/m*3 18.6 C 0 km/h
1536 12-06-2003 08:32:01 18.7 C 12.49 g/m*3 18.7 C 0 km/h
1537 12-06-2003 08:38:01 18.8 C 12.4 g/m*3 18.8 C 0 km/h
1538 12-06-2003 08:44:01 19 C 12.39 g/m*3 19 C 0 km/h
1539 12-06-2003 08:50:01 19.2 C 12.53 g/m*3 19.2 C 0 km/h
1540 12-06-2003 08:56:01 19.4 C 12.51 g/m*3 19.4 C 0 km/h
1541 12-06-2003 09:02:01 19.6 C 12.49 g/m*3 19.6 C 0 km/h
1542 12-06-2003 09:08:01 19.9 C 12.54 g/m*3 19.9 C 0 km/h
1543 12-06-2003 09:14:01 20.3 C 12.49 g/m*3 20.3 C 0 km/h
1544 12-06-2003 09:20:01 20.8 C 12.86 g/m*3 20.8 C 0 km/h
1545 12-06-2003 09:26:01 21.2 C 12.6 g/m*3 21.2 C 0 km/h
1546 12-06-2003 09:32:02 21.5 C 12.07 g/m*3 21.5 C 0 km/h
1547 12-06-2003 09:38:02 22 C 12.03 g/m*3 22 C 0 km/h
1548 12-06-2003 09:44:02 22.3 C 12.05 g/m*3 22.3 C 0 km/h
1549 12-06-2003 09:50:02 22.7 C 11.92 g/m*3 22.7 C 0 km/h
1550 12-06-2003 09:56:02 22.9 C 12.06 g/m*3 22.9 C 0 km/h
Sensor: Nr:Datum:Temp:Abs-Feuchte:Windchill:Wind:
Aussen-T/F 1551 12-06-2003 10:02:02 23.4 C 11.99 g/m*3 23.4 C 0 km/h
1552 12-06-2003 10:08:02 23.8 C 12.05 g/m*3 23.8 C 0 km/h
1553 12-06-2003 10:14:02 24.1 C 12.25 g/m*3 24.1 C 0 km/h
1554 12-06-2003 10:20:02 24.1 C 11.6 g/m*3 24.1 C 0 km/h
1555 12-06-2003 10:26:02 24.4 C 12.46 g/m*3 24.4 C 0 km/h
1556 12-06-2003 10:32:01 24.8 C 12.97 g/m*3 24.8 C 0 km/h
1557 12-06-2003 10:38:01 25 C 12.2 g/m*3 25 C 0 km/h
1558 12-06-2003 10:44:01 25.3 C 12.17 g/m*3 25.3 C 0 km/h
1559 12-06-2003 10:50:01 25.7 C 12.45 g/m*3 25.7 C 0 km/h
1560 12-06-2003 10:56:01 26 C 12.17 g/m*3 26 C 0 km/h
1561 12-06-2003 11:02:02 26.3 C 12.63 g/m*3 26.3 C 0 km/h
1562 12-06-2003 11:08:02 26.6 C 12.59 g/m*3 26.6 C 0 km/h
1563 12-06-2003 11:14:02 26.7 C 11.9 g/m*3 26.7 C 0 km/h
1564 12-06-2003 11:20:02 27 C 12.1 g/m*3 27 C 0 km/h
1565 12-06-2003 11:26:02 27.2 C 12.49 g/m*3 27.2 C 0 km/h
1566 12-06-2003 11:32:01 27.5 C 12.7 g/m*3 27.5 C 0 km/h
1567 12-06-2003 11:38:01 27.9 C 12.44 g/m*3 27.9 C 0 km/h
1568 12-06-2003 11:44:01 27.9 C 12.17 g/m*3 27.9 C 0 km/h
1569 12-06-2003 11:50:01 28.6 C 11.8 g/m*3 28.6 C 0 km/h
1570 12-06-2003 11:56:01 29 C 12.35 g/m*3 29 C 0 km/h
1571 12-06-2003 12:02:02 29.5 C 11.81 g/m*3 29.5 C 0 km/h
1572 12-06-2003 12:08:02 29.7 C 11.34 g/m*3 29.7 C 0 km/h
1573 12-06-2003 12:14:02 30 C 10.61 g/m*3 30 C 0 km/h
1574 12-06-2003 12:20:02 30.4 C 10.85 g/m*3 30.4 C 0 km/h
1575 12-06-2003 12:26:02 30.6 C 10.34 g/m*3 30.6 C 0 km/h
Sensor: Nr:Datum:Temp:Abs-Feuchte:Windchill:Wind:
Aussen-T/F 1576 12-06-2003 12:32:01 30.9 C 10.5 g/m*3 30.9 C 0 km/h
1577 12-06-2003 12:38:01 31 C 10.56 g/m*3 31 C 0 km/h
1578 12-06-2003 12:44:01 30.9 C 9.55 g/m*3 30.9 C 0 km/h
1579 12-06-2003 12:50:01 30.6 C 9.4 g/m*3 30.6 C 0 km/h
1580 12-06-2003 12:56:01 31 C 9.28 g/m*3 31 C 0 km/h
1581 12-06-2003 13:02:01 31.5 C 8.88 g/m*3 31.5 C 0 km/h
1582 12-06-2003 13:08:01 31.6 C 8.26 g/m*3 31.6 C 0 km/h
1583 12-06-2003 13:14:01 32 C 8.44 g/m*3 32 C 0 km/h
1584 12-06-2003 13:20:01 32.2 C 8.53 g/m*3 32.2 C 0 km/h
1585 12-06-2003 13:26:01 31.6 C 9.58 g/m*3 31.6 C 0 km/h
1586 12-06-2003 13:32:01 32 C 9.11 g/m*3 32 C 0 km/h
1587 12-06-2003 13:38:01 31.9 C 8.73 g/m*3 31.9 C 0 km/h
1588 12-06-2003 13:44:01 32.3 C 8.58 g/m*3 32.3 C 0 km/h
1589 12-06-2003 13:50:01 31.9 C 8.73 g/m*3 31.9 C 0 km/h
1590 12-06-2003 13:56:01 31.7 C 8.97 g/m*3 31.7 C 0 km/h
1591 12-06-2003 14:02:02 31.5 C 8.88 g/m*3 31.5 C 0 km/h
1592 12-06-2003 14:08:02 31.3 C 9.43 g/m*3 31.3 C 0 km/h
1593 12-06-2003 14:14:02 31.5 C 9.86 g/m*3 31.5 C 0 km/h
1594 12-06-2003 14:20:02 31.8 C 10.02 g/m*3 31.8 C 0 km/h
1595 12-06-2003 14:26:02 31.9 C 9.74 g/m*3 31.9 C 0 km/h
1596 12-06-2003 14:32:01 31.8 C 9.69 g/m*3 31.8 C 0 km/h
1597 12-06-2003 14:38:01 31.8 C 9.35 g/m*3 31.8 C 0 km/h
1598 12-06-2003 14:44:01 31.8 C 9.69 g/m*3 31.8 C 0 km/h
1599 12-06-2003 14:50:01 32 C 9.79 g/m*3 32 C 0 km/h
1600 12-06-2003 14:56:01 32 C 9.79 g/m*3 32 C 0 km/h
Sensor: Nr:Datum:Temp:Abs-Feuchte:Windchill:Wind:
Aussen-T/F 1601 12-06-2003 15:02:02 32.3 C 9.6 g/m*3 32.3 C 0 km/h
1602 12-06-2003 15:08:02 32 C 9.11 g/m*3 32 C 0 km/h
1603 12-06-2003 15:14:02 32 C 9.79 g/m*3 32 C 0 km/h
1604 12-06-2003 15:20:02 31.8 C 9.35 g/m*3 31.8 C 0 km/h
1605 12-06-2003 15:26:02 32.1 C 10.18 g/m*3 32.1 C 0 km/h
1606 12-06-2003 15:32:01 32.1 C 9.84 g/m*3 32.1 C 0 km/h
1607 12-06-2003 15:38:01 32 C 9.45 g/m*3 32 C 0 km/h
1608 12-06-2003 15:44:01 32.1 C 9.84 g/m*3 32.1 C 0 km/h
1609 12-06-2003 15:50:01 32.3 C 9.6 g/m*3 32.3 C 0 km/h
1610 12-06-2003 15:56:01 32.5 C 9.71 g/m*3 32.5 C 0 km/h
1611 12-06-2003 16:02:01 32.8 C 9.51 g/m*3 32.8 C 0 km/h
1612 12-06-2003 16:08:01 32.8 C 9.16 g/m*3 32.8 C 0 km/h
1613 12-06-2003 16:14:01 32.8 C 9.16 g/m*3 32.8 C 0 km/h
1614 12-06-2003 16:20:01 32.5 C 9.71 g/m*3 32.5 C 0 km/h
1615 12-06-2003 16:26:01 32 C 10.47 g/m*3 32 C 0 km/h
1616 12-06-2003 16:32:20 31.5 C 10.52 g/m*3 31.5 C 0 km/h
1617 12-06-2003 16:38:20 31 C 11.2 g/m*3 31 C 0 km/h
1618 12-06-2003 16:44:20 30.6 C 11.59 g/m*3 30.6 C 0 km/h
1619 12-06-2003 16:50:20 29.7 C 12.23 g/m*3 29.7 C 0 km/h
1620 12-06-2003 16:56:45 27.4 C 13.94 g/m*3 27.4 C 0 km/h
1621 12-06-2003 17:02:45 24.2 C 16.06 g/m*3 24.2 C 0 km/h
1622 12-06-2003 17:08:45 23.1 C 16.54 g/m*3 23.1 C 0 km/h
1623 12-06-2003 17:14:01 22.9 C 16.96 g/m*3 22.9 C 0 km/h
1624 12-06-2003 17:20:01 23.1 C 17.78 g/m*3 23.1 C 0 km/h
1625 12-06-2003 17:26:01 23.4 C 17.87 g/m*3 23.4 C 0 km/h
Sensor: Nr:Datum:Temp:Abs-Feuchte:Windchill:Wind:
Aussen-T/F 1626 12-06-2003 17:32:21 23.8 C 17.85 g/m*3 23.8 C 0 km/h
1627 12-06-2003 17:38:21 24.1 C 17.29 g/m*3 24.1 C 0 km/h
1628 12-06-2003 17:50:02 24.4 C 17.36 g/m*3 24.4 C 0 km/h
1629 12-06-2003 17:56:02 24.4 C 16.91 g/m*3 24.4 C 0 km/h
1630 12-06-2003 18:03:02 24.5 C 17.46 g/m*3 24.5 C 0 km/h
1631 12-06-2003 18:09:02 25.1 C 17.59 g/m*3 25.1 C 0 km/h
1632 12-06-2003 18:15:02 25.4 C 17.42 g/m*3 25.4 C 0 km/h
1633 12-06-2003 18:21:02 25.4 C 17.42 g/m*3 25.4 C 0 km/h
1634 12-06-2003 18:27:02 25.7 C 17.72 g/m*3 25.7 C 0 km/h
1635 12-06-2003 18:33:02 25.8 C 17.82 g/m*3 25.8 C 0 km/h
1636 12-06-2003 18:39:02 25.6 C 17.14 g/m*3 25.6 C 0 km/h
1637 12-06-2003 18:45:02 25.3 C 17.32 g/m*3 25.3 C 0 km/h
1638 12-06-2003 18:51:02 25.2 C 17.23 g/m*3 25.2 C 0 km/h
1639 12-06-2003 18:57:02 24.9 C 16.71 g/m*3 24.9 C 0 km/h
1640 12-06-2003 19:03:02 24.8 C 17.3 g/m*3 24.8 C 0 km/h
1641 12-06-2003 19:09:02 24.6 C 16.43 g/m*3 24.6 C 0 km/h
1642 12-06-2003 19:15:02 24.6 C 16.66 g/m*3 24.6 C 0 km/h
1643 12-06-2003 19:21:02 24.5 C 16.56 g/m*3 24.5 C 0 km/h
1644 12-06-2003 19:27:02 24 C 16.32 g/m*3 24 C 0 km/h
1645 12-06-2003 19:33:02 23.6 C 16.16 g/m*3 23.6 C 0 km/h
1646 12-06-2003 19:39:02 23.3 C 15.47 g/m*3 23.3 C 0 km/h
1647 12-06-2003 19:45:02 23.2 C 15.38 g/m*3 23.2 C 0 km/h
1648 12-06-2003 19:51:02 22.9 C 15.33 g/m*3 22.9 C 0 km/h
1649 12-06-2003 19:57:02 22.8 C 15.24 g/m*3 22.8 C 0 km/h
1650 12-06-2003 20:03:02 23.2 C 15.8 g/m*3 23.2 C 0 km/h
Sensor: Nr:Datum:Temp:Abs-Feuchte:Windchill:Wind:
Aussen-T/F 1651 12-06-2003 20:09:02 23.2 C 15.8 g/m*3 23.2 C 0 km/h
1652 12-06-2003 20:15:02 23.3 C 15.89 g/m*3 23.3 C 0 km/h
1653 12-06-2003 20:21:02 23.2 C 15.8 g/m*3 23.2 C 0 km/h
1654 12-06-2003 20:27:02 23.1 C 15.92 g/m*3 23.1 C 0 km/h
1655 12-06-2003 20:33:02 23.2 C 16.22 g/m*3 23.2 C 0 km/h
1656 12-06-2003 20:39:02 23.1 C 16.33 g/m*3 23.1 C 0 km/h
1657 12-06-2003 20:45:02 23.1 C 16.33 g/m*3 23.1 C 0 km/h
1658 12-06-2003 20:51:02 23 C 16.24 g/m*3 23 C 0 km/h
1659 12-06-2003 20:57:02 23 C 16.24 g/m*3 23 C 0 km/h
1660 12-06-2003 21:03:02 22.8 C 16.26 g/m*3 22.8 C 0 km/h
1661 12-06-2003 21:09:02 22.6 C 16.27 g/m*3 22.6 C 0 km/h
1662 12-06-2003 21:15:02 22.5 C 16.38 g/m*3 22.5 C 0 km/h
1663 12-06-2003 21:21:02 22.4 C 16.28 g/m*3 22.4 C 0 km/h
1664 12-06-2003 21:27:02 22.5 C 16.58 g/m*3 22.5 C 0 km/h
1665 12-06-2003 21:33:02 22.5 C 16.98 g/m*3 22.5 C 0 km/h
1666 12-06-2003 21:39:02 22 C 16.89 g/m*3 22 C 0 km/h
1667 12-06-2003 21:45:02 21.8 C 17.08 g/m*3 21.8 C 0 km/h
1668 12-06-2003 21:51:02 21.3 C 16.78 g/m*3 21.3 C 0 km/h
1669 12-06-2003 21:57:02 21.4 C 17.06 g/m*3 21.4 C 0 km/h
1670 12-06-2003 22:03:02 21.1 C 16.77 g/m*3 21.1 C 0 km/h
1671 12-06-2003 22:09:02 20.8 C 16.48 g/m*3 20.8 C 0 km/h
1672 12-06-2003 22:15:02 20.7 C 16.38 g/m*3 20.7 C 0 km/h
1673 12-06-2003 22:21:02 20.8 C 16.48 g/m*3 20.8 C 0 km/h
1674 12-06-2003 22:27:02 20.7 C 16.38 g/m*3 20.7 C 0 km/h
1675 12-06-2003 22:33:02 20.6 C 16.29 g/m*3 20.6 C 0 km/h
Sensor: Nr:Datum:Temp:Abs-Feuchte:Windchill:Wind:
Aussen-T/F 1676 12-06-2003 22:39:02 20.4 C 16.1 g/m*3 20.4 C 0 km/h
1677 12-06-2003 22:45:02 20.4 C 16.1 g/m*3 20.4 C 0 km/h
1678 12-06-2003 22:57:02 20.1 C 15.82 g/m*3 20.1 C 0 km/h
1679 12-06-2003 23:03:02 20 C 15.55 g/m*3 20 C 0 km/h
1680 12-06-2003 23:09:02 20 C 15.55 g/m*3 20 C 0 km/h
1681 12-06-2003 23:15:02 20 C 15.55 g/m*3 20 C 0 km/h
1682 12-06-2003 23:21:02 19.9 C 15.63 g/m*3 19.9 C 0 km/h
1683 12-06-2003 23:27:02 19.9 C 15.63 g/m*3 19.9 C 0 km/h
1684 12-06-2003 23:33:02 20 C 15.55 g/m*3 20 C 0 km/h
1685 12-06-2003 23:39:02 19.9 C 15.63 g/m*3 19.9 C 0 km/h
1686 12-06-2003 23:45:02 19.9 C 15.63 g/m*3 19.9 C 0 km/h
1687 12-06-2003 23:51:02 19.8 C 15.54 g/m*3 19.8 C 0 km/h
1688 12-06-2003 23:57:02 19.8 C 15.54 g/m*3 19.8 C 0 km/h
1689 13-06-2003 00:03:02 19.8 C 15.54 g/m*3 19.8 C 0 km/h
1690 13-06-2003 00:09:02 19.8 C 15.54 g/m*3 19.8 C 0 km/h
1691 13-06-2003 00:15:02 19.8 C 15.54 g/m*3 19.8 C 0 km/h
1692 13-06-2003 00:21:02 19.7 C 15.45 g/m*3 19.7 C 0 km/h
1693 13-06-2003 00:27:02 19.7 C 15.45 g/m*3 19.7 C 0 km/h
1694 13-06-2003 00:33:02 19.7 C 15.45 g/m*3 19.7 C 0 km/h
1695 13-06-2003 00:39:02 19.7 C 15.79 g/m*3 19.7 C 0 km/h
1696 13-06-2003 00:45:02 19.7 C 15.45 g/m*3 19.7 C 0 km/h
1697 13-06-2003 00:51:02 19.5 C 15.27 g/m*3 19.5 C 0 km/h
1698 13-06-2003 00:57:02 19.5 C 15.27 g/m*3 19.5 C 0 km/h
1699 13-06-2003 01:03:02 19.4 C 15.02 g/m*3 19.4 C 0 km/h
1700 13-06-2003 01:09:02 19.3 C 14.93 g/m*3 19.3 C 0 km/h
Sensor: Nr:Datum:Temp:Abs-Feuchte:Windchill:Wind:
Aussen-T/F 1701 13-06-2003 01:15:02 19.3 C 14.93 g/m*3 19.3 C 0 km/h
1702 13-06-2003 01:21:02 19.2 C 14.84 g/m*3 19.2 C 0 km/h
1703 13-06-2003 01:27:02 19 C 14.5 g/m*3 19 C 0 km/h
1704 13-06-2003 01:33:02 18.9 C 14.42 g/m*3 18.9 C 0 km/h
1705 13-06-2003 01:39:02 18.7 C 13.93 g/m*3 18.7 C 0 km/h
1706 13-06-2003 01:45:02 18.6 C 13.85 g/m*3 18.6 C 0 km/h
1707 13-06-2003 01:51:02 18.5 C 13.77 g/m*3 18.5 C 0 km/h
1708 13-06-2003 01:57:02 18.4 C 13.68 g/m*3 18.4 C 0 km/h
1709 13-06-2003 02:03:02 18.3 C 13.6 g/m*3 18.3 C 0 km/h
1710 13-06-2003 02:09:02 18.2 C 13.37 g/m*3 18.2 C 0 km/h
1711 13-06-2003 02:15:02 18.2 C 13.37 g/m*3 18.2 C 0 km/h
1712 13-06-2003 02:21:02 18.2 C 13.37 g/m*3 18.2 C 0 km/h
1713 13-06-2003 02:27:02 18.1 C 13.13 g/m*3 18.1 C 0 km/h
1714 13-06-2003 02:33:02 18 C 12.75 g/m*3 18 C 0 km/h
1715 13-06-2003 02:39:02 17.9 C 12.98 g/m*3 17.9 C 0 km/h
1716 13-06-2003 02:45:02 17.6 C 12.75 g/m*3 17.6 C 0 km/h
1717 13-06-2003 02:51:02 17.5 C 12.67 g/m*3 17.5 C 0 km/h
1718 13-06-2003 02:57:02 17.4 C 12.6 g/m*3 17.4 C 0 km/h
1719 13-06-2003 03:03:02 17.3 C 12.52 g/m*3 17.3 C 0 km/h
1720 13-06-2003 03:09:02 17.4 C 12.45 g/m*3 17.4 C 0 km/h
1721 13-06-2003 03:15:02 17.2 C 12.45 g/m*3 17.2 C 0 km/h
1722 13-06-2003 03:21:02 17.2 C 12.3 g/m*3 17.2 C 0 km/h
1723 13-06-2003 03:27:02 17 C 12.15 g/m*3 17 C 0 km/h
1724 13-06-2003 03:33:02 16.9 C 12.37 g/m*3 16.9 C 0 km/h
1725 13-06-2003 03:39:02 16.9 C 12.37 g/m*3 16.9 C 0 km/h
Sensor: Nr:Datum:Temp:Abs-Feuchte:Windchill:Wind:
Aussen-T/F 1726 13-06-2003 03:45:02 16.8 C 12.3 g/m*3 16.8 C 0 km/h
1727 13-06-2003 03:51:02 16.7 C 12.22 g/m*3 16.7 C 0 km/h
1728 13-06-2003 03:57:02 16.7 C 12.22 g/m*3 16.7 C 0 km/h
1729 13-06-2003 04:03:02 16.7 C 12.36 g/m*3 16.7 C 0 km/h
1730 13-06-2003 04:09:02 16.7 C 12.36 g/m*3 16.7 C 0 km/h
1731 13-06-2003 04:15:02 16.7 C 12.22 g/m*3 16.7 C 0 km/h
1732 13-06-2003 04:21:02 16.8 C 12.01 g/m*3 16.8 C 0 km/h
1733 13-06-2003 04:27:02 16.8 C 12.01 g/m*3 16.8 C 0 km/h
1734 13-06-2003 04:33:02 16.6 C 12.01 g/m*3 16.6 C 0 km/h
1735 13-06-2003 04:39:02 16.6 C 11.87 g/m*3 16.6 C 0 km/h
1736 13-06-2003 04:45:02 16.6 C 11.87 g/m*3 16.6 C 0 km/h
1737 13-06-2003 04:51:02 16.7 C 11.8 g/m*3 16.7 C 0 km/h
1738 13-06-2003 04:57:02 16.7 C 11.8 g/m*3 16.7 C 0 km/h
1739 13-06-2003 05:03:02 16.6 C 11.87 g/m*3 16.6 C 0 km/h
1740 13-06-2003 05:09:02 16.6 C 11.87 g/m*3 16.6 C 0 km/h
1741 13-06-2003 05:15:02 16.6 C 11.72 g/m*3 16.6 C 0 km/h
1742 13-06-2003 05:21:02 16.6 C 11.58 g/m*3 16.6 C 0 km/h
1743 13-06-2003 05:27:02 16.6 C 11.58 g/m*3 16.6 C 0 km/h
1744 13-06-2003 05:33:02 16.6 C 11.72 g/m*3 16.6 C 0 km/h
1745 13-06-2003 05:39:02 16.6 C 11.58 g/m*3 16.6 C 0 km/h
1746 13-06-2003 05:45:02 16.5 C 11.65 g/m*3 16.5 C 0 km/h
1747 13-06-2003 05:51:02 16.6 C 11.72 g/m*3 16.6 C 0 km/h
1748 13-06-2003 05:57:02 16.6 C 11.58 g/m*3 16.6 C 0 km/h
1749 13-06-2003 06:03:02 16.7 C 11.65 g/m*3 16.7 C 0 km/h
1750 13-06-2003 06:09:02 16.7 C 11.8 g/m*3 16.7 C 0 km/h
Sensor: Nr:Datum:Temp:Abs-Feuchte:Windchill:Wind:
Aussen-T/F 1751 13-06-2003 06:15:02 16.7 C 11.8 g/m*3 16.7 C 0 km/h
1752 13-06-2003 06:21:02 16.6 C 11.72 g/m*3 16.6 C 0 km/h
1753 13-06-2003 06:27:02 16.6 C 11.87 g/m*3 16.6 C 0 km/h
1754 13-06-2003 06:33:02 16.6 C 11.87 g/m*3 16.6 C 0 km/h
1755 13-06-2003 06:39:02 16.6 C 11.87 g/m*3 16.6 C 0 km/h
1756 13-06-2003 06:45:02 16.7 C 11.94 g/m*3 16.7 C 0 km/h
1757 13-06-2003 06:51:02 16.8 C 12.01 g/m*3 16.8 C 0 km/h
1758 13-06-2003 06:57:02 16.9 C 12.23 g/m*3 16.9 C 0 km/h
1759 13-06-2003 07:03:02 17 C 12.15 g/m*3 17 C 0 km/h
1760 13-06-2003 07:09:02 17 C 12.15 g/m*3 17 C 0 km/h
1761 13-06-2003 07:15:02 17.1 C 12.23 g/m*3 17.1 C 0 km/h
1762 13-06-2003 07:21:02 17.2 C 12.15 g/m*3 17.2 C 0 km/h
1763 13-06-2003 07:27:02 17.3 C 12.23 g/m*3 17.3 C 0 km/h
1764 13-06-2003 07:33:00 17.4 C 12.15 g/m*3 17.4 C 0 km/h
1765 13-06-2003 07:39:00 17.6 C 12.3 g/m*3 17.6 C 0 km/h
1766 13-06-2003 07:45:00 17.5 C 12.08 g/m*3 17.5 C 0 km/h
1767 13-06-2003 07:51:00 17.7 C 12.07 g/m*3 17.7 C 0 km/h
1768 13-06-2003 07:57:00 17.7 C 11.77 g/m*3 17.7 C 0 km/h
1769 13-06-2003 08:03:01 17.6 C 11.7 g/m*3 17.6 C 0 km/h
1770 13-06-2003 08:09:01 17.6 C 11.85 g/m*3 17.6 C 0 km/h
1771 13-06-2003 08:15:01 17.9 C 11.91 g/m*3 17.9 C 0 km/h
1772 13-06-2003 08:21:01 18 C 11.52 g/m*3 18 C 0 km/h
1773 13-06-2003 08:27:01 18.2 C 11.66 g/m*3 18.2 C 0 km/h
1774 13-06-2003 08:39:01 18.6 C 11.78 g/m*3 18.6 C 0 km/h
1775 13-06-2003 08:45:01 18.6 C 11.78 g/m*3 18.6 C 0 km/h
Sensor: Nr:Datum:Temp:Abs-Feuchte:Windchill:Wind:
Aussen-T/F 1776 13-06-2003 08:51:01 18.8 C 11.92 g/m*3 18.8 C 0 km/h
1777 13-06-2003 08:57:01 19.1 C 11.97 g/m*3 19.1 C 0 km/h
1778 13-06-2003 09:03:01 19.4 C 11.85 g/m*3 19.4 C 0 km/h
1779 13-06-2003 09:09:01 19.6 C 11.65 g/m*3 19.6 C 0 km/h
1780 13-06-2003 09:15:01 19.2 C 11.54 g/m*3 19.2 C 0 km/h
1781 13-06-2003 09:21:01 19.3 C 11.78 g/m*3 19.3 C 0 km/h
1782 13-06-2003 09:27:01 19.6 C 12.15 g/m*3 19.6 C 0 km/h
1783 13-06-2003 09:33:01 19.8 C 11.79 g/m*3 19.8 C 0 km/h
1784 13-06-2003 09:39:01 20 C 11.75 g/m*3 20 C 0 km/h
1785 13-06-2003 09:45:01 19.9 C 11.51 g/m*3 19.9 C 0 km/h
1786 13-06-2003 09:51:01 19.7 C 11.38 g/m*3 19.7 C 0 km/h
1787 13-06-2003 09:57:01 19.8 C 11.44 g/m*3 19.8 C 0 km/h
1788 13-06-2003 10:09:55 20.5 C 11.74 g/m*3 20.5 C 0 km/h
1789 13-06-2003 10:15:03 20.8 C 11.59 g/m*3 20.8 C 0 km/h
1790 13-06-2003 10:21:03 21.6 C 12.14 g/m*3 21.6 C 0 km/h
1791 13-06-2003 10:27:03 21.8 C 11.7 g/m*3 21.8 C 0 km/h
1792 13-06-2003 10:33:01 21.6 C 11.57 g/m*3 21.6 C 0 km/h
1793 13-06-2003 10:39:01 21.7 C 11.45 g/m*3 21.7 C 0 km/h
1794 13-06-2003 10:45:01 21.9 C 11.58 g/m*3 21.9 C 0 km/h
1795 13-06-2003 10:51:01 22.5 C 12.18 g/m*3 22.5 C 0 km/h
1796 13-06-2003 10:57:01 22.5 C 11.58 g/m*3 22.5 C 0 km/h
1797 13-06-2003 11:03:01 22.7 C 11.72 g/m*3 22.7 C 0 km/h
1798 13-06-2003 11:09:01 22.9 C 11.85 g/m*3 22.9 C 0 km/h
1799 13-06-2003 11:15:01 23.4 C 11.99 g/m*3 23.4 C 0 km/h
1800 13-06-2003 11:21:01 22.9 C 11.85 g/m*3 22.9 C 0 km/h
Sensor: Nr:Datum:Temp:Abs-Feuchte:Windchill:Wind:
Aussen-T/F 1801 13-06-2003 11:27:01 23.2 C 11.85 g/m*3 23.2 C 0 km/h
1802 13-06-2003 11:33:01 23.6 C 12.34 g/m*3 23.6 C 0 km/h
1803 13-06-2003 11:39:01 23.1 C 11.37 g/m*3 23.1 C 0 km/h
1804 13-06-2003 11:45:01 23.7 C 12.19 g/m*3 23.7 C 0 km/h
1805 13-06-2003 11:51:01 23.5 C 11.42 g/m*3 23.5 C 0 km/h
1806 13-06-2003 11:57:01 23.5 C 11.84 g/m*3 23.5 C 0 km/h
1807 13-06-2003 12:03:02 23.6 C 11.7 g/m*3 23.6 C 0 km/h
1808 13-06-2003 12:09:02 24.4 C 11.79 g/m*3 24.4 C 0 km/h
1809 13-06-2003 12:15:02 25.2 C 12.57 g/m*3 25.2 C 0 km/h
1810 13-06-2003 12:21:02 25.9 C 12.1 g/m*3 25.9 C 0 km/h
1811 13-06-2003 12:27:02 25.1 C 11.34 g/m*3 25.1 C 0 km/h
1812 13-06-2003 12:33:01 25.7 C 11.49 g/m*3 25.7 C 0 km/h
1813 13-06-2003 12:39:01 25.9 C 11.14 g/m*3 25.9 C 0 km/h
1814 13-06-2003 12:45:01 25.3 C 11 g/m*3 25.3 C 0 km/h
1815 13-06-2003 12:51:01 26.9 C 11.52 g/m*3 26.9 C 0 km/h
1816 13-06-2003 12:57:01 27.7 C 11.23 g/m*3 27.7 C 0 km/h
1817 13-06-2003 13:03:01 28.5 C 11.74 g/m*3 28.5 C 0 km/h
1818 13-06-2003 13:09:01 28.3 C 10.78 g/m*3 28.3 C 0 km/h
1819 13-06-2003 13:15:01 28.3 C 10.78 g/m*3 28.3 C 0 km/h
1820 13-06-2003 13:21:01 28.3 C 9.95 g/m*3 28.3 C 0 km/h
1821 13-06-2003 13:27:01 27.9 C 11.09 g/m*3 27.9 C 0 km/h
1822 13-06-2003 13:33:01 27.8 C 10.49 g/m*3 27.8 C 0 km/h
1823 13-06-2003 13:39:01 27.8 C 10.22 g/m*3 27.8 C 0 km/h
1824 13-06-2003 13:45:01 28.6 C 10.4 g/m*3 28.6 C 0 km/h
1825 13-06-2003 13:51:01 26.7 C 10.38 g/m*3 26.7 C 0 km/h
Sensor: Nr:Datum:Temp:Abs-Feuchte:Windchill:Wind:
Aussen-T/F 1826 13-06-2003 13:57:01 26.3 C 10.4 g/m*3 26.3 C 0 km/h
1827 13-06-2003 14:03:02 26.8 C 10.18 g/m*3 26.8 C 0 km/h
1828 13-06-2003 14:09:02 27.4 C 9.74 g/m*3 27.4 C 0 km/h
1829 13-06-2003 14:15:02 27.5 C 10.05 g/m*3 27.5 C 0 km/h
1830 13-06-2003 14:21:02 27.5 C 10.05 g/m*3 27.5 C 0 km/h
1831 13-06-2003 14:27:02 27.4 C 10 g/m*3 27.4 C 0 km/h
1832 13-06-2003 14:33:01 27.9 C 10.82 g/m*3 27.9 C 0 km/h
1833 13-06-2003 14:39:01 27.9 C 10.01 g/m*3 27.9 C 0 km/h
1834 13-06-2003 14:45:01 28.5 C 10.06 g/m*3 28.5 C 0 km/h
1835 13-06-2003 14:51:01 28.9 C 10 g/m*3 28.9 C 0 km/h
1836 13-06-2003 14:57:01 28.3 C 9.68 g/m*3 28.3 C 0 km/h
1837 13-06-2003 15:03:01 28.9 C 10 g/m*3 28.9 C 0 km/h
1838 13-06-2003 15:09:01 28.4 C 9.73 g/m*3 28.4 C 0 km/h
1839 13-06-2003 15:15:01 28.8 C 9.94 g/m*3 28.8 C 0 km/h
1840 13-06-2003 15:21:01 29.3 C 9.34 g/m*3 29.3 C 0 km/h
1841 13-06-2003 15:27:01 29.7 C 9.55 g/m*3 29.7 C 0 km/h
1842 13-06-2003 15:33:01 30.3 C 9.55 g/m*3 30.3 C 0 km/h
1843 13-06-2003 15:39:01 30.4 C 9.3 g/m*3 30.4 C 0 km/h
1844 13-06-2003 15:45:01 30.6 C 9.4 g/m*3 30.6 C 0 km/h
1845 13-06-2003 15:51:01 30.9 C 9.23 g/m*3 30.9 C 0 km/h
1846 13-06-2003 15:57:01 30.4 C 8.68 g/m*3 30.4 C 0 km/h
1847 13-06-2003 16:03:01 30.6 C 8.46 g/m*3 30.6 C 0 km/h
1848 13-06-2003 16:09:01 30.3 C 8.94 g/m*3 30.3 C 0 km/h
1849 13-06-2003 16:15:01 30.1 C 8.54 g/m*3 30.1 C 0 km/h
1850 13-06-2003 16:21:01 30.1 C 8.84 g/m*3 30.1 C 0 km/h
Sensor: Nr:Datum:Temp:Abs-Feuchte:Windchill:Wind:
Aussen-T/F 1851 13-06-2003 16:27:01 30.3 C 9.25 g/m*3 30.3 C 0 km/h
1852 13-06-2003 16:33:00 31 C 8.64 g/m*3 31 C 0 km/h
1853 13-06-2003 16:39:00 31.2 C 8.09 g/m*3 31.2 C 0 km/h
1854 13-06-2003 16:45:00 30.8 C 8.23 g/m*3 30.8 C 0 km/h
1855 13-06-2003 16:51:00 30.6 C 7.83 g/m*3 30.6 C 0 km/h
1856 13-06-2003 16:57:00 30.8 C 8.23 g/m*3 30.8 C 0 km/h
1857 13-06-2003 17:03:08 30.8 C 8.23 g/m*3 30.8 C 0 km/h
1858 13-06-2003 17:09:08 30.6 C 8.14 g/m*3 30.6 C 0 km/h
1859 13-06-2003 17:15:08 30.3 C 7.7 g/m*3 30.3 C 0 km/h
1860 13-06-2003 17:21:08 30.6 C 7.83 g/m*3 30.6 C 0 km/h
1861 13-06-2003 17:27:02 31 C 8 g/m*3 31 C 0 km/h
1862 13-06-2003 17:33:00 31 C 7.68 g/m*3 31 C 0 km/h
1863 13-06-2003 17:39:00 30 C 7.58 g/m*3 30 C 0 km/h
1864 13-06-2003 17:45:00 30.3 C 8.01 g/m*3 30.3 C 0 km/h
1865 13-06-2003 17:51:00 30.4 C 8.37 g/m*3 30.4 C 0 km/h
1866 13-06-2003 17:57:00 30.9 C 7.96 g/m*3 30.9 C 0 km/h
1867 13-06-2003 18:03:01 30.7 C 7.56 g/m*3 30.7 C 0 km/h
1868 13-06-2003 18:09:01 30.4 C 7.75 g/m*3 30.4 C 0 km/h
1869 13-06-2003 18:15:01 30.4 C 7.75 g/m*3 30.4 C 0 km/h
1870 13-06-2003 18:21:01 30.4 C 8.06 g/m*3 30.4 C 0 km/h
1871 13-06-2003 18:27:01 31 C 7.36 g/m*3 31 C 0 km/h
1872 13-06-2003 18:33:01 31.3 C 7.48 g/m*3 31.3 C 0 km/h
1873 13-06-2003 18:39:01 31.4 C 7.19 g/m*3 31.4 C 0 km/h
1874 13-06-2003 18:45:01 31.3 C 7.15 g/m*3 31.3 C 0 km/h
1875 13-06-2003 18:51:01 30.7 C 7.24 g/m*3 30.7 C 0 km/h
Sensor: Nr:Datum:Temp:Abs-Feuchte:Windchill:Wind:
Aussen-T/F 1876 13-06-2003 18:57:01 30.5 C 7.17 g/m*3 30.5 C 0 km/h
1877 13-06-2003 19:03:01 30.6 C 7.2 g/m*3 30.6 C 0 km/h
1878 13-06-2003 19:09:01 30.4 C 7.44 g/m*3 30.4 C 0 km/h
1879 13-06-2003 19:15:01 30.4 C 7.75 g/m*3 30.4 C 0 km/h
1880 13-06-2003 19:21:01 30.4 C 7.75 g/m*3 30.4 C 0 km/h
1881 13-06-2003 19:27:01 30 C 7.28 g/m*3 30 C 0 km/h
1882 13-06-2003 19:33:00 30 C 7.28 g/m*3 30 C 0 km/h
1883 13-06-2003 19:39:00 30.4 C 7.75 g/m*3 30.4 C 0 km/h
1884 13-06-2003 19:45:00 30.4 C 7.13 g/m*3 30.4 C 0 km/h
1885 13-06-2003 19:51:00 30.3 C 7.4 g/m*3 30.3 C 0 km/h
1886 13-06-2003 19:57:00 30.1 C 7.32 g/m*3 30.1 C 0 km/h
1887 13-06-2003 20:03:00 29.8 C 7.2 g/m*3 29.8 C 0 km/h
1888 13-06-2003 20:09:00 29.2 C 7.55 g/m*3 29.2 C 0 km/h
1889 13-06-2003 20:15:00 29.1 C 7.22 g/m*3 29.1 C 0 km/h
1890 13-06-2003 20:21:00 28.5 C 6.99 g/m*3 28.5 C 0 km/h
1891 13-06-2003 20:27:00 28.1 C 7.11 g/m*3 28.1 C 0 km/h
1892 13-06-2003 20:33:02 28.1 C 8.75 g/m*3 28.1 C 0 km/h
1893 13-06-2003 20:39:02 28.1 C 9.57 g/m*3 28.1 C 0 km/h
1894 13-06-2003 20:45:02 27.7 C 9.9 g/m*3 27.7 C 0 km/h
1895 13-06-2003 20:51:02 27.1 C 9.83 g/m*3 27.1 C 0 km/h
1896 13-06-2003 20:57:02 26.3 C 9.41 g/m*3 26.3 C 0 km/h
1897 13-06-2003 21:03:01 25.1 C 9.49 g/m*3 25.1 C 0 km/h
1898 13-06-2003 21:09:01 24.6 C 9.45 g/m*3 24.6 C 0 km/h
1899 13-06-2003 21:15:01 24 C 8.92 g/m*3 24 C 0 km/h
1900 13-06-2003 21:21:01 23.4 C 8.83 g/m*3 23.4 C 0 km/h
Sensor: Nr:Datum:Temp:Abs-Feuchte:Windchill:Wind:
Aussen-T/F 1901 13-06-2003 21:27:01 23 C 8.84 g/m*3 23 C 0 km/h
1902 13-06-2003 21:33:01 22.8 C 8.53 g/m*3 22.8 C 0 km/h
1903 13-06-2003 21:39:01 22.4 C 8.54 g/m*3 22.4 C 0 km/h
1904 13-06-2003 21:45:01 22.1 C 8.2 g/m*3 22.1 C 0 km/h
1905 13-06-2003 21:51:01 21.8 C 8.63 g/m*3 21.8 C 0 km/h
1906 13-06-2003 21:57:01 21.6 C 8.53 g/m*3 21.6 C 0 km/h
1907 13-06-2003 22:04:01 21.3 C 8.57 g/m*3 21.3 C 0 km/h
1908 13-06-2003 22:10:01 21.1 C 9.21 g/m*3 21.1 C 0 km/h
1909 13-06-2003 22:16:01 21.2 C 8.9 g/m*3 21.2 C 0 km/h
1910 13-06-2003 22:22:01 20.9 C 8.74 g/m*3 20.9 C 0 km/h
1911 13-06-2003 22:28:01 20.8 C 9.05 g/m*3 20.8 C 0 km/h
1912 13-06-2003 22:34:01 20.6 C 9.13 g/m*3 20.6 C 0 km/h
1913 13-06-2003 22:40:01 20.3 C 8.79 g/m*3 20.3 C 0 km/h
1914 13-06-2003 22:46:01 20.4 C 9.02 g/m*3 20.4 C 0 km/h
1915 13-06-2003 22:52:01 20.2 C 8.92 g/m*3 20.2 C 0 km/h
1916 13-06-2003 22:58:01 20 C 8.99 g/m*3 20 C 0 km/h
1917 13-06-2003 23:04:01 20.1 C 9.21 g/m*3 20.1 C 0 km/h
1918 13-06-2003 23:10:01 19.7 C 9 g/m*3 19.7 C 0 km/h
1919 13-06-2003 23:16:01 19.6 C 8.95 g/m*3 19.6 C 0 km/h
1920 13-06-2003 23:22:01 19.6 C 9.12 g/m*3 19.6 C 0 km/h
1921 13-06-2003 23:28:01 19.5 C 9.23 g/m*3 19.5 C 0 km/h
1922 13-06-2003 23:34:01 19.5 C 9.06 g/m*3 19.5 C 0 km/h
1923 13-06-2003 23:40:01 19.5 C 8.73 g/m*3 19.5 C 0 km/h
1924 13-06-2003 23:46:01 19.4 C 8.84 g/m*3 19.4 C 0 km/h
1925 13-06-2003 23:52:01 19.2 C 8.74 g/m*3 19.2 C 0 km/h
Sensor: Nr:Datum:Temp:Abs-Feuchte:Windchill:Wind:
Aussen-T/F 1926 13-06-2003 23:58:01 19.1 C 8.85 g/m*3 19.1 C 0 km/h
1927 14-06-2003 00:04:01 19 C 9.29 g/m*3 19 C 0 km/h
1928 14-06-2003 00:10:01 18.7 C 8.81 g/m*3 18.7 C 0 km/h
1929 14-06-2003 00:16:01 18.7 C 8.97 g/m*3 18.7 C 0 km/h
1930 14-06-2003 00:22:01 18.6 C 8.91 g/m*3 18.6 C 0 km/h
1931 14-06-2003 00:34:01 18.5 C 9.18 g/m*3 18.5 C 0 km/h
1932 14-06-2003 00:40:01 18.3 C 9.07 g/m*3 18.3 C 0 km/h
1933 14-06-2003 00:46:01 18.1 C 9.12 g/m*3 18.1 C 0 km/h
1934 14-06-2003 00:52:01 18 C 9.22 g/m*3 18 C 0 km/h
1935 14-06-2003 00:58:01 17.7 C 9.35 g/m*3 17.7 C 0 km/h
1936 14-06-2003 01:04:01 17.7 C 9.35 g/m*3 17.7 C 0 km/h
1937 14-06-2003 01:10:01 17.6 C 9.45 g/m*3 17.6 C 0 km/h
1938 14-06-2003 01:16:01 17.4 C 9.19 g/m*3 17.4 C 0 km/h
1939 14-06-2003 01:22:01 17.3 C 9.28 g/m*3 17.3 C 0 km/h
1940 14-06-2003 01:28:01 17.2 C 9.23 g/m*3 17.2 C 0 km/h
1941 14-06-2003 01:34:01 17.1 C 9.32 g/m*3 17.1 C 0 km/h
1942 14-06-2003 01:40:01 17 C 9.26 g/m*3 17 C 0 km/h
1943 14-06-2003 01:46:01 16.9 C 9.35 g/m*3 16.9 C 0 km/h
1944 14-06-2003 01:52:01 16.9 C 9.49 g/m*3 16.9 C 0 km/h
1945 14-06-2003 01:58:01 16.8 C 9.44 g/m*3 16.8 C 0 km/h
1946 14-06-2003 02:04:01 16.8 C 9.44 g/m*3 16.8 C 0 km/h
1947 14-06-2003 02:10:01 16.6 C 9.32 g/m*3 16.6 C 0 km/h
1948 14-06-2003 02:16:01 16.6 C 9.46 g/m*3 16.6 C 0 km/h
1949 14-06-2003 02:22:01 16.4 C 9.35 g/m*3 16.4 C 0 km/h
1950 14-06-2003 02:28:01 16.2 C 9.38 g/m*3 16.2 C 0 km/h
Sensor: Nr:Datum:Temp:Abs-Feuchte:Windchill:Wind:
Aussen-T/F 1951 14-06-2003 02:34:01 16.3 C 9.43 g/m*3 16.3 C 0 km/h
1952 14-06-2003 02:40:01 16.2 C 9.38 g/m*3 16.2 C 0 km/h
1953 14-06-2003 02:46:01 16.1 C 9.46 g/m*3 16.1 C 0 km/h
1954 14-06-2003 02:52:01 15.9 C 9.34 g/m*3 15.9 C 0 km/h
1955 14-06-2003 02:58:01 15.9 C 9.62 g/m*3 15.9 C 0 km/h
1956 14-06-2003 03:04:01 15.8 C 9.69 g/m*3 15.8 C 0 km/h
1957 14-06-2003 03:10:01 15.6 C 9.44 g/m*3 15.6 C 0 km/h
1958 14-06-2003 03:16:01 15.4 C 9.46 g/m*3 15.4 C 0 km/h
1959 14-06-2003 03:22:01 15.4 C 9.46 g/m*3 15.4 C 0 km/h
1960 14-06-2003 03:28:01 15.4 C 9.46 g/m*3 15.4 C 0 km/h
1961 14-06-2003 03:34:01 15.3 C 9.66 g/m*3 15.3 C 0 km/h
1962 14-06-2003 03:40:01 15.3 C 9.53 g/m*3 15.3 C 0 km/h
1963 14-06-2003 03:46:01 15.3 C 9.53 g/m*3 15.3 C 0 km/h
1964 14-06-2003 03:52:01 15.4 C 9.59 g/m*3 15.4 C 0 km/h
1965 14-06-2003 03:58:01 15.3 C 9.53 g/m*3 15.3 C 0 km/h
1966 14-06-2003 04:04:01 15.2 C 9.48 g/m*3 15.2 C 0 km/h
1967 14-06-2003 04:10:01 15.1 C 9.29 g/m*3 15.1 C 0 km/h
1968 14-06-2003 04:16:01 15.1 C 9.42 g/m*3 15.1 C 0 km/h
1969 14-06-2003 04:22:01 15 C 9.36 g/m*3 15 C 0 km/h
1970 14-06-2003 04:28:01 15 C 9.36 g/m*3 15 C 0 km/h
1971 14-06-2003 04:34:01 15 C 9.49 g/m*3 15 C 0 km/h
1972 14-06-2003 04:40:01 14.8 C 9.5 g/m*3 14.8 C 0 km/h
1973 14-06-2003 04:46:01 14.8 C 9.5 g/m*3 14.8 C 0 km/h
1974 14-06-2003 04:52:01 14.6 C 9.39 g/m*3 14.6 C 0 km/h
1975 14-06-2003 04:58:01 14.5 C 9.58 g/m*3 14.5 C 0 km/h
Sensor: Nr:Datum:Temp:Abs-Feuchte:Windchill:Wind:
Aussen-T/F 1976 14-06-2003 05:04:01 14.4 C 9.52 g/m*3 14.4 C 0 km/h
1977 14-06-2003 05:10:01 14.5 C 9.58 g/m*3 14.5 C 0 km/h
1978 14-06-2003 05:16:01 14.5 C 9.58 g/m*3 14.5 C 0 km/h
1979 14-06-2003 05:22:01 14.4 C 9.64 g/m*3 14.4 C 0 km/h
1980 14-06-2003 05:28:01 14.4 C 9.52 g/m*3 14.4 C 0 km/h
1981 14-06-2003 05:34:01 14.3 C 9.58 g/m*3 14.3 C 0 km/h
1982 14-06-2003 05:40:01 14.3 C 9.58 g/m*3 14.3 C 0 km/h
1983 14-06-2003 05:46:01 14.4 C 9.64 g/m*3 14.4 C 0 km/h
1984 14-06-2003 05:52:01 14.4 C 9.64 g/m*3 14.4 C 0 km/h
1985 14-06-2003 05:58:01 14.5 C 9.58 g/m*3 14.5 C 0 km/h
1986 14-06-2003 06:04:01 14.5 C 9.7 g/m*3 14.5 C 0 km/h
1987 14-06-2003 06:10:01 14.5 C 9.7 g/m*3 14.5 C 0 km/h
1988 14-06-2003 06:16:01 14.5 C 9.83 g/m*3 14.5 C 0 km/h
1989 14-06-2003 06:22:01 14.4 C 9.89 g/m*3 14.4 C 0 km/h
1990 14-06-2003 06:28:01 14.5 C 9.95 g/m*3 14.5 C 0 km/h
1991 14-06-2003 06:34:01 14.5 C 9.95 g/m*3 14.5 C 0 km/h
1992 14-06-2003 06:40:01 14.5 C 9.95 g/m*3 14.5 C 0 km/h
1993 14-06-2003 06:46:01 14.5 C 9.95 g/m*3 14.5 C 0 km/h
1994 14-06-2003 06:52:01 14.5 C 9.95 g/m*3 14.5 C 0 km/h
1995 14-06-2003 06:58:01 14.5 C 9.95 g/m*3 14.5 C 0 km/h
1996 14-06-2003 07:04:01 14.6 C 10.01 g/m*3 14.6 C 0 km/h
1997 14-06-2003 07:10:01 14.6 C 10.01 g/m*3 14.6 C 0 km/h
1998 14-06-2003 07:16:01 14.5 C 9.95 g/m*3 14.5 C 0 km/h
1999 14-06-2003 07:22:01 14.7 C 10.07 g/m*3 14.7 C 0 km/h
2000 14-06-2003 07:28:01 14.7 C 10.07 g/m*3 14.7 C 0 km/h
Sensor: Nr:Datum:Temp:Abs-Feuchte:Windchill:Wind:
Aussen-T/F 2001 14-06-2003 07:34:01 14.8 C 10.01 g/m*3 14.8 C 0 km/h
2002 14-06-2003 07:40:01 14.9 C 10.07 g/m*3 14.9 C 0 km/h
2003 14-06-2003 07:46:01 15 C 10 g/m*3 15 C 0 km/h
2004 14-06-2003 07:52:01 15.2 C 10.12 g/m*3 15.2 C 0 km/h
2005 14-06-2003 07:58:01 15.4 C 10.12 g/m*3 15.4 C 0 km/h
2006 14-06-2003 08:04:01 15.7 C 10.17 g/m*3 15.7 C 0 km/h
2007 14-06-2003 08:10:01 15.9 C 10.16 g/m*3 15.9 C 0 km/h
2008 14-06-2003 08:16:01 16.2 C 10.07 g/m*3 16.2 C 0 km/h
2009 14-06-2003 08:22:01 16.5 C 10.11 g/m*3 16.5 C 0 km/h
2010 14-06-2003 08:28:01 16.8 C 10.01 g/m*3 16.8 C 0 km/h
2011 14-06-2003 08:34:01 17 C 9.98 g/m*3 17 C 0 km/h
2012 14-06-2003 08:40:01 17.1 C 9.9 g/m*3 17.1 C 0 km/h
2013 14-06-2003 08:46:01 17.4 C 10.08 g/m*3 17.4 C 0 km/h
2014 14-06-2003 08:52:01 17.7 C 10.26 g/m*3 17.7 C 0 km/h
2015 14-06-2003 08:58:01 18.2 C 10.41 g/m*3 18.2 C 0 km/h
2016 14-06-2003 09:04:01 18.5 C 10.44 g/m*3 18.5 C 0 km/h
2017 14-06-2003 09:10:01 18.7 C 10.57 g/m*3 18.7 C 0 km/h
2018 14-06-2003 09:16:01 18.9 C 10.53 g/m*3 18.9 C 0 km/h
2019 14-06-2003 09:22:01 19.2 C 10.55 g/m*3 19.2 C 0 km/h
2020 14-06-2003 09:28:01 19.5 C 10.57 g/m*3 19.5 C 0 km/h
2021 14-06-2003 09:34:01 19.8 C 10.42 g/m*3 19.8 C 0 km/h
2022 14-06-2003 09:40:01 20.2 C 10.14 g/m*3 20.2 C 0 km/h
2023 14-06-2003 09:46:01 20.5 C 10.32 g/m*3 20.5 C 0 km/h
2024 14-06-2003 09:52:01 21.1 C 10.5 g/m*3 21.1 C 0 km/h
2025 14-06-2003 09:58:01 21.6 C 10.43 g/m*3 21.6 C 0 km/h
Sensor: Nr:Datum:Temp:Abs-Feuchte:Windchill:Wind:
Aussen-T/F 2026 14-06-2003 10:04:00 21.9 C 10.03 g/m*3 21.9 C 0 km/h
2027 14-06-2003 10:10:00 22.2 C 10.01 g/m*3 22.2 C 0 km/h
2028 14-06-2003 10:16:00 22.7 C 10.3 g/m*3 22.7 C 0 km/h
2029 14-06-2003 10:22:00 23.4 C 10.3 g/m*3 23.4 C 0 km/h
2030 14-06-2003 10:28:00 23.7 C 10.05 g/m*3 23.7 C 0 km/h
2031 14-06-2003 10:34:01 23.9 C 10.38 g/m*3 23.9 C 0 km/h
2032 14-06-2003 10:40:01 24.1 C 10.5 g/m*3 24.1 C 0 km/h
2033 14-06-2003 10:46:01 24 C 10.23 g/m*3 24 C 0 km/h
2034 14-06-2003 10:52:01 23.8 C 10.11 g/m*3 23.8 C 0 km/h
2035 14-06-2003 10:58:01 23.7 C 10.48 g/m*3 23.7 C 0 km/h
2036 14-06-2003 11:04:01 24.3 C 10.4 g/m*3 24.3 C 0 km/h
2037 14-06-2003 11:10:01 25.1 C 10.65 g/m*3 25.1 C 0 km/h
2038 14-06-2003 11:16:01 25.7 C 10.77 g/m*3 25.7 C 0 km/h
2039 14-06-2003 11:22:01 26 C 10.47 g/m*3 26 C 0 km/h
2040 14-06-2003 11:28:01 26.3 C 10.15 g/m*3 26.3 C 0 km/h
2041 14-06-2003 11:34:02 26.3 C 10.15 g/m*3 26.3 C 0 km/h
2042 14-06-2003 11:40:02 26.4 C 10.46 g/m*3 26.4 C 0 km/h
2043 14-06-2003 11:46:02 26.5 C 11.01 g/m*3 26.5 C 0 km/h
2044 14-06-2003 11:52:02 26.4 C 11.45 g/m*3 26.4 C 0 km/h
2045 14-06-2003 11:58:02 26.3 C 11.39 g/m*3 26.3 C 0 km/h
2046 14-06-2003 12:04:01 26 C 10.47 g/m*3 26 C 0 km/h
2047 14-06-2003 12:10:01 25.3 C 11 g/m*3 25.3 C 0 km/h
2048 14-06-2003 12:16:01 24.7 C 12.22 g/m*3 24.7 C 0 km/h
2049 14-06-2003 12:22:01 24 C 12.62 g/m*3 24 C 0 km/h
2050 14-06-2003 12:28:01 23.5 C 12.27 g/m*3 23.5 C 0 km/h
Sensor: Nr:Datum:Temp:Abs-Feuchte:Windchill:Wind:
Aussen-T/F 2051 14-06-2003 12:34:01 23.1 C 12.82 g/m*3 23.1 C 0 km/h
2052 14-06-2003 12:40:01 22.8 C 13 g/m*3 22.8 C 0 km/h
2053 14-06-2003 12:46:01 22.5 C 12.78 g/m*3 22.5 C 0 km/h
2054 14-06-2003 12:52:01 22.2 C 12.96 g/m*3 22.2 C 0 km/h
2055 14-06-2003 12:58:01 21.9 C 13.12 g/m*3 21.9 C 0 km/h
2056 14-06-2003 13:04:03 21.8 C 13.24 g/m*3 21.8 C 0 km/h
2057 14-06-2003 13:10:03 21 C 12.09 g/m*3 21 C 0 km/h
2058 14-06-2003 13:16:01 20.7 C 11.88 g/m*3 20.7 C 0 km/h
2059 14-06-2003 13:22:01 20.2 C 11.89 g/m*3 20.2 C 0 km/h
2060 14-06-2003 13:28:01 19.5 C 12.42 g/m*3 19.5 C 0 km/h
2061 14-06-2003 13:34:02 18.9 C 12.47 g/m*3 18.9 C 0 km/h
2062 14-06-2003 13:40:02 18.3 C 12.2 g/m*3 18.3 C 0 km/h
2063 14-06-2003 13:46:02 17.8 C 12.45 g/m*3 17.8 C 0 km/h
2064 14-06-2003 13:52:02 17.4 C 12.45 g/m*3 17.4 C 0 km/h
2065 14-06-2003 13:58:02 17.2 C 12.45 g/m*3 17.2 C 0 km/h
2066 14-06-2003 14:04:02 17 C 12.59 g/m*3 17 C 0 km/h
2067 14-06-2003 14:10:02 16.6 C 12.43 g/m*3 16.6 C 0 km/h
2068 14-06-2003 14:16:02 16.8 C 12.72 g/m*3 16.8 C 0 km/h
2069 14-06-2003 14:22:02 17 C 12.88 g/m*3 17 C 0 km/h
2070 14-06-2003 14:28:02 17.3 C 13.26 g/m*3 17.3 C 0 km/h
2071 14-06-2003 14:34:02 17.6 C 13.5 g/m*3 17.6 C 0 km/h
2072 14-06-2003 14:40:02 18.6 C 14.17 g/m*3 18.6 C 0 km/h
2073 14-06-2003 14:46:02 18.8 C 14.01 g/m*3 18.8 C 0 km/h
2074 14-06-2003 14:52:02 18.8 C 13.37 g/m*3 18.8 C 0 km/h
2075 14-06-2003 14:58:02 19 C 13.36 g/m*3 19 C 0 km/h
Sensor: Nr:Datum:Temp:Abs-Feuchte:Windchill:Wind:
Aussen-T/F 2076 14-06-2003 15:04:01 19.6 C 14.01 g/m*3 19.6 C 0 km/h
2077 14-06-2003 15:10:01 20 C 14 g/m*3 20 C 0 km/h
2078 14-06-2003 15:16:01 20.4 C 14.15 g/m*3 20.4 C 0 km/h
2079 14-06-2003 15:22:01 20.7 C 14.04 g/m*3 20.7 C 0 km/h
2080 14-06-2003 15:28:01 21 C 13.56 g/m*3 21 C 0 km/h
2081 14-06-2003 15:34:00 21.2 C 13.16 g/m*3 21.2 C 0 km/h
2082 14-06-2003 15:40:00 21.3 C 13.61 g/m*3 21.3 C 0 km/h
2083 14-06-2003 15:46:00 21.6 C 13.09 g/m*3 21.6 C 0 km/h
2084 14-06-2003 15:52:00 21.8 C 13.24 g/m*3 21.8 C 0 km/h
2085 14-06-2003 15:58:00 22 C 13.39 g/m*3 22 C 0 km/h
2086 14-06-2003 16:04:01 22.2 C 13.15 g/m*3 22.2 C 0 km/h
2087 14-06-2003 16:10:01 22.4 C 13.11 g/m*3 22.4 C 0 km/h
2088 14-06-2003 16:16:01 23.3 C 12.75 g/m*3 23.3 C 0 km/h
2089 14-06-2003 16:22:01 23.3 C 12.34 g/m*3 23.3 C 0 km/h
2090 14-06-2003 16:28:01 23.4 C 12.41 g/m*3 23.4 C 0 km/h
2091 14-06-2003 16:34:02 24.7 C 12.68 g/m*3 24.7 C 0 km/h
2092 14-06-2003 16:40:02 24.6 C 12.6 g/m*3 24.6 C 0 km/h
2093 14-06-2003 16:46:02 23.9 C 12.33 g/m*3 23.9 C 0 km/h
2094 14-06-2003 16:52:02 23.3 C 11.92 g/m*3 23.3 C 0 km/h
2095 14-06-2003 16:58:02 22.8 C 11.99 g/m*3 22.8 C 0 km/h
2096 14-06-2003 17:04:02 22.8 C 12.4 g/m*3 22.8 C 0 km/h
2097 14-06-2003 17:10:02 22.9 C 12.47 g/m*3 22.9 C 0 km/h
2098 14-06-2003 17:16:02 22.9 C 12.47 g/m*3 22.9 C 0 km/h
2099 14-06-2003 17:22:02 23.3 C 12.55 g/m*3 23.3 C 0 km/h
2100 14-06-2003 17:28:02 23.8 C 12.91 g/m*3 23.8 C 0 km/h
Sensor: Nr:Datum:Temp:Abs-Feuchte:Windchill:Wind:
Aussen-T/F 2101 14-06-2003 17:34:01 24.1 C 12.03 g/m*3 24.1 C 0 km/h
2102 14-06-2003 17:40:01 24.3 C 11.95 g/m*3 24.3 C 0 km/h
2103 14-06-2003 17:46:01 24.3 C 12.39 g/m*3 24.3 C 0 km/h
2104 14-06-2003 17:52:01 23.7 C 11.98 g/m*3 23.7 C 0 km/h
2105 14-06-2003 17:58:01 23.5 C 12.27 g/m*3 23.5 C 0 km/h
2106 14-06-2003 18:04:01 24.2 C 12.76 g/m*3 24.2 C 0 km/h
2107 14-06-2003 18:10:01 24.1 C 12.25 g/m*3 24.1 C 0 km/h
2108 14-06-2003 18:16:01 23.7 C 12.62 g/m*3 23.7 C 0 km/h
2109 14-06-2003 18:22:01 23.7 C 12.62 g/m*3 23.7 C 0 km/h
2110 14-06-2003 18:28:01 23.7 C 13.26 g/m*3 23.7 C 0 km/h
2111 14-06-2003 18:34:01 23.7 C 13.69 g/m*3 23.7 C 0 km/h
2112 14-06-2003 18:40:01 23.3 C 13.59 g/m*3 23.3 C 0 km/h
2113 14-06-2003 18:46:01 23 C 13.57 g/m*3 23 C 0 km/h
2114 14-06-2003 18:52:01 22.7 C 13.74 g/m*3 22.7 C 0 km/h
2115 14-06-2003 18:58:01 22.5 C 13.58 g/m*3 22.5 C 0 km/h
2116 14-06-2003 19:04:02 22 C 13.2 g/m*3 22 C 0 km/h
2117 14-06-2003 19:10:02 21.6 C 13.47 g/m*3 21.6 C 0 km/h
2118 14-06-2003 19:16:02 21.4 C 13.5 g/m*3 21.4 C 0 km/h
2119 14-06-2003 19:22:02 21.4 C 13.5 g/m*3 21.4 C 0 km/h
2120 14-06-2003 19:28:02 21.6 C 13.66 g/m*3 21.6 C 0 km/h
2121 14-06-2003 19:34:02 21.7 C 13.73 g/m*3 21.7 C 0 km/h
2122 14-06-2003 19:40:02 21.8 C 13.81 g/m*3 21.8 C 0 km/h
2123 14-06-2003 19:46:02 21.7 C 13.73 g/m*3 21.7 C 0 km/h
2124 14-06-2003 19:52:02 21.7 C 13.93 g/m*3 21.7 C 0 km/h
2125 14-06-2003 19:58:02 21.4 C 13.87 g/m*3 21.4 C 0 km/h
Sensor: Nr:Datum:Temp:Abs-Feuchte:Windchill:Wind:
Aussen-T/F 2126 14-06-2003 20:04:00 21.3 C 13.79 g/m*3 21.3 C 0 km/h
2127 14-06-2003 20:10:00 21.3 C 13.98 g/m*3 21.3 C 0 km/h
2128 14-06-2003 20:16:00 21.1 C 13.63 g/m*3 21.1 C 0 km/h
2129 14-06-2003 20:22:00 20.9 C 13.48 g/m*3 20.9 C 0 km/h
2130 14-06-2003 20:28:00 20.8 C 13.58 g/m*3 20.8 C 0 km/h
2131 14-06-2003 20:34:00 20.6 C 13.24 g/m*3 20.6 C 0 km/h
2132 14-06-2003 20:40:00 20.4 C 13.27 g/m*3 20.4 C 0 km/h
2133 14-06-2003 20:46:00 20.4 C 13.27 g/m*3 20.4 C 0 km/h
2134 14-06-2003 20:52:00 20.3 C 13.19 g/m*3 20.3 C 0 km/h
2135 14-06-2003 20:58:00 20.2 C 13.29 g/m*3 20.2 C 0 km/h
2136 14-06-2003 21:04:02 20.2 C 13.29 g/m*3 20.2 C 0 km/h
2137 14-06-2003 21:10:02 20.1 C 13.39 g/m*3 20.1 C 0 km/h
2138 14-06-2003 21:16:02 20.1 C 13.21 g/m*3 20.1 C 0 km/h
2139 14-06-2003 21:22:02 20.1 C 13.21 g/m*3 20.1 C 0 km/h
2140 14-06-2003 21:28:02 20.1 C 13.21 g/m*3 20.1 C 0 km/h
2141 14-06-2003 21:34:00 20 C 13.31 g/m*3 20 C 0 km/h
2142 14-06-2003 21:40:00 20 C 13.31 g/m*3 20 C 0 km/h
2143 14-06-2003 21:46:00 19.9 C 13.4 g/m*3 19.9 C 0 km/h
2144 14-06-2003 21:52:00 19.9 C 13.4 g/m*3 19.9 C 0 km/h
2145 14-06-2003 21:58:00 19.8 C 13.32 g/m*3 19.8 C 0 km/h
2146 14-06-2003 22:04:01 19.8 C 13.32 g/m*3 19.8 C 0 km/h
2147 14-06-2003 22:10:01 19.8 C 13.32 g/m*3 19.8 C 0 km/h
2148 14-06-2003 22:16:01 19.5 C 13.26 g/m*3 19.5 C 0 km/h
2149 14-06-2003 22:22:01 19.4 C 13.18 g/m*3 19.4 C 0 km/h
2150 14-06-2003 22:28:01 19.3 C 13.1 g/m*3 19.3 C 0 km/h
Sensor: Nr:Datum:Temp:Abs-Feuchte:Windchill:Wind:
Aussen-T/F 2151 14-06-2003 22:35:02 19.3 C 12.94 g/m*3 19.3 C 0 km/h
2152 14-06-2003 22:41:02 19.3 C 12.94 g/m*3 19.3 C 0 km/h
2153 14-06-2003 22:47:02 19.3 C 13.1 g/m*3 19.3 C 0 km/h
2154 14-06-2003 22:53:02 19.2 C 13.19 g/m*3 19.2 C 0 km/h
2155 14-06-2003 22:59:02 19.1 C 12.95 g/m*3 19.1 C 0 km/h
2156 14-06-2003 23:05:02 19.1 C 12.79 g/m*3 19.1 C 0 km/h
2157 14-06-2003 23:11:02 18.9 C 12.8 g/m*3 18.9 C 0 km/h
2158 14-06-2003 23:17:02 18.8 C 12.72 g/m*3 18.8 C 0 km/h
2159 14-06-2003 23:23:02 18.8 C 12.72 g/m*3 18.8 C 0 km/h
2160 14-06-2003 23:29:02 18.7 C 12.81 g/m*3 18.7 C 0 km/h
2161 14-06-2003 23:35:02 18.6 C 12.73 g/m*3 18.6 C 0 km/h
2162 14-06-2003 23:41:02 18.5 C 12.66 g/m*3 18.5 C 0 km/h
2163 14-06-2003 23:47:02 18.3 C 12.51 g/m*3 18.3 C 0 km/h
2164 14-06-2003 23:53:02 18.2 C 12.43 g/m*3 18.2 C 0 km/h
2165 14-06-2003 23:59:02 18.1 C 12.36 g/m*3 18.1 C 0 km/h
2166 15-06-2003 00:05:02 18 C 12.13 g/m*3 18 C 0 km/h
2167 15-06-2003 00:11:02 18 C 11.98 g/m*3 18 C 0 km/h
2168 15-06-2003 00:17:02 18 C 11.98 g/m*3 18 C 0 km/h
2169 15-06-2003 00:23:02 17.9 C 11.91 g/m*3 17.9 C 0 km/h
2170 15-06-2003 00:29:02 17.8 C 11.99 g/m*3 17.8 C 0 km/h
2171 15-06-2003 00:35:02 17.7 C 11.92 g/m*3 17.7 C 0 km/h
2172 15-06-2003 00:41:02 17.6 C 11.85 g/m*3 17.6 C 0 km/h
2173 15-06-2003 00:47:02 17.5 C 11.93 g/m*3 17.5 C 0 km/h
2174 15-06-2003 00:53:02 17.4 C 11.86 g/m*3 17.4 C 0 km/h
2175 15-06-2003 00:59:02 17.4 C 11.86 g/m*3 17.4 C 0 km/h
Sensor: Nr:Datum:Temp:Abs-Feuchte:Windchill:Wind:
Aussen-T/F 2176 15-06-2003 01:05:02 17.2 C 11.72 g/m*3 17.2 C 0 km/h
2177 15-06-2003 01:11:02 17.2 C 11.72 g/m*3 17.2 C 0 km/h
2178 15-06-2003 01:17:02 17.3 C 11.79 g/m*3 17.3 C 0 km/h
2179 15-06-2003 01:23:02 17.3 C 11.79 g/m*3 17.3 C 0 km/h
2180 15-06-2003 01:29:02 17.4 C 11.86 g/m*3 17.4 C 0 km/h
2181 15-06-2003 01:35:02 17.4 C 11.86 g/m*3 17.4 C 0 km/h
2182 15-06-2003 01:41:02 17.5 C 11.93 g/m*3 17.5 C 0 km/h
2183 15-06-2003 01:47:02 17.5 C 11.93 g/m*3 17.5 C 0 km/h
2184 15-06-2003 01:53:02 17.3 C 11.79 g/m*3 17.3 C 0 km/h
2185 15-06-2003 01:59:02 17.2 C 11.57 g/m*3 17.2 C 0 km/h
2186 15-06-2003 02:11:02 16.9 C 11.65 g/m*3 16.9 C 0 km/h
2187 15-06-2003 02:17:02 16.8 C 11.58 g/m*3 16.8 C 0 km/h
2188 15-06-2003 02:23:02 16.8 C 11.72 g/m*3 16.8 C 0 km/h
2189 15-06-2003 02:29:02 16.6 C 11.58 g/m*3 16.6 C 0 km/h
2190 15-06-2003 02:35:02 16.6 C 11.44 g/m*3 16.6 C 0 km/h
2191 15-06-2003 02:41:02 16.6 C 11.3 g/m*3 16.6 C 0 km/h
2192 15-06-2003 02:47:02 16.6 C 11.16 g/m*3 16.6 C 0 km/h
2193 15-06-2003 02:53:02 16.7 C 11.23 g/m*3 16.7 C 0 km/h
2194 15-06-2003 02:59:02 16.6 C 11.16 g/m*3 16.6 C 0 km/h
2195 15-06-2003 03:05:02 16.4 C 11.17 g/m*3 16.4 C 0 km/h
2196 15-06-2003 03:11:02 16.2 C 10.89 g/m*3 16.2 C 0 km/h
2197 15-06-2003 03:17:02 16.1 C 10.83 g/m*3 16.1 C 0 km/h
2198 15-06-2003 03:23:02 16 C 10.9 g/m*3 16 C 0 km/h
2199 15-06-2003 03:29:02 15.8 C 10.9 g/m*3 15.8 C 0 km/h
2200 15-06-2003 03:35:02 15.7 C 10.97 g/m*3 15.7 C 0 km/h
Sensor: Nr:Datum:Temp:Abs-Feuchte:Windchill:Wind:
Aussen-T/F 2201 15-06-2003 03:41:02 15.6 C 10.91 g/m*3 15.6 C 0 km/h
2202 15-06-2003 03:47:02 15.6 C 10.91 g/m*3 15.6 C 0 km/h
2203 15-06-2003 03:53:02 15.6 C 10.91 g/m*3 15.6 C 0 km/h
2204 15-06-2003 03:59:02 15.7 C 10.97 g/m*3 15.7 C 0 km/h
2205 15-06-2003 04:05:02 15.8 C 10.9 g/m*3 15.8 C 0 km/h
2206 15-06-2003 04:11:02 15.9 C 10.97 g/m*3 15.9 C 0 km/h
2207 15-06-2003 04:17:02 16 C 10.76 g/m*3 16 C 0 km/h
2208 15-06-2003 04:23:02 16 C 10.63 g/m*3 16 C 0 km/h
2209 15-06-2003 04:29:02 16 C 10.63 g/m*3 16 C 0 km/h
2210 15-06-2003 04:35:02 16 C 10.63 g/m*3 16 C 0 km/h
2211 15-06-2003 04:41:02 15.9 C 10.7 g/m*3 15.9 C 0 km/h
2212 15-06-2003 04:47:02 15.8 C 10.77 g/m*3 15.8 C 0 km/h
2213 15-06-2003 04:53:02 15.7 C 10.84 g/m*3 15.7 C 0 km/h
2214 15-06-2003 04:59:02 15.6 C 10.77 g/m*3 15.6 C 0 km/h
2215 15-06-2003 05:05:02 15.5 C 10.71 g/m*3 15.5 C 0 km/h
2216 15-06-2003 05:11:02 15.4 C 10.64 g/m*3 15.4 C 0 km/h
2217 15-06-2003 05:17:02 15.4 C 10.77 g/m*3 15.4 C 0 km/h
2218 15-06-2003 05:23:02 15.2 C 10.64 g/m*3 15.2 C 0 km/h
2219 15-06-2003 05:29:02 15.1 C 10.58 g/m*3 15.1 C 0 km/h
2220 15-06-2003 05:35:02 15 C 10.51 g/m*3 15 C 0 km/h
2221 15-06-2003 05:41:02 15 C 10.51 g/m*3 15 C 0 km/h
2222 15-06-2003 05:47:02 15 C 10.51 g/m*3 15 C 0 km/h
2223 15-06-2003 05:53:02 14.9 C 10.71 g/m*3 14.9 C 0 km/h
2224 15-06-2003 05:59:02 14.9 C 10.58 g/m*3 14.9 C 0 km/h
2225 15-06-2003 06:05:02 14.8 C 10.51 g/m*3 14.8 C 0 km/h
Sensor: Nr:Datum:Temp:Abs-Feuchte:Windchill:Wind:
Aussen-T/F 2226 15-06-2003 06:11:02 14.9 C 10.58 g/m*3 14.9 C 0 km/h
2227 15-06-2003 06:17:02 14.9 C 10.58 g/m*3 14.9 C 0 km/h
2228 15-06-2003 06:23:02 14.9 C 10.58 g/m*3 14.9 C 0 km/h
2229 15-06-2003 06:29:02 14.9 C 10.58 g/m*3 14.9 C 0 km/h
2230 15-06-2003 06:35:02 15 C 10.64 g/m*3 15 C 0 km/h
2231 15-06-2003 06:41:02 15.1 C 10.45 g/m*3 15.1 C 0 km/h
2232 15-06-2003 06:47:02 15.1 C 10.58 g/m*3 15.1 C 0 km/h
2233 15-06-2003 06:53:02 15.1 C 10.45 g/m*3 15.1 C 0 km/h
2234 15-06-2003 06:59:02 15.2 C 10.64 g/m*3 15.2 C 0 km/h
2235 15-06-2003 07:05:02 15.2 C 10.64 g/m*3 15.2 C 0 km/h
2236 15-06-2003 07:11:02 15.3 C 10.58 g/m*3 15.3 C 0 km/h
2237 15-06-2003 07:17:02 15.4 C 10.64 g/m*3 15.4 C 0 km/h
2238 15-06-2003 07:23:02 15.6 C 10.64 g/m*3 15.6 C 0 km/h
2239 15-06-2003 07:29:02 15.6 C 10.64 g/m*3 15.6 C 0 km/h
2240 15-06-2003 07:35:02 15.6 C 10.51 g/m*3 15.6 C 0 km/h
2241 15-06-2003 07:41:02 15.6 C 10.51 g/m*3 15.6 C 0 km/h
2242 15-06-2003 07:47:02 15.8 C 10.63 g/m*3 15.8 C 0 km/h
2243 15-06-2003 07:53:02 15.9 C 10.7 g/m*3 15.9 C 0 km/h
2244 15-06-2003 07:59:02 16 C 10.63 g/m*3 16 C 0 km/h
2245 15-06-2003 08:05:02 16.2 C 10.76 g/m*3 16.2 C 0 km/h
2246 15-06-2003 08:11:02 16.3 C 10.68 g/m*3 16.3 C 0 km/h
2247 15-06-2003 08:17:02 16.4 C 10.89 g/m*3 16.4 C 0 km/h
2248 15-06-2003 08:23:02 16.5 C 10.81 g/m*3 16.5 C 0 km/h
2249 15-06-2003 08:29:02 16.6 C 10.88 g/m*3 16.6 C 0 km/h
2250 15-06-2003 08:35:02 16.7 C 10.94 g/m*3 16.7 C 0 km/h
Sensor: Nr:Datum:Temp:Abs-Feuchte:Windchill:Wind:
Aussen-T/F 2251 15-06-2003 08:41:02 16.9 C 10.93 g/m*3 16.9 C 0 km/h
2252 15-06-2003 08:47:02 17.1 C 11.06 g/m*3 17.1 C 0 km/h
2253 15-06-2003 08:53:02 17.3 C 10.9 g/m*3 17.3 C 0 km/h
2254 15-06-2003 08:59:02 17.6 C 10.8 g/m*3 17.6 C 0 km/h
2255 15-06-2003 09:05:02 17.8 C 11.08 g/m*3 17.8 C 0 km/h
2256 15-06-2003 09:11:02 17.9 C 10.99 g/m*3 17.9 C 0 km/h
2257 15-06-2003 09:17:02 18.3 C 11.1 g/m*3 18.3 C 0 km/h
2258 15-06-2003 09:23:02 18.6 C 11.14 g/m*3 18.6 C 0 km/h
2259 15-06-2003 09:29:02 18.9 C 11.34 g/m*3 18.9 C 0 km/h
2260 15-06-2003 09:35:01 19.1 C 10.98 g/m*3 19.1 C 0 km/h
2261 15-06-2003 09:41:01 19.4 C 11.18 g/m*3 19.4 C 0 km/h
2262 15-06-2003 09:47:01 19.7 C 10.87 g/m*3 19.7 C 0 km/h
2263 15-06-2003 09:53:01 19.9 C 11 g/m*3 19.9 C 0 km/h
2264 15-06-2003 09:59:01 20.3 C 10.73 g/m*3 20.3 C 0 km/h
2265 15-06-2003 10:05:02 20.5 C 10.68 g/m*3 20.5 C 0 km/h
2266 15-06-2003 10:11:02 20.8 C 10.86 g/m*3 20.8 C 0 km/h
2267 15-06-2003 10:17:02 21.1 C 10.69 g/m*3 21.1 C 0 km/h
2268 15-06-2003 10:23:02 21.6 C 10.81 g/m*3 21.6 C 0 km/h
2269 15-06-2003 10:29:02 22 C 10.87 g/m*3 22 C 0 km/h
2270 15-06-2003 10:35:02 21.8 C 10.55 g/m*3 21.8 C 0 km/h
2271 15-06-2003 10:41:02 22.3 C 10.86 g/m*3 22.3 C 0 km/h
2272 15-06-2003 10:47:02 22.7 C 11.11 g/m*3 22.7 C 0 km/h
2273 15-06-2003 10:53:02 22.5 C 10.39 g/m*3 22.5 C 0 km/h
2274 15-06-2003 10:59:02 23 C 10.69 g/m*3 23 C 0 km/h
2275 15-06-2003 11:05:01 23.1 C 10.34 g/m*3 23.1 C 0 km/h
Sensor: Nr:Datum:Temp:Abs-Feuchte:Windchill:Wind:
Aussen-T/F 2276 15-06-2003 11:11:01 23.4 C 10.3 g/m*3 23.4 C 0 km/h
2277 15-06-2003 11:17:01 23.4 C 10.09 g/m*3 23.4 C 0 km/h
2278 15-06-2003 11:23:01 24 C 10.23 g/m*3 24 C 0 km/h
2279 15-06-2003 11:29:01 23.8 C 10.11 g/m*3 23.8 C 0 km/h
2280 15-06-2003 11:35:01 24.3 C 10.18 g/m*3 24.3 C 0 km/h
2281 15-06-2003 11:41:01 24.7 C 10.19 g/m*3 24.7 C 0 km/h
2282 15-06-2003 11:47:01 24.9 C 10.07 g/m*3 24.9 C 0 km/h
2283 15-06-2003 11:53:01 25.1 C 9.49 g/m*3 25.1 C 0 km/h
2284 15-06-2003 11:59:01 25.9 C 10.41 g/m*3 25.9 C 0 km/h
2285 15-06-2003 12:05:01 26.7 C 9.62 g/m*3 26.7 C 0 km/h
2286 15-06-2003 12:11:01 26.6 C 9.31 g/m*3 26.6 C 0 km/h
2287 15-06-2003 12:17:01 26.5 C 9.76 g/m*3 26.5 C 0 km/h
2288 15-06-2003 12:23:01 27.2 C 9.63 g/m*3 27.2 C 0 km/h
2289 15-06-2003 12:29:01 27.4 C 9.74 g/m*3 27.4 C 0 km/h
2290 15-06-2003 12:35:01 27.3 C 9.94 g/m*3 27.3 C 0 km/h
2291 15-06-2003 12:41:01 27 C 9.01 g/m*3 27 C 0 km/h
2292 15-06-2003 12:47:01 27.7 C 9.09 g/m*3 27.7 C 0 km/h
2293 15-06-2003 12:53:01 28.8 C 8.81 g/m*3 28.8 C 0 km/h
2294 15-06-2003 12:59:01 27.5 C 9.79 g/m*3 27.5 C 0 km/h
2295 15-06-2003 13:05:00 28.3 C 8.85 g/m*3 28.3 C 0 km/h
2296 15-06-2003 13:11:00 27.5 C 9.26 g/m*3 27.5 C 0 km/h
2297 15-06-2003 13:17:00 26.7 C 9.11 g/m*3 26.7 C 0 km/h
2298 15-06-2003 13:23:00 26.4 C 9.46 g/m*3 26.4 C 0 km/h
2299 15-06-2003 13:29:00 26.3 C 9.9 g/m*3 26.3 C 0 km/h
2300 15-06-2003 13:35:02 26 C 9.49 g/m*3 26 C 0 km/h
Sensor: Nr:Datum:Temp:Abs-Feuchte:Windchill:Wind:
Aussen-T/F 2301 15-06-2003 13:41:02 25.8 C 10.83 g/m*3 25.8 C 0 km/h
2302 15-06-2003 13:47:02 25.7 C 11.01 g/m*3 25.7 C 0 km/h
2303 15-06-2003 13:53:02 27.2 C 9.37 g/m*3 27.2 C 0 km/h
2304 15-06-2003 13:59:02 26.9 C 9.73 g/m*3 26.9 C 0 km/h
2305 15-06-2003 14:05:01 27.2 C 9.37 g/m*3 27.2 C 0 km/h
2306 15-06-2003 14:11:01 27.3 C 10.2 g/m*3 27.3 C 0 km/h
2307 15-06-2003 14:17:01 27.2 C 9.89 g/m*3 27.2 C 0 km/h
2308 15-06-2003 14:23:01 27.3 C 10.47 g/m*3 27.3 C 0 km/h
2309 15-06-2003 14:29:01 27.1 C 10.35 g/m*3 27.1 C 0 km/h
2310 15-06-2003 14:35:01 27.1 C 11.13 g/m*3 27.1 C 0 km/h
2311 15-06-2003 14:41:01 27.6 C 10.11 g/m*3 27.6 C 0 km/h
2312 15-06-2003 14:47:01 28 C 10.33 g/m*3 28 C 0 km/h
2313 15-06-2003 14:53:01 29.3 C 9.93 g/m*3 29.3 C 0 km/h
2314 15-06-2003 14:59:01 30 C 9.7 g/m*3 30 C 0 km/h
2315 15-06-2003 15:05:02 29.9 C 9.95 g/m*3 29.9 C 0 km/h
2316 15-06-2003 15:11:02 30 C 9.7 g/m*3 30 C 0 km/h
2317 15-06-2003 15:17:02 29.9 C 9.65 g/m*3 29.9 C 0 km/h
2318 15-06-2003 15:23:02 29.6 C 9.5 g/m*3 29.6 C 0 km/h
2319 15-06-2003 15:29:02 29.3 C 9.34 g/m*3 29.3 C 0 km/h
2320 15-06-2003 15:35:02 29.4 C 9.39 g/m*3 29.4 C 0 km/h
2321 15-06-2003 15:41:02 29.8 C 9.3 g/m*3 29.8 C 0 km/h
2322 15-06-2003 15:47:02 30 C 9.4 g/m*3 30 C 0 km/h
2323 15-06-2003 15:53:02 30 C 9.4 g/m*3 30 C 0 km/h
2324 15-06-2003 15:59:02 30 C 9.4 g/m*3 30 C 0 km/h
2325 15-06-2003 16:05:02 30.2 C 9.2 g/m*3 30.2 C 0 km/h
Sensor: Nr:Datum:Temp:Abs-Feuchte:Windchill:Wind:
Aussen-T/F 2326 15-06-2003 16:11:02 30.1 C 9.45 g/m*3 30.1 C 0 km/h
2327 15-06-2003 16:17:02 30 C 9.1 g/m*3 30 C 0 km/h
2328 15-06-2003 16:23:02 30.3 C 9.55 g/m*3 30.3 C 0 km/h
2329 15-06-2003 16:29:02 30.3 C 9.55 g/m*3 30.3 C 0 km/h
2330 15-06-2003 16:35:01 30.9 C 9.23 g/m*3 30.9 C 0 km/h
2331 15-06-2003 16:41:01 30.6 C 9.4 g/m*3 30.6 C 0 km/h
2332 15-06-2003 16:47:01 30.1 C 9.15 g/m*3 30.1 C 0 km/h
2333 15-06-2003 16:53:01 29.3 C 9.34 g/m*3 29.3 C 0 km/h
2334 15-06-2003 16:59:01 29.2 C 9 g/m*3 29.2 C 0 km/h
2335 15-06-2003 17:05:00 28.4 C 8.9 g/m*3 28.4 C 0 km/h
2336 15-06-2003 17:11:00 28.8 C 9.09 g/m*3 28.8 C 0 km/h
2337 15-06-2003 17:17:00 29.5 C 9.15 g/m*3 29.5 C 0 km/h
2338 15-06-2003 17:23:00 28.9 C 9.43 g/m*3 28.9 C 0 km/h
2339 15-06-2003 17:29:00 28.9 C 8.86 g/m*3 28.9 C 0 km/h
2340 15-06-2003 17:35:01 29.4 C 9.69 g/m*3 29.4 C 0 km/h
2341 15-06-2003 17:41:01 30 C 10.31 g/m*3 30 C 0 km/h
2342 15-06-2003 17:47:01 30 C 10.31 g/m*3 30 C 0 km/h
2343 15-06-2003 17:53:01 30.1 C 10.06 g/m*3 30.1 C 0 km/h
2344 15-06-2003 17:59:01 30.4 C 9.3 g/m*3 30.4 C 0 km/h
2345 15-06-2003 18:05:01 30.4 C 8.68 g/m*3 30.4 C 0 km/h
2346 15-06-2003 18:11:01 30.5 C 9.03 g/m*3 30.5 C 0 km/h
2347 15-06-2003 18:17:01 30.6 C 10.02 g/m*3 30.6 C 0 km/h
2348 15-06-2003 18:23:01 30.6 C 9.4 g/m*3 30.6 C 0 km/h
2349 15-06-2003 18:29:01 30 C 9.1 g/m*3 30 C 0 km/h
2350 15-06-2003 18:35:01 29.9 C 8.75 g/m*3 29.9 C 0 km/h
Sensor: Nr:Datum:Temp:Abs-Feuchte:Windchill:Wind:
Aussen-T/F 2351 15-06-2003 18:41:01 30.1 C 10.06 g/m*3 30.1 C 0 km/h
2352 15-06-2003 18:47:01 30.2 C 10.12 g/m*3 30.2 C 0 km/h
2353 15-06-2003 18:53:01 30.3 C 9.25 g/m*3 30.3 C 0 km/h
2354 15-06-2003 18:59:01 30.3 C 9.25 g/m*3 30.3 C 0 km/h
2355 15-06-2003 19:05:01 30 C 8.49 g/m*3 30 C 0 km/h
2356 15-06-2003 19:11:01 29.5 C 9.74 g/m*3 29.5 C 0 km/h
2357 15-06-2003 19:17:01 29 C 9.48 g/m*3 29 C 0 km/h
2358 15-06-2003 19:23:01 28.4 C 9.73 g/m*3 28.4 C 0 km/h
2359 15-06-2003 19:29:01 28 C 11.42 g/m*3 28 C 0 km/h
2360 15-06-2003 19:35:01 27.4 C 11.31 g/m*3 27.4 C 0 km/h
2361 15-06-2003 19:41:01 26.9 C 11.52 g/m*3 26.9 C 0 km/h
2362 15-06-2003 19:47:01 26.5 C 11.51 g/m*3 26.5 C 0 km/h
2363 15-06-2003 19:53:01 26.1 C 11.75 g/m*3 26.1 C 0 km/h
2364 15-06-2003 19:59:01 25.8 C 12.04 g/m*3 25.8 C 0 km/h
2365 15-06-2003 20:05:01 25.5 C 12.07 g/m*3 25.5 C 0 km/h
2366 15-06-2003 20:11:01 25 C 11.51 g/m*3 25 C 0 km/h
2367 15-06-2003 20:17:01 24.9 C 11.45 g/m*3 24.9 C 0 km/h
2368 15-06-2003 20:23:01 24.5 C 11.64 g/m*3 24.5 C 0 km/h
2369 15-06-2003 20:29:01 24.3 C 11.29 g/m*3 24.3 C 0 km/h
2370 15-06-2003 20:50:00 23.4 C 11.14 g/m*3 23.4 C 0 km/h
2371 15-06-2003 21:12:02 23.3 C 11.29 g/m*3 23.3 C 0 km/h
2372 15-06-2003 21:34:00 22.6 C 11.05 g/m*3 22.6 C 0 km/h
2373 15-06-2003 21:56:00 22.6 C 10.25 g/m*3 22.6 C 0 km/h
2374 15-06-2003 22:32:11 22.4 C 10.33 g/m*3 22.4 C 0 km/h
2375 15-06-2003 22:54:11 22 C 10.09 g/m*3 22 C 0 km/h
Sensor: Nr:Datum:Temp:Abs-Feuchte:Windchill:Wind:
Aussen-T/F 2376 15-06-2003 23:16:11 21.4 C 9.94 g/m*3 21.4 C 0 km/h
2377 15-06-2003 23:38:11 20.7 C 9.72 g/m*3 20.7 C 0 km/h
2378 16-06-2003 00:00:11 20.4 C 10.26 g/m*3 20.4 C 0 km/h
2379 16-06-2003 00:22:11 19.8 C 10.25 g/m*3 19.8 C 0 km/h
2380 16-06-2003 00:44:11 19.4 C 10.18 g/m*3 19.4 C 0 km/h
2381 16-06-2003 01:06:11 19 C 9.78 g/m*3 19 C 0 km/h
2382 16-06-2003 01:28:11 18.5 C 9.81 g/m*3 18.5 C 0 km/h
2383 16-06-2003 01:50:11 18.4 C 10.07 g/m*3 18.4 C 0 km/h
2384 16-06-2003 02:12:11 18.6 C 10.03 g/m*3 18.6 C 0 km/h
2385 16-06-2003 02:34:11 18.4 C 9.59 g/m*3 18.4 C 0 km/h
2386 16-06-2003 03:18:11 17.4 C 9.63 g/m*3 17.4 C 0 km/h
2387 16-06-2003 03:40:11 17.3 C 9.72 g/m*3 17.3 C 0 km/h
2388 16-06-2003 04:02:11 17.2 C 9.96 g/m*3 17.2 C 0 km/h
2389 16-06-2003 04:24:11 16.8 C 9.87 g/m*3 16.8 C 0 km/h
2390 16-06-2003 04:46:11 16.3 C 9.57 g/m*3 16.3 C 0 km/h
2391 16-06-2003 05:08:11 15.8 C 9.42 g/m*3 15.8 C 0 km/h
2392 16-06-2003 05:30:11 15.6 C 9.31 g/m*3 15.6 C 0 km/h
2393 16-06-2003 05:52:11 15.5 C 9.39 g/m*3 15.5 C 0 km/h
2394 16-06-2003 06:14:11 15.3 C 9.4 g/m*3 15.3 C 0 km/h
2395 16-06-2003 06:36:11 15.2 C 9.48 g/m*3 15.2 C 0 km/h
2396 16-06-2003 06:58:11 15.3 C 9.92 g/m*3 15.3 C 0 km/h
2397 16-06-2003 07:20:11 15.6 C 10.11 g/m*3 15.6 C 0 km/h
2398 16-06-2003 07:42:11 15.6 C 9.97 g/m*3 15.6 C 0 km/h
2399 16-06-2003 08:04:11 16 C 9.81 g/m*3 16 C 0 km/h
2400 16-06-2003 08:26:11 16.5 C 9.69 g/m*3 16.5 C 0 km/h
Sensor: Nr:Datum:Temp:Abs-Feuchte:Windchill:Wind:
Aussen-T/F 2401 16-06-2003 08:48:11 17 C 9.84 g/m*3 17 C 0 km/h
2402 16-06-2003 09:10:11 17.7 C 9.96 g/m*3 17.7 C 0 km/h
2403 16-06-2003 09:32:11 18.5 C 10.28 g/m*3 18.5 C 0 km/h
2404 16-06-2003 09:54:11 19.7 C 9.68 g/m*3 19.7 C 0 km/h
2405 16-06-2003 10:16:11 20.8 C 9.42 g/m*3 20.8 C 0 km/h
2406 16-06-2003 10:38:11 21.7 C 8.77 g/m*3 21.7 C 0 km/h
2407 16-06-2003 11:00:11 22.8 C 8.74 g/m*3 22.8 C 0 km/h
2408 16-06-2003 11:22:11 23.7 C 7.91 g/m*3 23.7 C 0 km/h
2409 16-06-2003 11:44:11 23.9 C 7.36 g/m*3 23.9 C 0 km/h
2410 16-06-2003 12:06:11 24.8 C 6.83 g/m*3 24.8 C 0 km/h
2411 16-06-2003 12:28:11 25 C 6.22 g/m*3 25 C 0 km/h
2412 16-06-2003 12:50:11 26.9 C 7.17 g/m*3 26.9 C 0 km/h
2413 16-06-2003 13:12:11 26.6 C 5.79 g/m*3 26.6 C 0 km/h
2414 16-06-2003 13:34:11 27.5 C 5.82 g/m*3 27.5 C 0 km/h
2415 16-06-2003 13:56:11 28.5 C 5.87 g/m*3 28.5 C 0 km/h
2416 16-06-2003 14:18:11 27.9 C 5.68 g/m*3 27.9 C 0 km/h
2417 16-06-2003 14:40:11 28.1 C 5.74 g/m*3 28.1 C 0 km/h
2418 16-06-2003 15:02:11 27.3 C 6.02 g/m*3 27.3 C 0 km/h
2419 16-06-2003 15:24:11 29.2 C 6.1 g/m*3 29.2 C 0 km/h
2420 16-06-2003 15:24:25 29.2 C 6.1 g/m*3 29.2 C 0 km/h
2421 16-06-2003 15:46:25 29.3 C 6.42 g/m*3 29.3 C 0 km/h
2422 16-06-2003 16:08:25 29.7 C 6.27 g/m*3 29.7 C 0 km/h
2423 16-06-2003 16:30:25 29.4 C 5.87 g/m*3 29.4 C 0 km/h
2424 16-06-2003 16:52:25 29.6 C 6.23 g/m*3 29.6 C 0 km/h
2425 16-06-2003 17:14:25 30.6 C 6.26 g/m*3 30.6 C 0 km/h
Sensor: Nr:Datum:Temp:Abs-Feuchte:Windchill:Wind:
Aussen-T/F 2426 16-06-2003 17:36:25 30.4 C 6.51 g/m*3 30.4 C 0 km/h
2427 16-06-2003 17:58:25 30.1 C 6.71 g/m*3 30.1 C 0 km/h
2428 16-06-2003 18:20:25 30 C 6.67 g/m*3 30 C 0 km/h
2429 16-06-2003 18:42:25 30.4 C 6.51 g/m*3 30.4 C 0 km/h
2430 16-06-2003 19:04:25 30.1 C 7.01 g/m*3 30.1 C 0 km/h
2431 16-06-2003 19:26:25 30.5 C 6.85 g/m*3 30.5 C 0 km/h
2432 16-06-2003 19:48:25 30 C 6.37 g/m*3 30 C 0 km/h
2433 16-06-2003 20:10:25 29.2 C 7.55 g/m*3 29.2 C 0 km/h
2434 16-06-2003 20:32:25 28.5 C 7.27 g/m*3 28.5 C 0 km/h
2435 16-06-2003 20:54:25 27.8 C 9.41 g/m*3 27.8 C 0 km/h
2436 16-06-2003 21:16:25 25.9 C 9.2 g/m*3 25.9 C 0 km/h
2437 16-06-2003 21:38:25 23.1 C 8.89 g/m*3 23.1 C 0 km/h
2438 16-06-2003 22:00:25 22.7 C 9.29 g/m*3 22.7 C 0 km/h
2439 16-06-2003 22:22:25 21.5 C 8.86 g/m*3 21.5 C 0 km/h
2440 16-06-2003 22:44:25 20.9 C 9.11 g/m*3 20.9 C 0 km/h
2441 16-06-2003 23:06:25 20.7 C 9 g/m*3 20.7 C 0 km/h
2442 16-06-2003 23:28:25 20.2 C 9.62 g/m*3 20.2 C 0 km/h
2443 16-06-2003 23:50:25 19.7 C 9.34 g/m*3 19.7 C 0 km/h
2444 17-06-2003 00:12:25 19.1 C 9.34 g/m*3 19.1 C 0 km/h
2445 17-06-2003 00:34:25 18.8 C 9.5 g/m*3 18.8 C 0 km/h
2446 17-06-2003 00:56:25 18.2 C 9.48 g/m*3 18.2 C 0 km/h
2447 17-06-2003 01:18:25 17.4 C 9.63 g/m*3 17.4 C 0 km/h
2448 17-06-2003 01:40:25 17.3 C 9.58 g/m*3 17.3 C 0 km/h
2449 17-06-2003 02:02:25 16.8 C 9.72 g/m*3 16.8 C 0 km/h
2450 17-06-2003 02:24:25 16.2 C 9.65 g/m*3 16.2 C 0 km/h
Sensor: Nr:Datum:Temp:Abs-Feuchte:Windchill:Wind:
Aussen-T/F 2451 17-06-2003 02:46:25 16.3 C 9.85 g/m*3 16.3 C 0 km/h
2452 17-06-2003 03:08:25 16 C 10.08 g/m*3 16 C 0 km/h
2453 17-06-2003 03:30:25 15.5 C 9.78 g/m*3 15.5 C 0 km/h
2454 17-06-2003 03:52:25 15.2 C 9.73 g/m*3 15.2 C 0 km/h
2455 17-06-2003 04:14:25 15 C 9.75 g/m*3 15 C 0 km/h
2456 17-06-2003 04:36:25 14.6 C 9.64 g/m*3 14.6 C 0 km/h
2457 17-06-2003 04:58:25 14.5 C 9.7 g/m*3 14.5 C 0 km/h
2458 17-06-2003 05:20:25 14.3 C 9.46 g/m*3 14.3 C 0 km/h
2459 17-06-2003 05:42:25 14.2 C 9.52 g/m*3 14.2 C 0 km/h
2460 17-06-2003 06:04:25 14 C 9.41 g/m*3 14 C 0 km/h
2461 17-06-2003 06:26:25 14.1 C 9.59 g/m*3 14.1 C 0 km/h
2462 17-06-2003 06:48:25 14.2 C 9.77 g/m*3 14.2 C 0 km/h
2463 17-06-2003 07:10:25 14.4 C 9.77 g/m*3 14.4 C 0 km/h
2464 17-06-2003 07:32:25 14.8 C 9.88 g/m*3 14.8 C 0 km/h
2465 17-06-2003 07:54:25 15.3 C 9.92 g/m*3 15.3 C 0 km/h
2466 17-06-2003 08:16:25 15.6 C 9.97 g/m*3 15.6 C 0 km/h
2467 17-06-2003 08:38:25 16.4 C 10.05 g/m*3 16.4 C 0 km/h
2468 17-06-2003 09:00:25 17.2 C 10.1 g/m*3 17.2 C 0 km/h
2469 17-06-2003 09:22:25 17.9 C 10.08 g/m*3 17.9 C 0 km/h
2470 17-06-2003 09:44:25 19.7 C 10.02 g/m*3 19.7 C 0 km/h
2471 17-06-2003 10:06:25 20.8 C 9.6 g/m*3 20.8 C 0 km/h
2472 17-06-2003 10:28:25 22 C 9.32 g/m*3 22 C 0 km/h
2473 17-06-2003 10:50:25 23.6 C 9.78 g/m*3 23.6 C 0 km/h
2474 17-06-2003 11:12:25 24.6 C 9.45 g/m*3 24.6 C 0 km/h
2475 17-06-2003 11:34:25 25.4 C 9.42 g/m*3 25.4 C 0 km/h
Sensor: Nr:Datum:Temp:Abs-Feuchte:Windchill:Wind:
Aussen-T/F 2476 17-06-2003 11:56:25 26.4 C 9.21 g/m*3 26.4 C 0 km/h
2477 17-06-2003 12:18:25 28 C 9.52 g/m*3 28 C 0 km/h
2478 17-06-2003 12:40:25 28.8 C 8.81 g/m*3 28.8 C 0 km/h
2479 17-06-2003 13:02:25 30 C 8.79 g/m*3 30 C 0 km/h
2480 17-06-2003 13:24:25 29.4 C 7.93 g/m*3 29.4 C 0 km/h
2481 17-06-2003 13:46:25 30.5 C 9.35 g/m*3 30.5 C 0 km/h
2482 17-06-2003 14:08:25 31.3 C 7.48 g/m*3 31.3 C 0 km/h
2483 17-06-2003 14:30:25 30.3 C 8.32 g/m*3 30.3 C 0 km/h
2484 17-06-2003 14:52:25 30.3 C 8.32 g/m*3 30.3 C 0 km/h
2485 17-06-2003 15:14:25 30.6 C 8.14 g/m*3 30.6 C 0 km/h
2486 17-06-2003 15:36:25 31.2 C 7.76 g/m*3 31.2 C 0 km/h
2487 17-06-2003 15:58:25 31.7 C 7.31 g/m*3 31.7 C 0 km/h
2488 17-06-2003 16:20:25 31.4 C 7.85 g/m*3 31.4 C 0 km/h
2489 17-06-2003 16:42:25 32.3 C 7.55 g/m*3 32.3 C 0 km/h
2490 17-06-2003 17:04:25 32.7 C 7.71 g/m*3 32.7 C 0 km/h
2491 17-06-2003 17:26:25 32.1 C 7.47 g/m*3 32.1 C 0 km/h
2492 17-06-2003 17:48:25 32.8 C 7.4 g/m*3 32.8 C 0 km/h
2493 17-06-2003 18:10:25 32.3 C 7.2 g/m*3 32.3 C 0 km/h
2494 17-06-2003 18:32:25 32 C 9.11 g/m*3 32 C 0 km/h
2495 17-06-2003 18:54:25 31.5 C 10.52 g/m*3 31.5 C 0 km/h
2496 17-06-2003 19:16:25 30.1 C 10.98 g/m*3 30.1 C 0 km/h
2497 17-06-2003 19:38:25 28.9 C 11.14 g/m*3 28.9 C 0 km/h
2498 17-06-2003 20:00:25 27.5 C 11.11 g/m*3 27.5 C 0 km/h
2499 17-06-2003 20:22:25 27.1 C 10.87 g/m*3 27.1 C 0 km/h
2500 17-06-2003 20:44:25 26.1 C 10.28 g/m*3 26.1 C 0 km/h
Sensor: Nr:Datum:Temp:Abs-Feuchte:Windchill:Wind:
Aussen-T/F 2501 17-06-2003 21:06:25 25.4 C 10.83 g/m*3 25.4 C 0 km/h
2502 17-06-2003 21:28:25 24.5 C 10.52 g/m*3 24.5 C 0 km/h
2503 17-06-2003 21:50:25 22.9 C 11.24 g/m*3 22.9 C 0 km/h
2504 17-06-2003 22:12:25 20.4 C 13.09 g/m*3 20.4 C 0 km/h
2505 17-06-2003 22:34:25 20 C 13.31 g/m*3 20 C 0 km/h
2506 17-06-2003 22:56:25 20.3 C 13.01 g/m*3 20.3 C 0 km/h
2507 17-06-2003 23:18:25 19.9 C 12.89 g/m*3 19.9 C 0 km/h
2508 17-06-2003 23:40:25 20.1 C 12.52 g/m*3 20.1 C 0 km/h
2509 18-06-2003 00:02:25 20.2 C 12.76 g/m*3 20.2 C 0 km/h
2510 18-06-2003 00:24:25 19.7 C 12.57 g/m*3 19.7 C 0 km/h
2511 18-06-2003 00:46:25 19.5 C 12.42 g/m*3 19.5 C 0 km/h
2512 18-06-2003 01:08:25 19.3 C 12.27 g/m*3 19.3 C 0 km/h
2513 18-06-2003 01:30:25 19.3 C 12.44 g/m*3 19.3 C 0 km/h
2514 18-06-2003 01:52:25 19.1 C 12.62 g/m*3 19.1 C 0 km/h
2515 18-06-2003 02:14:25 18.7 C 12.65 g/m*3 18.7 C 0 km/h
2516 18-06-2003 02:36:25 18.7 C 12.81 g/m*3 18.7 C 0 km/h
2517 18-06-2003 02:58:25 18.8 C 12.88 g/m*3 18.8 C 0 km/h
2518 18-06-2003 03:20:25 18.5 C 12.66 g/m*3 18.5 C 0 km/h
2519 18-06-2003 03:42:25 18.4 C 12.9 g/m*3 18.4 C 0 km/h
2520 18-06-2003 04:04:25 18.5 C 12.82 g/m*3 18.5 C 0 km/h
2521 18-06-2003 04:26:25 18.8 C 12.88 g/m*3 18.8 C 0 km/h
2522 18-06-2003 04:48:25 18.2 C 13.06 g/m*3 18.2 C 0 km/h
2523 18-06-2003 05:10:25 18.5 C 12.97 g/m*3 18.5 C 0 km/h
2524 18-06-2003 05:32:25 18.6 C 12.73 g/m*3 18.6 C 0 km/h
2525 18-06-2003 05:54:25 17.7 C 13.28 g/m*3 17.7 C 0 km/h
Sensor: Nr:Datum:Temp:Abs-Feuchte:Windchill:Wind:
Aussen-T/F 2526 18-06-2003 06:16:25 17.6 C 13.35 g/m*3 17.6 C 0 km/h
2527 18-06-2003 06:38:25 17.5 C 12.67 g/m*3 17.5 C 0 km/h
2528 18-06-2003 07:00:25 17.6 C 12.6 g/m*3 17.6 C 0 km/h
2529 18-06-2003 07:22:25 17.7 C 12.52 g/m*3 17.7 C 0 km/h
2530 18-06-2003 07:44:25 17.8 C 12.14 g/m*3 17.8 C 0 km/h
2531 18-06-2003 08:06:25 17.8 C 12.14 g/m*3 17.8 C 0 km/h
2532 18-06-2003 08:28:25 17.7 C 12.07 g/m*3 17.7 C 0 km/h
2533 18-06-2003 08:50:25 17.8 C 12.14 g/m*3 17.8 C 0 km/h
2534 18-06-2003 09:12:25 18.3 C 12.04 g/m*3 18.3 C 0 km/h
2535 18-06-2003 09:34:25 18.6 C 11.94 g/m*3 18.6 C 0 km/h
2536 18-06-2003 09:56:25 18 C 11.67 g/m*3 18 C 0 km/h
2537 18-06-2003 10:18:25 18.4 C 11.8 g/m*3 18.4 C 0 km/h
2538 18-06-2003 10:40:25 19.9 C 11.85 g/m*3 19.9 C 0 km/h
2539 18-06-2003 11:02:25 20.2 C 11.37 g/m*3 20.2 C 0 km/h
2540 18-06-2003 11:24:25 19.9 C 11.68 g/m*3 19.9 C 0 km/h
2541 18-06-2003 11:46:25 19.7 C 11.55 g/m*3 19.7 C 0 km/h
2542 18-06-2003 12:08:25 19.9 C 11.85 g/m*3 19.9 C 0 km/h
2543 18-06-2003 12:30:25 19.9 C 12.2 g/m*3 19.9 C 0 km/h
2544 18-06-2003 12:52:25 21.7 C 11.06 g/m*3 21.7 C 0 km/h
2545 18-06-2003 13:14:25 22.8 C 10.77 g/m*3 22.8 C 0 km/h
2546 18-06-2003 13:36:25 22.5 C 10.79 g/m*3 22.5 C 0 km/h
2547 18-06-2003 13:58:25 23.1 C 10.75 g/m*3 23.1 C 0 km/h
2548 18-06-2003 14:20:25 22 C 10.67 g/m*3 22 C 0 km/h
2549 18-06-2003 14:42:25 21.3 C 11.56 g/m*3 21.3 C 0 km/h
2550 18-06-2003 15:04:25 21.9 C 11.77 g/m*3 21.9 C 0 km/h
Sensor: Nr:Datum:Temp:Abs-Feuchte:Windchill:Wind:
Aussen-T/F 2551 18-06-2003 15:26:25 23.1 C 11.78 g/m*3 23.1 C 0 km/h
2552 18-06-2003 15:48:25 20 C 12.44 g/m*3 20 C 0 km/h
2553 18-06-2003 16:10:25 20.9 C 14.93 g/m*3 20.9 C 0 km/h
2554 18-06-2003 16:32:25 20.4 C 14.15 g/m*3 20.4 C 0 km/h
2555 18-06-2003 16:54:25 20.1 C 13.91 g/m*3 20.1 C 0 km/h
2556 18-06-2003 17:16:25 22.5 C 13.78 g/m*3 22.5 C 0 km/h
2557 18-06-2003 17:38:25 24.3 C 12.17 g/m*3 24.3 C 0 km/h
2558 18-06-2003 18:00:25 25.8 C 11.07 g/m*3 25.8 C 0 km/h
2559 18-06-2003 18:22:25 25.7 C 10.77 g/m*3 25.7 C 0 km/h
2560 18-06-2003 18:44:25 26 C 10.47 g/m*3 26 C 0 km/h
2561 18-06-2003 19:06:25 24.3 C 11.95 g/m*3 24.3 C 0 km/h
2562 18-06-2003 19:28:25 25.5 C 9.47 g/m*3 25.5 C 0 km/h
2563 18-06-2003 19:50:25 24.3 C 10.4 g/m*3 24.3 C 0 km/h
2564 18-06-2003 20:12:25 23.5 C 10.15 g/m*3 23.5 C 0 km/h
2565 18-06-2003 20:34:25 23 C 10.48 g/m*3 23 C 0 km/h
2566 18-06-2003 20:56:25 22.7 C 10.71 g/m*3 22.7 C 0 km/h
2567 18-06-2003 21:18:25 22.2 C 10.8 g/m*3 22.2 C 0 km/h
2568 18-06-2003 21:40:25 21.9 C 11.19 g/m*3 21.9 C 0 km/h
2569 18-06-2003 22:02:25 21.5 C 10.94 g/m*3 21.5 C 0 km/h
2570 18-06-2003 22:24:25 21.2 C 10.75 g/m*3 21.2 C 0 km/h
2571 18-06-2003 22:46:25 20.8 C 11.05 g/m*3 20.8 C 0 km/h
2572 18-06-2003 23:08:25 20.5 C 10.85 g/m*3 20.5 C 0 km/h
2573 18-06-2003 23:30:25 20.2 C 10.84 g/m*3 20.2 C 0 km/h
2574 18-06-2003 23:52:25 19.8 C 10.93 g/m*3 19.8 C 0 km/h
2575 19-06-2003 00:14:25 19.6 C 11.14 g/m*3 19.6 C 0 km/h
Sensor: Nr:Datum:Temp:Abs-Feuchte:Windchill:Wind:
Aussen-T/F 2576 19-06-2003 00:36:25 19.6 C 10.8 g/m*3 19.6 C 0 km/h
2577 19-06-2003 00:58:25 19.5 C 10.91 g/m*3 19.5 C 0 km/h
2578 19-06-2003 01:20:25 19.2 C 11.05 g/m*3 19.2 C 0 km/h
2579 19-06-2003 01:42:25 19.1 C 10.98 g/m*3 19.1 C 0 km/h
2580 19-06-2003 02:04:25 19 C 11.08 g/m*3 19 C 0 km/h
2581 19-06-2003 02:26:25 18.4 C 11.48 g/m*3 18.4 C 0 km/h
2582 19-06-2003 02:48:25 18.5 C 10.92 g/m*3 18.5 C 0 km/h
2583 19-06-2003 03:10:25 18.6 C 10.82 g/m*3 18.6 C 0 km/h
2584 19-06-2003 03:32:25 18.5 C 10.44 g/m*3 18.5 C 0 km/h
2585 19-06-2003 03:54:25 18.5 C 9.81 g/m*3 18.5 C 0 km/h
2586 19-06-2003 04:16:25 18.4 C 9.59 g/m*3 18.4 C 0 km/h
2587 19-06-2003 04:38:25 17.9 C 9.92 g/m*3 17.9 C 0 km/h
2588 19-06-2003 05:00:25 17.8 C 10.32 g/m*3 17.8 C 0 km/h
2589 19-06-2003 05:22:25 17.9 C 10.23 g/m*3 17.9 C 0 km/h
2590 19-06-2003 05:44:25 18 C 10.14 g/m*3 18 C 0 km/h
2591 19-06-2003 06:06:25 18.2 C 9.79 g/m*3 18.2 C 0 km/h
2592 19-06-2003 06:28:25 18.3 C 9.69 g/m*3 18.3 C 0 km/h
2593 19-06-2003 06:50:25 18.2 C 9.95 g/m*3 18.2 C 0 km/h
2594 19-06-2003 07:12:25 18.4 C 10.07 g/m*3 18.4 C 0 km/h
2595 19-06-2003 07:34:25 18.5 C 10.13 g/m*3 18.5 C 0 km/h
2596 19-06-2003 07:56:25 18.7 C 10.25 g/m*3 18.7 C 0 km/h
2597 19-06-2003 08:18:25 18.9 C 10.37 g/m*3 18.9 C 0 km/h
2598 19-06-2003 08:40:25 19 C 10.43 g/m*3 19 C 0 km/h
2599 19-06-2003 09:02:25 19.5 C 10.74 g/m*3 19.5 C 0 km/h
2600 19-06-2003 09:24:25 19.9 C 11 g/m*3 19.9 C 0 km/h
Sensor: Nr:Datum:Temp:Abs-Feuchte:Windchill:Wind:
Aussen-T/F 2601 19-06-2003 09:46:25 19.6 C 10.97 g/m*3 19.6 C 0 km/h
2602 19-06-2003 10:08:25 19.4 C 11.35 g/m*3 19.4 C 0 km/h
2603 19-06-2003 10:30:25 20.2 C 11.89 g/m*3 20.2 C 0 km/h
2604 19-06-2003 10:52:25 20.6 C 11.28 g/m*3 20.6 C 0 km/h
2605 19-06-2003 11:14:25 21.2 C 11.49 g/m*3 21.2 C 0 km/h
2606 19-06-2003 11:36:25 20.8 C 11.23 g/m*3 20.8 C 0 km/h
2607 19-06-2003 11:58:25 20.9 C 11.66 g/m*3 20.9 C 0 km/h
2608 19-06-2003 12:20:25 20.9 C 11.66 g/m*3 20.9 C 0 km/h
2609 19-06-2003 12:42:25 21 C 11.36 g/m*3 21 C 0 km/h
2610 19-06-2003 13:04:25 21.2 C 11.49 g/m*3 21.2 C 0 km/h
2611 19-06-2003 13:26:25 22.6 C 11.25 g/m*3 22.6 C 0 km/h
2612 19-06-2003 13:48:25 21.7 C 11.64 g/m*3 21.7 C 0 km/h
2613 19-06-2003 14:10:25 22 C 11.65 g/m*3 22 C 0 km/h
2614 19-06-2003 14:32:25 22.7 C 11.72 g/m*3 22.7 C 0 km/h
2615 19-06-2003 14:54:25 22.8 C 11.58 g/m*3 22.8 C 0 km/h
2616 19-06-2003 15:16:25 23.4 C 10.51 g/m*3 23.4 C 0 km/h
2617 19-06-2003 15:38:25 24.2 C 10.12 g/m*3 24.2 C 0 km/h
2618 19-06-2003 16:00:25 24.6 C 10.35 g/m*3 24.6 C 0 km/h
2619 19-06-2003 16:22:25 24.4 C 10.68 g/m*3 24.4 C 0 km/h
2620 19-06-2003 16:44:25 24.4 C 10.46 g/m*3 24.4 C 0 km/h
2621 19-06-2003 17:06:25 24.4 C 10.68 g/m*3 24.4 C 0 km/h
2622 19-06-2003 17:28:25 23.7 C 10.48 g/m*3 23.7 C 0 km/h
2623 19-06-2003 17:50:25 23.9 C 11.47 g/m*3 23.9 C 0 km/h
2624 19-06-2003 18:12:25 23.9 C 12.11 g/m*3 23.9 C 0 km/h
2625 19-06-2003 18:34:25 23.6 C 12.12 g/m*3 23.6 C 0 km/h
Sensor: Nr:Datum:Temp:Abs-Feuchte:Windchill:Wind:
Aussen-T/F 2626 19-06-2003 18:56:25 23.3 C 12.13 g/m*3 23.3 C 0 km/h
2627 19-06-2003 19:18:25 23.1 C 12.2 g/m*3 23.1 C 0 km/h
2628 19-06-2003 19:40:25 22.7 C 12.32 g/m*3 22.7 C 0 km/h
2629 19-06-2003 20:02:25 22.5 C 12.18 g/m*3 22.5 C 0 km/h
2630 19-06-2003 20:24:25 22.3 C 12.24 g/m*3 22.3 C 0 km/h
2631 19-06-2003 20:46:25 22.1 C 11.52 g/m*3 22.1 C 0 km/h
2632 19-06-2003 21:08:25 21.9 C 11.96 g/m*3 21.9 C 0 km/h
2633 19-06-2003 21:30:25 21.8 C 11.7 g/m*3 21.8 C 0 km/h
2634 19-06-2003 21:52:25 21.8 C 11.9 g/m*3 21.8 C 0 km/h
2635 19-06-2003 22:14:25 21.1 C 11.79 g/m*3 21.1 C 0 km/h
2636 19-06-2003 22:36:25 20.6 C 12.35 g/m*3 20.6 C 0 km/h
2637 19-06-2003 22:58:25 20.5 C 12.28 g/m*3 20.5 C 0 km/h
2638 19-06-2003 23:20:25 20.1 C 12.52 g/m*3 20.1 C 0 km/h
2639 19-06-2003 23:42:25 20 C 12.44 g/m*3 20 C 0 km/h
2640 20-06-2003 00:04:25 20 C 12.44 g/m*3 20 C 0 km/h
2641 20-06-2003 00:26:25 20 C 12.44 g/m*3 20 C 0 km/h
2642 20-06-2003 01:10:25 20 C 12.44 g/m*3 20 C 0 km/h
2643 20-06-2003 01:32:25 19.9 C 12.54 g/m*3 19.9 C 0 km/h
2644 20-06-2003 01:54:25 19.9 C 12.71 g/m*3 19.9 C 0 km/h
2645 20-06-2003 02:16:25 19.9 C 12.71 g/m*3 19.9 C 0 km/h
2646 20-06-2003 02:38:25 19.7 C 12.57 g/m*3 19.7 C 0 km/h
2647 20-06-2003 03:00:25 19.1 C 12.95 g/m*3 19.1 C 0 km/h
2648 20-06-2003 03:22:25 19 C 13.04 g/m*3 19 C 0 km/h
2649 20-06-2003 03:44:25 19.1 C 12.95 g/m*3 19.1 C 0 km/h
2650 20-06-2003 04:06:25 18.4 C 13.05 g/m*3 18.4 C 0 km/h
Sensor: Nr:Datum:Temp:Abs-Feuchte:Windchill:Wind:
Aussen-T/F 2651 20-06-2003 04:28:25 18.8 C 12.24 g/m*3 18.8 C 0 km/h
2652 20-06-2003 04:50:25 18.9 C 11.99 g/m*3 18.9 C 0 km/h
2653 20-06-2003 05:12:25 18.5 C 11.71 g/m*3 18.5 C 0 km/h
2654 20-06-2003 05:34:25 18.6 C 11.14 g/m*3 18.6 C 0 km/h
2655 20-06-2003 05:56:25 18.5 C 10.92 g/m*3 18.5 C 0 km/h
2656 20-06-2003 06:18:25 18.3 C 11.26 g/m*3 18.3 C 0 km/h
2657 20-06-2003 06:40:25 18.5 C 11.08 g/m*3 18.5 C 0 km/h
2658 20-06-2003 07:02:25 18.4 C 11.01 g/m*3 18.4 C 0 km/h
2659 20-06-2003 07:24:25 18.5 C 11.39 g/m*3 18.5 C 0 km/h
2660 20-06-2003 07:46:25 17.5 C 8.8 g/m*3 17.5 C 0 km/h
2661 20-06-2003 08:08:25 17.5 C 8.65 g/m*3 17.5 C 0 km/h
2662 20-06-2003 08:30:25 17.6 C 8.55 g/m*3 17.6 C 0 km/h
2663 20-06-2003 08:52:25 17.5 C 8.5 g/m*3 17.5 C 0 km/h
2664 20-06-2003 09:14:25 17.9 C 8.55 g/m*3 17.9 C 0 km/h
2665 20-06-2003 09:36:25 18.3 C 8.29 g/m*3 18.3 C 0 km/h
2666 20-06-2003 09:58:25 18.7 C 8.33 g/m*3 18.7 C 0 km/h
2667 20-06-2003 10:20:25 19.8 C 8.88 g/m*3 19.8 C 0 km/h
2668 20-06-2003 10:42:25 19.9 C 8.59 g/m*3 19.9 C 0 km/h
2669 20-06-2003 11:04:25 20.4 C 8.49 g/m*3 20.4 C 0 km/h
2670 20-06-2003 11:26:25 21.4 C 8.44 g/m*3 21.4 C 0 km/h
2671 20-06-2003 11:48:25 22.1 C 8.2 g/m*3 22.1 C 0 km/h
2672 20-06-2003 12:10:25 22.7 C 7.27 g/m*3 22.7 C 0 km/h
2673 20-06-2003 12:32:25 22.5 C 7.59 g/m*3 22.5 C 0 km/h
2674 20-06-2003 12:54:25 23.2 C 7.28 g/m*3 23.2 C 0 km/h
2675 20-06-2003 13:16:25 23.4 C 6.73 g/m*3 23.4 C 0 km/h
Sensor: Nr:Datum:Temp:Abs-Feuchte:Windchill:Wind:
Aussen-T/F 2676 20-06-2003 13:38:25 23.1 C 6.41 g/m*3 23.1 C 0 km/h
2677 20-06-2003 14:00:25 24 C 6.53 g/m*3 24 C 0 km/h
2678 20-06-2003 14:22:25 25.1 C 6.48 g/m*3 25.1 C 0 km/h
2679 20-06-2003 14:44:25 23.9 C 6.71 g/m*3 23.9 C 0 km/h
2680 20-06-2003 15:06:25 25.7 C 7.18 g/m*3 25.7 C 0 km/h
2681 20-06-2003 15:28:25 25.2 C 5.82 g/m*3 25.2 C 0 km/h
2682 20-06-2003 15:50:25 24.2 C 6.16 g/m*3 24.2 C 0 km/h
2683 20-06-2003 16:12:25 25.4 C 6.59 g/m*3 25.4 C 0 km/h
2684 20-06-2003 16:34:25 25.5 C 6.39 g/m*3 25.5 C 0 km/h
2685 20-06-2003 16:56:25 25.5 C 6.87 g/m*3 25.5 C 0 km/h
2686 20-06-2003 17:18:25 25 C 6.45 g/m*3 25 C 0 km/h
2687 20-06-2003 17:40:25 25.2 C 6.52 g/m*3 25.2 C 0 km/h
2688 20-06-2003 18:02:25 25.4 C 6.36 g/m*3 25.4 C 0 km/h
2689 20-06-2003 18:24:25 24.8 C 6.15 g/m*3 24.8 C 0 km/h
2690 20-06-2003 18:46:25 25.1 C 6.02 g/m*3 25.1 C 0 km/h
2691 20-06-2003 19:08:25 24.3 C 5.97 g/m*3 24.3 C 0 km/h
2692 20-06-2003 19:30:25 23.8 C 6.24 g/m*3 23.8 C 0 km/h
2693 20-06-2003 19:52:25 22.6 C 6.43 g/m*3 22.6 C 0 km/h
2694 20-06-2003 20:14:25 22.5 C 6.39 g/m*3 22.5 C 0 km/h
2695 20-06-2003 20:36:25 21.5 C 6.6 g/m*3 21.5 C 0 km/h
2696 20-06-2003 20:58:25 20.8 C 6.7 g/m*3 20.8 C 0 km/h
2697 20-06-2003 21:20:25 19.5 C 6.71 g/m*3 19.5 C 0 km/h
2698 20-06-2003 21:42:25 18.5 C 6.65 g/m*3 18.5 C 0 km/h
2699 20-06-2003 22:04:25 18 C 6.76 g/m*3 18 C 0 km/h
2700 20-06-2003 22:26:25 17.3 C 6.48 g/m*3 17.3 C 0 km/h
Sensor: Nr:Datum:Temp:Abs-Feuchte:Windchill:Wind:
Aussen-T/F 2701 20-06-2003 22:48:25 16.8 C 6.58 g/m*3 16.8 C 0 km/h
2702 20-06-2003 23:10:25 16.6 C 6.64 g/m*3 16.6 C 0 km/h
2703 20-06-2003 23:32:25 16.4 C 6.7 g/m*3 16.4 C 0 km/h
2704 20-06-2003 23:54:25 15.8 C 6.6 g/m*3 15.8 C 0 km/h
2705 21-06-2003 00:16:25 15.5 C 6.61 g/m*3 15.5 C 0 km/h
2706 21-06-2003 00:38:25 15.1 C 6.71 g/m*3 15.1 C 0 km/h
2707 21-06-2003 01:00:25 14.7 C 6.8 g/m*3 14.7 C 0 km/h
2708 21-06-2003 01:22:25 14.5 C 6.84 g/m*3 14.5 C 0 km/h
2709 21-06-2003 01:44:25 14.1 C 7.04 g/m*3 14.1 C 0 km/h
2710 21-06-2003 02:06:25 13.7 C 7.34 g/m*3 13.7 C 0 km/h
2711 21-06-2003 02:28:25 13.3 C 7.51 g/m*3 13.3 C 0 km/h
2712 21-06-2003 02:50:25 12.7 C 7.46 g/m*3 12.7 C 0 km/h
2713 21-06-2003 03:12:25 12.2 C 7.45 g/m*3 12.2 C 0 km/h
2714 21-06-2003 03:34:25 11.8 C 7.47 g/m*3 11.8 C 0 km/h
2715 21-06-2003 03:56:25 11.5 C 7.44 g/m*3 11.5 C 0 km/h
2716 21-06-2003 04:18:25 11.1 C 7.55 g/m*3 11.1 C 0 km/h
2717 21-06-2003 04:40:25 10.7 C 7.56 g/m*3 10.7 C 0 km/h
2718 21-06-2003 05:02:25 10.3 C 7.47 g/m*3 10.3 C 0 km/h
2719 21-06-2003 05:24:25 10 C 7.42 g/m*3 10 C 0 km/h
2720 21-06-2003 05:46:25 9.8 C 7.52 g/m*3 9.8 C 0 km/h
2721 21-06-2003 06:08:25 9.8 C 7.61 g/m*3 9.8 C 0 km/h
2722 21-06-2003 06:30:25 9.8 C 7.61 g/m*3 9.8 C 0 km/h
2723 21-06-2003 06:52:25 9.9 C 7.66 g/m*3 9.9 C 0 km/h
2724 21-06-2003 07:14:25 10.1 C 7.56 g/m*3 10.1 C 0 km/h
2725 21-06-2003 07:36:25 10.5 C 7.76 g/m*3 10.5 C 0 km/h
Sensor: Nr:Datum:Temp:Abs-Feuchte:Windchill:Wind:
Aussen-T/F 2726 21-06-2003 07:58:25 11.1 C 7.76 g/m*3 11.1 C 0 km/h
2727 21-06-2003 08:20:25 11.7 C 7.74 g/m*3 11.7 C 0 km/h
2728 21-06-2003 08:42:25 12.4 C 7.54 g/m*3 12.4 C 0 km/h
2729 21-06-2003 09:04:25 13 C 7.6 g/m*3 13 C 0 km/h
2730 21-06-2003 09:26:25 14 C 7.6 g/m*3 14 C 0 km/h
2731 21-06-2003 09:48:25 15.1 C 7.74 g/m*3 15.1 C 0 km/h
2732 21-06-2003 10:10:25 16.5 C 7.44 g/m*3 16.5 C 0 km/h
2733 21-06-2003 10:32:25 17.2 C 6.59 g/m*3 17.2 C 0 km/h
2734 21-06-2003 10:54:25 17.9 C 6.26 g/m*3 17.9 C 0 km/h
2735 21-06-2003 11:16:25 18.5 C 6.01 g/m*3 18.5 C 0 km/h
2736 21-06-2003 11:38:25 19.8 C 6.32 g/m*3 19.8 C 0 km/h
2737 21-06-2003 12:00:25 20.3 C 6.16 g/m*3 20.3 C 0 km/h
2738 21-06-2003 12:22:25 21.8 C 5.95 g/m*3 21.8 C 0 km/h
2739 21-06-2003 12:44:25 23.3 C 6.27 g/m*3 23.3 C 0 km/h
2740 21-06-2003 13:06:25 24.1 C 5.69 g/m*3 24.1 C 0 km/h
2741 21-06-2003 13:28:25 23.4 C 5.68 g/m*3 23.4 C 0 km/h
2742 21-06-2003 13:50:25 25.6 C 5.95 g/m*3 25.6 C 0 km/h
2743 21-06-2003 14:12:25 25.1 C 5.79 g/m*3 25.1 C 0 km/h
2744 21-06-2003 14:34:25 25 C 6.45 g/m*3 25 C 0 km/h
2745 21-06-2003 14:56:25 25.3 C 5.85 g/m*3 25.3 C 0 km/h
2746 21-06-2003 15:18:25 26.1 C 6.12 g/m*3 26.1 C 0 km/h
2747 21-06-2003 15:40:25 26.7 C 5.57 g/m*3 26.7 C 0 km/h
2748 21-06-2003 16:02:25 24.6 C 5.63 g/m*3 24.6 C 0 km/h
2749 21-06-2003 16:24:25 24.7 C 5.88 g/m*3 24.7 C 0 km/h
2750 21-06-2003 16:46:25 26.7 C 6.07 g/m*3 26.7 C 0 km/h
Sensor: Nr:Datum:Temp:Abs-Feuchte:Windchill:Wind:
Aussen-T/F 2751 21-06-2003 17:08:25 27.5 C 5.82 g/m*3 27.5 C 0 km/h
2752 21-06-2003 17:30:25 26.4 C 5.73 g/m*3 26.4 C 0 km/h
2753 21-06-2003 17:52:25 26.9 C 5.89 g/m*3 26.9 C 0 km/h
2754 21-06-2003 18:14:25 28.1 C 5.74 g/m*3 28.1 C 0 km/h
2755 21-06-2003 18:36:25 26.8 C 5.85 g/m*3 26.8 C 0 km/h
2756 21-06-2003 18:58:25 25.1 C 6.02 g/m*3 25.1 C 0 km/h
2757 21-06-2003 19:20:25 26.9 C 6.65 g/m*3 26.9 C 0 km/h
2758 21-06-2003 19:42:25 27.3 C 6.28 g/m*3 27.3 C 0 km/h
2759 21-06-2003 20:04:25 26.4 C 6.47 g/m*3 26.4 C 0 km/h
2760 21-06-2003 20:26:25 25.7 C 6.7 g/m*3 25.7 C 0 km/h
2761 21-06-2003 20:48:25 24.5 C 6.94 g/m*3 24.5 C 0 km/h
2762 21-06-2003 21:10:25 23.4 C 7.15 g/m*3 23.4 C 0 km/h
2763 21-06-2003 21:32:25 21.9 C 8.1 g/m*3 21.9 C 0 km/h
2764 21-06-2003 21:54:25 20.1 C 7.47 g/m*3 20.1 C 0 km/h
2765 21-06-2003 22:16:25 18.9 C 7.61 g/m*3 18.9 C 0 km/h
2766 21-06-2003 22:38:25 18.1 C 7.57 g/m*3 18.1 C 0 km/h
2767 21-06-2003 23:00:25 17.8 C 7.59 g/m*3 17.8 C 0 km/h
2768 21-06-2003 23:22:25 17.5 C 7.6 g/m*3 17.5 C 0 km/h
2769 21-06-2003 23:44:25 17.2 C 7.76 g/m*3 17.2 C 0 km/h
2770 22-06-2003 00:06:25 16.8 C 7.72 g/m*3 16.8 C 0 km/h
2771 22-06-2003 00:28:25 16.6 C 8.19 g/m*3 16.6 C 0 km/h
2772 22-06-2003 00:50:25 16.4 C 7.82 g/m*3 16.4 C 0 km/h
2773 22-06-2003 01:12:25 16.2 C 7.86 g/m*3 16.2 C 0 km/h
2774 22-06-2003 01:34:25 15.9 C 7.99 g/m*3 15.9 C 0 km/h
2775 22-06-2003 01:56:25 15.8 C 8.08 g/m*3 15.8 C 0 km/h
Sensor: Nr:Datum:Temp:Abs-Feuchte:Windchill:Wind:
Aussen-T/F 2776 22-06-2003 02:18:25 15.1 C 8.13 g/m*3 15.1 C 0 km/h
2777 22-06-2003 02:40:25 14.8 C 8.11 g/m*3 14.8 C 0 km/h
2778 22-06-2003 03:02:25 14.3 C 8.11 g/m*3 14.3 C 0 km/h
2779 22-06-2003 03:24:25 14.1 C 8.13 g/m*3 14.1 C 0 km/h
2780 22-06-2003 03:46:25 13.7 C 8.17 g/m*3 13.7 C 0 km/h
2781 22-06-2003 04:08:25 13.4 C 8.02 g/m*3 13.4 C 0 km/h
2782 22-06-2003 04:30:25 13.1 C 7.99 g/m*3 13.1 C 0 km/h
2783 22-06-2003 04:52:25 12.9 C 8.11 g/m*3 12.9 C 0 km/h
2784 22-06-2003 05:14:25 12.5 C 8.03 g/m*3 12.5 C 0 km/h
2785 22-06-2003 05:36:25 12.4 C 7.98 g/m*3 12.4 C 0 km/h
2786 22-06-2003 05:58:25 12.4 C 8.3 g/m*3 12.4 C 0 km/h
2787 22-06-2003 06:20:25 12.4 C 8.41 g/m*3 12.4 C 0 km/h
2788 22-06-2003 06:42:25 12.8 C 8.51 g/m*3 12.8 C 0 km/h
2789 22-06-2003 07:04:25 13.1 C 8.44 g/m*3 13.1 C 0 km/h
2790 22-06-2003 07:26:25 13 C 8.62 g/m*3 13 C 0 km/h
2791 22-06-2003 07:48:25 13.9 C 8.75 g/m*3 13.9 C 0 km/h
2792 22-06-2003 08:10:25 14.3 C 8.85 g/m*3 14.3 C 0 km/h
2793 22-06-2003 08:32:25 14.7 C 9.07 g/m*3 14.7 C 0 km/h
2794 22-06-2003 08:54:25 15.5 C 9.25 g/m*3 15.5 C 0 km/h
2795 22-06-2003 09:16:25 17 C 9.55 g/m*3 17 C 0 km/h
2796 22-06-2003 09:38:25 18.6 C 9.55 g/m*3 18.6 C 0 km/h
2797 22-06-2003 10:00:25 19.9 C 9.79 g/m*3 19.9 C 0 km/h
2798 22-06-2003 10:22:25 20.9 C 8.56 g/m*3 20.9 C 0 km/h
2799 22-06-2003 10:44:25 22.3 C 8.89 g/m*3 22.3 C 0 km/h
2800 22-06-2003 11:06:25 23.2 C 7.9 g/m*3 23.2 C 0 km/h
Sensor: Nr:Datum:Temp:Abs-Feuchte:Windchill:Wind:
Aussen-T/F 2801 22-06-2003 11:28:25 24 C 8.05 g/m*3 24 C 0 km/h
2802 22-06-2003 11:50:25 25.2 C 7.92 g/m*3 25.2 C 0 km/h
2803 22-06-2003 12:12:25 26.8 C 7.89 g/m*3 26.8 C 0 km/h
2804 22-06-2003 12:34:25 27.2 C 7.29 g/m*3 27.2 C 0 km/h
2805 22-06-2003 12:56:25 28.7 C 7.63 g/m*3 28.7 C 0 km/h
2806 22-06-2003 13:18:25 30 C 7.58 g/m*3 30 C 0 km/h
2807 22-06-2003 13:40:25 30.1 C 7.62 g/m*3 30.1 C 0 km/h
2808 22-06-2003 14:02:25 30.2 C 8.28 g/m*3 30.2 C 0 km/h
2809 22-06-2003 14:24:25 30.2 C 8.28 g/m*3 30.2 C 0 km/h
2810 22-06-2003 14:46:25 30.1 C 8.84 g/m*3 30.1 C 0 km/h
2811 22-06-2003 15:08:25 30.4 C 9.3 g/m*3 30.4 C 0 km/h
2812 22-06-2003 15:30:25 31.4 C 8.17 g/m*3 31.4 C 0 km/h
2813 22-06-2003 15:52:25 31.7 C 6.98 g/m*3 31.7 C 0 km/h
2814 22-06-2003 16:14:25 31.8 C 7.68 g/m*3 31.8 C 0 km/h
2815 22-06-2003 16:36:25 32.4 C 7.93 g/m*3 32.4 C 0 km/h
2816 22-06-2003 16:58:25 32.4 C 7.59 g/m*3 32.4 C 0 km/h
2817 22-06-2003 17:20:25 32.1 C 7.81 g/m*3 32.1 C 0 km/h
2818 22-06-2003 17:42:25 31.8 C 10.02 g/m*3 31.8 C 0 km/h
2819 22-06-2003 18:04:25 32.6 C 8.71 g/m*3 32.6 C 0 km/h
2820 22-06-2003 18:26:25 33.3 C 7.96 g/m*3 33.3 C 0 km/h
2821 22-06-2003 18:48:25 32.9 C 7.44 g/m*3 32.9 C 0 km/h
2822 22-06-2003 19:10:25 32.7 C 9.81 g/m*3 32.7 C 0 km/h
2823 22-06-2003 19:32:25 30.7 C 10.71 g/m*3 30.7 C 0 km/h
2824 22-06-2003 19:54:25 29.8 C 11.1 g/m*3 29.8 C 0 km/h
2825 22-06-2003 20:16:25 28.5 C 10.06 g/m*3 28.5 C 0 km/h
Sensor: Nr:Datum:Temp:Abs-Feuchte:Windchill:Wind:
Aussen-T/F 2826 22-06-2003 20:38:25 29.2 C 9.87 g/m*3 29.2 C 0 km/h
2827 22-06-2003 21:00:25 28.5 C 10.9 g/m*3 28.5 C 0 km/h
2828 22-06-2003 21:22:25 26.7 C 10.88 g/m*3 26.7 C 0 km/h
2829 22-06-2003 21:44:25 25.9 C 10.41 g/m*3 25.9 C 0 km/h
2830 22-06-2003 22:06:25 24.7 C 10.41 g/m*3 24.7 C 0 km/h
2831 22-06-2003 22:28:25 23.9 C 10.38 g/m*3 23.9 C 0 km/h
2832 22-06-2003 22:50:25 23.5 C 10.36 g/m*3 23.5 C 0 km/h
2833 22-06-2003 23:12:25 22.9 C 10.22 g/m*3 22.9 C 0 km/h
2834 22-06-2003 23:34:25 22.5 C 10.19 g/m*3 22.5 C 0 km/h
2835 22-06-2003 23:56:25 22.3 C 9.87 g/m*3 22.3 C 0 km/h
2836 23-06-2003 00:18:25 21.7 C 10.11 g/m*3 21.7 C 0 km/h
2837 23-06-2003 00:40:25 21.3 C 10.25 g/m*3 21.3 C 0 km/h
2838 23-06-2003 01:02:25 20.8 C 10.5 g/m*3 20.8 C 0 km/h
2839 23-06-2003 01:24:25 20.4 C 10.61 g/m*3 20.4 C 0 km/h
2840 23-06-2003 01:46:25 20 C 10.71 g/m*3 20 C 0 km/h
2841 23-06-2003 02:08:25 19.5 C 10.91 g/m*3 19.5 C 0 km/h
2842 23-06-2003 02:30:25 19 C 10.59 g/m*3 19 C 0 km/h
2843 23-06-2003 02:52:25 18.5 C 10.92 g/m*3 18.5 C 0 km/h
2844 23-06-2003 03:14:25 18.1 C 10.97 g/m*3 18.1 C 0 km/h
2845 23-06-2003 03:36:25 17.9 C 10.99 g/m*3 17.9 C 0 km/h
2846 23-06-2003 03:58:25 17.5 C 11.03 g/m*3 17.5 C 0 km/h
2847 23-06-2003 04:20:25 17.1 C 10.92 g/m*3 17.1 C 0 km/h
2848 23-06-2003 04:42:25 16.9 C 10.93 g/m*3 16.9 C 0 km/h
2849 23-06-2003 05:04:25 16.7 C 10.8 g/m*3 16.7 C 0 km/h
2850 23-06-2003 05:26:25 16.7 C 11.08 g/m*3 16.7 C 0 km/h
Sensor: Nr:Datum:Temp:Abs-Feuchte:Windchill:Wind:
Aussen-T/F 2851 23-06-2003 05:48:25 16.5 C 10.95 g/m*3 16.5 C 0 km/h
2852 23-06-2003 06:10:25 16.6 C 11.02 g/m*3 16.6 C 0 km/h
2853 23-06-2003 06:32:25 16.9 C 11.22 g/m*3 16.9 C 0 km/h
2854 23-06-2003 06:54:25 18.3 C 10.79 g/m*3 18.3 C 0 km/h
2855 23-06-2003 07:16:25 20.4 C 10.26 g/m*3 20.4 C 0 km/h
2856 23-06-2003 07:38:25 20.2 C 11.02 g/m*3 20.2 C 0 km/h
2857 23-06-2003 08:00:25 19.5 C 11.58 g/m*3 19.5 C 0 km/h
2858 23-06-2003 08:22:25 19.9 C 11.85 g/m*3 19.9 C 0 km/h
2859 23-06-2003 08:44:25 21.2 C 10.56 g/m*3 21.2 C 0 km/h
2860 23-06-2003 09:06:25 22.2 C 10.41 g/m*3 22.2 C 0 km/h
2861 23-06-2003 09:28:25 23 C 10.69 g/m*3 23 C 0 km/h
2862 23-06-2003 09:50:25 24.7 C 10.64 g/m*3 24.7 C 0 km/h
2863 23-06-2003 10:12:25 24.8 C 10.7 g/m*3 24.8 C 0 km/h
2864 23-06-2003 10:34:25 24.9 C 11.45 g/m*3 24.9 C 0 km/h
2865 23-06-2003 10:56:25 25.5 C 11.13 g/m*3 25.5 C 0 km/h
2866 23-06-2003 11:18:25 27.1 C 11.65 g/m*3 27.1 C 0 km/h
2867 23-06-2003 11:40:25 28.6 C 11.8 g/m*3 28.6 C 0 km/h
2868 23-06-2003 12:02:25 28.1 C 12.85 g/m*3 28.1 C 0 km/h
2869 23-06-2003 12:24:25 28.9 C 12 g/m*3 28.9 C 0 km/h
2870 23-06-2003 12:46:25 28.7 C 12.15 g/m*3 28.7 C 0 km/h
2871 23-06-2003 13:08:25 30.2 C 11.96 g/m*3 30.2 C 0 km/h
2872 23-06-2003 13:30:25 29.2 C 11.91 g/m*3 29.2 C 0 km/h
2873 23-06-2003 13:52:25 30.7 C 11.34 g/m*3 30.7 C 0 km/h
2874 23-06-2003 14:14:25 30.7 C 11.34 g/m*3 30.7 C 0 km/h
2875 23-06-2003 14:36:25 31 C 11.2 g/m*3 31 C 0 km/h
Sensor: Nr:Datum:Temp:Abs-Feuchte:Windchill:Wind:
Aussen-T/F 2876 23-06-2003 14:58:25 30.6 C 10.96 g/m*3 30.6 C 0 km/h
2877 23-06-2003 15:20:25 30.3 C 9.86 g/m*3 30.3 C 0 km/h
2878 23-06-2003 15:42:25 29.5 C 10.03 g/m*3 29.5 C 0 km/h
2879 23-06-2003 16:04:25 28.6 C 10.4 g/m*3 28.6 C 0 km/h
2880 23-06-2003 16:26:25 28.2 C 11 g/m*3 28.2 C 0 km/h
2881 23-06-2003 16:48:25 28.2 C 11.27 g/m*3 28.2 C 0 km/h
2882 23-06-2003 17:10:25 28.6 C 11.24 g/m*3 28.6 C 0 km/h
2883 23-06-2003 17:32:25 28.2 C 11.27 g/m*3 28.2 C 0 km/h
2884 23-06-2003 17:54:25 28 C 11.69 g/m*3 28 C 0 km/h
2885 23-06-2003 18:16:25 28.3 C 11.89 g/m*3 28.3 C 0 km/h
2886 23-06-2003 18:38:25 28.2 C 12.1 g/m*3 28.2 C 0 km/h
2887 23-06-2003 19:00:25 28.1 C 12.3 g/m*3 28.1 C 0 km/h
2888 23-06-2003 19:22:25 27.1 C 11.39 g/m*3 27.1 C 0 km/h
2889 23-06-2003 19:44:25 27.9 C 11.36 g/m*3 27.9 C 0 km/h
2890 23-06-2003 20:06:25 27 C 10.29 g/m*3 27 C 0 km/h
2891 23-06-2003 20:28:25 26.8 C 10.18 g/m*3 26.8 C 0 km/h
2892 23-06-2003 20:50:25 26.1 C 8.81 g/m*3 26.1 C 0 km/h
2893 23-06-2003 21:12:25 25.2 C 8.85 g/m*3 25.2 C 0 km/h
2894 23-06-2003 21:34:25 24.4 C 8.9 g/m*3 24.4 C 0 km/h
2895 23-06-2003 21:56:25 23.3 C 9.2 g/m*3 23.3 C 0 km/h
2896 23-06-2003 22:18:25 22.6 C 9.04 g/m*3 22.6 C 0 km/h
2897 23-06-2003 23:02:25 21.6 C 8.91 g/m*3 21.6 C 0 km/h
2898 23-06-2003 23:24:25 21.1 C 8.84 g/m*3 21.1 C 0 km/h
2899 23-06-2003 23:46:25 20.8 C 9.23 g/m*3 20.8 C 0 km/h
2900 24-06-2003 00:08:25 20.3 C 9.15 g/m*3 20.3 C 0 km/h
Sensor: Nr:Datum:Temp:Abs-Feuchte:Windchill:Wind:
Aussen-T/F 2901 24-06-2003 00:30:25 19.6 C 9.12 g/m*3 19.6 C 0 km/h
2902 24-06-2003 00:52:25 19.4 C 9.34 g/m*3 19.4 C 0 km/h
2903 24-06-2003 01:14:25 19 C 9.45 g/m*3 19 C 0 km/h
2904 24-06-2003 01:36:25 18.5 C 9.49 g/m*3 18.5 C 0 km/h
2905 24-06-2003 01:58:25 18.1 C 9.73 g/m*3 18.1 C 0 km/h
2906 24-06-2003 02:20:25 17.6 C 9.75 g/m*3 17.6 C 0 km/h
2907 24-06-2003 02:42:25 17.2 C 9.81 g/m*3 17.2 C 0 km/h
2908 24-06-2003 03:04:25 16.8 C 9.87 g/m*3 16.8 C 0 km/h
2909 24-06-2003 03:26:25 16.2 C 10.07 g/m*3 16.2 C 0 km/h
2910 24-06-2003 03:48:25 15.7 C 10.03 g/m*3 15.7 C 0 km/h
2911 24-06-2003 04:10:25 15.4 C 9.85 g/m*3 15.4 C 0 km/h
2912 24-06-2003 04:32:25 15 C 9.87 g/m*3 15 C 0 km/h
2913 24-06-2003 04:54:25 14.5 C 9.95 g/m*3 14.5 C 0 km/h
2914 24-06-2003 05:16:25 14.2 C 10.01 g/m*3 14.2 C 0 km/h
2915 24-06-2003 05:38:25 14 C 9.89 g/m*3 14 C 0 km/h
2916 24-06-2003 06:00:25 14 C 9.89 g/m*3 14 C 0 km/h
2917 24-06-2003 06:22:25 14.1 C 9.83 g/m*3 14.1 C 0 km/h
2918 24-06-2003 06:44:25 14.3 C 9.95 g/m*3 14.3 C 0 km/h
2919 24-06-2003 07:06:25 14.6 C 10.01 g/m*3 14.6 C 0 km/h
2920 24-06-2003 07:28:25 15 C 10 g/m*3 15 C 0 km/h
2921 24-06-2003 07:50:25 15.4 C 10.25 g/m*3 15.4 C 0 km/h
2922 24-06-2003 08:12:25 15.8 C 10.36 g/m*3 15.8 C 0 km/h
2923 24-06-2003 08:34:25 16.4 C 10.19 g/m*3 16.4 C 0 km/h
2924 24-06-2003 08:56:25 17.2 C 10.4 g/m*3 17.2 C 0 km/h
2925 24-06-2003 09:18:25 17.9 C 10.38 g/m*3 17.9 C 0 km/h
Sensor: Nr:Datum:Temp:Abs-Feuchte:Windchill:Wind:
Aussen-T/F 2926 24-06-2003 09:40:25 19.1 C 10.33 g/m*3 19.1 C 0 km/h
2927 24-06-2003 10:02:25 20.8 C 10.5 g/m*3 20.8 C 0 km/h
2928 24-06-2003 10:24:25 21.4 C 9.56 g/m*3 21.4 C 0 km/h
2929 24-06-2003 10:46:25 22 C 9.7 g/m*3 22 C 0 km/h
2930 24-06-2003 11:08:25 23.6 C 9.57 g/m*3 23.6 C 0 km/h
2931 24-06-2003 11:30:25 23.2 C 9.36 g/m*3 23.2 C 0 km/h
2932 24-06-2003 11:52:25 25.2 C 9.54 g/m*3 25.2 C 0 km/h
2933 24-06-2003 12:14:25 26.4 C 9.46 g/m*3 26.4 C 0 km/h
2934 24-06-2003 12:36:25 26.3 C 8.91 g/m*3 26.3 C 0 km/h
2935 24-06-2003 12:58:25 27.8 C 9.41 g/m*3 27.8 C 0 km/h
2936 24-06-2003 13:20:25 26.9 C 8.19 g/m*3 26.9 C 0 km/h
2937 24-06-2003 13:42:25 29.1 C 7.8 g/m*3 29.1 C 0 km/h
2938 24-06-2003 14:04:25 28.1 C 8.48 g/m*3 28.1 C 0 km/h
2939 24-06-2003 14:26:25 29.4 C 8.51 g/m*3 29.4 C 0 km/h
2940 24-06-2003 14:48:25 29.6 C 8.9 g/m*3 29.6 C 0 km/h
2941 24-06-2003 15:10:25 29.5 C 7.97 g/m*3 29.5 C 0 km/h
2942 24-06-2003 15:32:25 30.7 C 8.19 g/m*3 30.7 C 0 km/h
2943 24-06-2003 15:54:25 30.3 C 9.25 g/m*3 30.3 C 0 km/h
2944 24-06-2003 16:16:25 30.4 C 8.68 g/m*3 30.4 C 0 km/h
2945 24-06-2003 16:38:25 30.1 C 8.23 g/m*3 30.1 C 0 km/h
2946 24-06-2003 17:00:25 30.1 C 8.84 g/m*3 30.1 C 0 km/h
2947 24-06-2003 17:22:25 28.5 C 8.66 g/m*3 28.5 C 0 km/h
2948 24-06-2003 17:44:25 28.3 C 9.12 g/m*3 28.3 C 0 km/h
2949 24-06-2003 18:06:25 29 C 9.19 g/m*3 29 C 0 km/h
2950 24-06-2003 18:28:25 28.3 C 9.4 g/m*3 28.3 C 0 km/h
Sensor: Nr:Datum:Temp:Abs-Feuchte:Windchill:Wind:
Aussen-T/F 2951 24-06-2003 18:50:25 28.6 C 8.99 g/m*3 28.6 C 0 km/h
2952 24-06-2003 19:12:25 28.4 C 8.9 g/m*3 28.4 C 0 km/h
2953 24-06-2003 19:34:25 27.8 C 8.61 g/m*3 27.8 C 0 km/h
2954 24-06-2003 19:56:25 26.5 C 8.76 g/m*3 26.5 C 0 km/h
2955 24-06-2003 20:18:25 25.7 C 8.86 g/m*3 25.7 C 0 km/h
2956 24-06-2003 20:40:25 24.6 C 8.78 g/m*3 24.6 C 0 km/h
2957 24-06-2003 21:02:25 24.1 C 8.75 g/m*3 24.1 C 0 km/h
2958 24-06-2003 21:24:25 23 C 8.63 g/m*3 23 C 0 km/h
2959 24-06-2003 21:46:25 22.7 C 8.89 g/m*3 22.7 C 0 km/h
2960 24-06-2003 22:08:25 21.8 C 8.83 g/m*3 21.8 C 0 km/h
2961 24-06-2003 22:30:25 21.5 C 8.86 g/m*3 21.5 C 0 km/h
2962 24-06-2003 22:52:25 20.9 C 8.92 g/m*3 20.9 C 0 km/h
2963 24-06-2003 23:14:25 20.5 C 8.9 g/m*3 20.5 C 0 km/h
2964 24-06-2003 23:36:25 20 C 8.99 g/m*3 20 C 0 km/h
2965 24-06-2003 23:58:25 19.4 C 9.01 g/m*3 19.4 C 0 km/h
2966 25-06-2003 00:20:25 19.1 C 8.85 g/m*3 19.1 C 0 km/h
2967 25-06-2003 00:42:25 18.7 C 8.97 g/m*3 18.7 C 0 km/h
2968 25-06-2003 01:04:25 18.4 C 9.12 g/m*3 18.4 C 0 km/h
2969 25-06-2003 01:26:25 18 C 9.06 g/m*3 18 C 0 km/h
2970 25-06-2003 01:48:25 17.6 C 9.15 g/m*3 17.6 C 0 km/h
2971 25-06-2003 02:10:25 17.3 C 9.13 g/m*3 17.3 C 0 km/h
2972 25-06-2003 02:32:25 16.5 C 9.27 g/m*3 16.5 C 0 km/h
2973 25-06-2003 02:54:25 16.2 C 9.24 g/m*3 16.2 C 0 km/h
2974 25-06-2003 03:16:25 16 C 9.26 g/m*3 16 C 0 km/h
2975 25-06-2003 03:38:25 15.6 C 9.31 g/m*3 15.6 C 0 km/h
Sensor: Nr:Datum:Temp:Abs-Feuchte:Windchill:Wind:
Aussen-T/F 2976 25-06-2003 04:00:25 15.2 C 9.22 g/m*3 15.2 C 0 km/h
2977 25-06-2003 04:22:25 14.8 C 9.25 g/m*3 14.8 C 0 km/h
2978 25-06-2003 04:44:25 14.4 C 9.27 g/m*3 14.4 C 0 km/h
2979 25-06-2003 05:06:25 14.1 C 9.22 g/m*3 14.1 C 0 km/h
2980 25-06-2003 05:28:25 13.8 C 9.17 g/m*3 13.8 C 0 km/h
2981 25-06-2003 05:50:25 13.8 C 9.29 g/m*3 13.8 C 0 km/h
2982 25-06-2003 06:12:25 13.9 C 9.35 g/m*3 13.9 C 0 km/h
2983 25-06-2003 06:34:25 13.8 C 9.29 g/m*3 13.8 C 0 km/h
2984 25-06-2003 06:56:25 14.2 C 9.52 g/m*3 14.2 C 0 km/h
2985 25-06-2003 07:18:25 14.4 C 9.52 g/m*3 14.4 C 0 km/h
2986 25-06-2003 07:40:25 14.8 C 9.5 g/m*3 14.8 C 0 km/h
2987 25-06-2003 08:02:25 15.1 C 9.29 g/m*3 15.1 C 0 km/h
2988 25-06-2003 08:24:25 15.5 C 9.39 g/m*3 15.5 C 0 km/h
2989 25-06-2003 08:46:25 15.8 C 9.29 g/m*3 15.8 C 0 km/h
2990 25-06-2003 09:08:25 16.2 C 9.1 g/m*3 16.2 C 0 km/h
2991 25-06-2003 09:30:25 17.6 C 9.45 g/m*3 17.6 C 0 km/h
2992 25-06-2003 09:52:25 18.8 C 9.02 g/m*3 18.8 C 0 km/h
2993 25-06-2003 10:14:25 19.9 C 8.93 g/m*3 19.9 C 0 km/h
2994 25-06-2003 10:36:25 20.6 C 8.77 g/m*3 20.6 C 0 km/h
2995 25-06-2003 10:58:25 21.5 C 9.05 g/m*3 21.5 C 0 km/h
2996 25-06-2003 11:20:25 21.6 C 8.53 g/m*3 21.6 C 0 km/h
2997 25-06-2003 11:42:25 23.3 C 8.57 g/m*3 23.3 C 0 km/h
2998 25-06-2003 12:04:25 23.7 C 8.13 g/m*3 23.7 C 0 km/h
2999 25-06-2003 12:26:25 25 C 7.14 g/m*3 25 C 0 km/h
3000 25-06-2003 12:48:25 25.8 C 7.22 g/m*3 25.8 C 0 km/h
Sensor: Nr:Datum:Temp:Abs-Feuchte:Windchill:Wind:
Aussen-T/F 3001 25-06-2003 13:10:25 27.1 C 6.73 g/m*3 27.1 C 0 km/h
3002 25-06-2003 13:32:25 26 C 6.33 g/m*3 26 C 0 km/h
3003 25-06-2003 13:54:25 26.8 C 6.62 g/m*3 26.8 C 0 km/h
3004 25-06-2003 14:16:25 27.4 C 6.84 g/m*3 27.4 C 0 km/h
3005 25-06-2003 14:38:25 28.1 C 7.11 g/m*3 28.1 C 0 km/h
3006 25-06-2003 15:00:25 27.7 C 7.49 g/m*3 27.7 C 0 km/h
3007 25-06-2003 15:22:25 29.5 C 7.38 g/m*3 29.5 C 0 km/h
3008 25-06-2003 15:44:25 29.5 C 6.79 g/m*3 29.5 C 0 km/h
3009 25-06-2003 16:06:25 29.4 C 6.75 g/m*3 29.4 C 0 km/h
3010 25-06-2003 16:28:25 29.7 C 6.86 g/m*3 29.7 C 0 km/h
3011 25-06-2003 16:50:25 30.1 C 6.4 g/m*3 30.1 C 0 km/h
3012 25-06-2003 17:12:25 30 C 6.37 g/m*3 30 C 0 km/h
3013 25-06-2003 17:34:25 30.4 C 6.51 g/m*3 30.4 C 0 km/h
3014 25-06-2003 17:56:25 30.3 C 7.09 g/m*3 30.3 C 0 km/h
3015 25-06-2003 18:18:25 30 C 6.97 g/m*3 30 C 0 km/h
3016 25-06-2003 18:40:25 30.5 C 6.23 g/m*3 30.5 C 0 km/h
3017 25-06-2003 19:02:25 30.8 C 6.33 g/m*3 30.8 C 0 km/h
3018 25-06-2003 19:24:25 28.6 C 6.18 g/m*3 28.6 C 0 km/h
3019 25-06-2003 19:46:25 27.2 C 6.51 g/m*3 27.2 C 0 km/h
3020 25-06-2003 20:08:25 26.2 C 7.14 g/m*3 26.2 C 0 km/h
3021 25-06-2003 20:30:25 25.9 C 7.26 g/m*3 25.9 C 0 km/h
3022 25-06-2003 20:52:25 26.7 C 7.85 g/m*3 26.7 C 0 km/h
3023 25-06-2003 21:14:25 25.6 C 8.57 g/m*3 25.6 C 0 km/h
3024 25-06-2003 21:36:25 24 C 8.49 g/m*3 24 C 0 km/h
3025 25-06-2003 21:58:25 23.1 C 8.48 g/m*3 23.1 C 0 km/h
Sensor: Nr:Datum:Temp:Abs-Feuchte:Windchill:Wind:
Aussen-T/F 3026 25-06-2003 22:20:25 22.3 C 8.69 g/m*3 22.3 C 0 km/h
3027 25-06-2003 22:42:25 21.8 C 8.63 g/m*3 21.8 C 0 km/h
3028 25-06-2003 23:04:25 20.8 C 8.87 g/m*3 20.8 C 0 km/h
3029 25-06-2003 23:26:25 20.4 C 9.02 g/m*3 20.4 C 0 km/h
3030 25-06-2003 23:48:25 20.1 C 8.87 g/m*3 20.1 C 0 km/h
3031 26-06-2003 00:10:25 19.8 C 8.88 g/m*3 19.8 C 0 km/h
3032 26-06-2003 00:32:25 19.3 C 9.12 g/m*3 19.3 C 0 km/h
3033 26-06-2003 00:54:25 18.7 C 9.29 g/m*3 18.7 C 0 km/h
3034 26-06-2003 01:16:25 18 C 9.06 g/m*3 18 C 0 km/h
3035 26-06-2003 01:38:25 17.7 C 9.35 g/m*3 17.7 C 0 km/h
3036 26-06-2003 02:00:25 17.3 C 9.28 g/m*3 17.3 C 0 km/h
3037 26-06-2003 02:22:25 16.9 C 9.35 g/m*3 16.9 C 0 km/h
3038 26-06-2003 02:44:25 16.5 C 9.55 g/m*3 16.5 C 0 km/h
3039 26-06-2003 03:06:25 16.2 C 9.38 g/m*3 16.2 C 0 km/h
3040 26-06-2003 03:28:25 16.1 C 9.05 g/m*3 16.1 C 0 km/h
3041 26-06-2003 03:50:25 15.9 C 9.07 g/m*3 15.9 C 0 km/h
3042 26-06-2003 04:12:25 15.6 C 9.04 g/m*3 15.6 C 0 km/h
3043 26-06-2003 04:34:25 15.3 C 9.01 g/m*3 15.3 C 0 km/h
3044 26-06-2003 04:56:25 15 C 8.98 g/m*3 15 C 0 km/h
3045 26-06-2003 05:18:25 14.7 C 8.94 g/m*3 14.7 C 0 km/h
3046 26-06-2003 05:40:25 14.5 C 8.95 g/m*3 14.5 C 0 km/h
3047 26-06-2003 06:02:25 14.4 C 9.15 g/m*3 14.4 C 0 km/h
3048 26-06-2003 06:24:25 14.5 C 9.33 g/m*3 14.5 C 0 km/h
3049 26-06-2003 06:46:25 14.5 C 9.2 g/m*3 14.5 C 0 km/h
3050 26-06-2003 07:08:25 14.8 C 9.5 g/m*3 14.8 C 0 km/h
Sensor: Nr:Datum:Temp:Abs-Feuchte:Windchill:Wind:
Aussen-T/F 3051 26-06-2003 07:30:25 15.4 C 9.59 g/m*3 15.4 C 0 km/h
3052 26-06-2003 07:52:25 15.8 C 9.42 g/m*3 15.8 C 0 km/h
3053 26-06-2003 08:14:25 16.8 C 9.15 g/m*3 16.8 C 0 km/h
3054 26-06-2003 08:36:25 17.9 C 9.31 g/m*3 17.9 C 0 km/h
3055 26-06-2003 08:58:25 19.1 C 9.18 g/m*3 19.1 C 0 km/h
3056 26-06-2003 09:20:25 19.7 C 9 g/m*3 19.7 C 0 km/h
3057 26-06-2003 09:42:25 20.6 C 8.95 g/m*3 20.6 C 0 km/h
3058 26-06-2003 10:04:25 21.6 C 9.1 g/m*3 21.6 C 0 km/h
3059 26-06-2003 10:26:25 22.3 C 9.28 g/m*3 22.3 C 0 km/h
3060 26-06-2003 10:48:25 23.6 C 9.36 g/m*3 23.6 C 0 km/h
3061 26-06-2003 11:10:25 24.8 C 9.56 g/m*3 24.8 C 0 km/h
3062 26-06-2003 11:32:25 25.3 C 8.9 g/m*3 25.3 C 0 km/h
3063 26-06-2003 11:54:25 26.2 C 8.62 g/m*3 26.2 C 0 km/h
3064 26-06-2003 12:16:25 27.7 C 8.83 g/m*3 27.7 C 0 km/h
3065 26-06-2003 12:38:25 28.2 C 7.97 g/m*3 28.2 C 0 km/h
3066 26-06-2003 13:00:25 30 C 8.19 g/m*3 30 C 0 km/h
3067 26-06-2003 13:22:25 30.4 C 7.75 g/m*3 30.4 C 0 km/h
3068 26-06-2003 13:44:25 30.6 C 7.2 g/m*3 30.6 C 0 km/h
3069 26-06-2003 14:06:25 31.2 C 7.44 g/m*3 31.2 C 0 km/h
3070 26-06-2003 14:28:25 30.1 C 7.93 g/m*3 30.1 C 0 km/h
3071 26-06-2003 14:50:25 30.7 C 7.24 g/m*3 30.7 C 0 km/h
3072 26-06-2003 15:12:25 31 C 7.36 g/m*3 31 C 0 km/h
3073 26-06-2003 15:34:25 31.6 C 6.94 g/m*3 31.6 C 0 km/h
3074 26-06-2003 15:56:25 31.5 C 6.57 g/m*3 31.5 C 0 km/h
3075 26-06-2003 16:18:25 32.4 C 6.9 g/m*3 32.4 C 0 km/h
Sensor: Nr:Datum:Temp:Abs-Feuchte:Windchill:Wind:
Aussen-T/F 3076 26-06-2003 16:40:25 32.5 C 6.93 g/m*3 32.5 C 0 km/h
3077 26-06-2003 17:02:25 32.4 C 6.9 g/m*3 32.4 C 0 km/h
3078 26-06-2003 17:24:25 32.5 C 6.93 g/m*3 32.5 C 0 km/h
3079 26-06-2003 17:46:25 32.5 C 6.93 g/m*3 32.5 C 0 km/h
3080 26-06-2003 18:08:25 32.1 C 6.79 g/m*3 32.1 C 0 km/h
3081 26-06-2003 18:30:25 32.7 C 7.01 g/m*3 32.7 C 0 km/h
3082 26-06-2003 18:52:25 31.3 C 7.81 g/m*3 31.3 C 0 km/h
3083 26-06-2003 19:14:25 30.9 C 8.91 g/m*3 30.9 C 0 km/h
3084 26-06-2003 19:36:25 30.6 C 8.14 g/m*3 30.6 C 0 km/h
3085 26-06-2003 19:58:25 30.4 C 7.75 g/m*3 30.4 C 0 km/h
3086 26-06-2003 20:20:25 30.1 C 7.93 g/m*3 30.1 C 0 km/h
3087 26-06-2003 20:42:25 29.4 C 7.93 g/m*3 29.4 C 0 km/h
3088 26-06-2003 21:04:25 28.1 C 8.2 g/m*3 28.1 C 0 km/h
3089 26-06-2003 21:26:25 26.1 C 8.08 g/m*3 26.1 C 0 km/h
3090 26-06-2003 21:48:25 25.2 C 6.98 g/m*3 25.2 C 0 km/h
3091 26-06-2003 22:10:25 24.3 C 6.86 g/m*3 24.3 C 0 km/h
3092 26-06-2003 22:32:25 23.7 C 7.49 g/m*3 23.7 C 0 km/h
3093 26-06-2003 22:54:25 23.2 C 7.9 g/m*3 23.2 C 0 km/h
3094 26-06-2003 23:16:25 22.5 C 8.19 g/m*3 22.5 C 0 km/h
3095 26-06-2003 23:38:25 22 C 8.35 g/m*3 22 C 0 km/h
3096 27-06-2003 00:00:25 21.5 C 8.49 g/m*3 21.5 C 0 km/h
3097 27-06-2003 00:22:25 20.9 C 8.38 g/m*3 20.9 C 0 km/h
3098 27-06-2003 00:44:25 20.2 C 8.04 g/m*3 20.2 C 0 km/h
3099 27-06-2003 01:06:25 19.9 C 7.9 g/m*3 19.9 C 0 km/h
3100 27-06-2003 01:28:25 19.6 C 7.77 g/m*3 19.6 C 0 km/h
Sensor: Nr:Datum:Temp:Abs-Feuchte:Windchill:Wind:
Aussen-T/F 3101 27-06-2003 01:50:25 19.2 C 7.75 g/m*3 19.2 C 0 km/h
3102 27-06-2003 02:12:25 18.9 C 8.1 g/m*3 18.9 C 0 km/h
3103 27-06-2003 02:34:25 18.5 C 8.07 g/m*3 18.5 C 0 km/h
3104 27-06-2003 02:56:25 18.1 C 8.03 g/m*3 18.1 C 0 km/h
3105 27-06-2003 03:18:25 17.9 C 8.09 g/m*3 17.9 C 0 km/h
3106 27-06-2003 03:40:25 17.9 C 8.09 g/m*3 17.9 C 0 km/h
3107 27-06-2003 04:02:25 17.7 C 8.15 g/m*3 17.7 C 0 km/h
3108 27-06-2003 04:24:25 17.2 C 8.2 g/m*3 17.2 C 0 km/h
3109 27-06-2003 04:46:25 16.7 C 8.24 g/m*3 16.7 C 0 km/h
3110 27-06-2003 05:08:25 16.4 C 8.37 g/m*3 16.4 C 0 km/h
3111 27-06-2003 05:30:25 16.1 C 8.22 g/m*3 16.1 C 0 km/h
3112 27-06-2003 05:52:25 16 C 8.45 g/m*3 16 C 0 km/h
3113 27-06-2003 06:14:25 16 C 8.72 g/m*3 16 C 0 km/h
3114 27-06-2003 06:35:25 16 C 8.99 g/m*3 16 C 0 km/h
3115 27-06-2003 06:57:25 16.2 C 9.1 g/m*3 16.2 C 0 km/h
3116 27-06-2003 07:19:25 16.6 C 9.46 g/m*3 16.6 C 0 km/h
3117 27-06-2003 07:41:25 16.8 C 9.15 g/m*3 16.8 C 0 km/h
3118 27-06-2003 08:03:25 17.4 C 9.48 g/m*3 17.4 C 0 km/h
3119 27-06-2003 08:25:25 18.1 C 9.58 g/m*3 18.1 C 0 km/h
3120 27-06-2003 08:47:25 18.8 C 9.02 g/m*3 18.8 C 0 km/h
3121 27-06-2003 09:09:25 19.6 C 9.12 g/m*3 19.6 C 0 km/h
3122 27-06-2003 09:31:25 20.7 C 9.18 g/m*3 20.7 C 0 km/h
3123 27-06-2003 09:53:25 21.9 C 9.26 g/m*3 21.9 C 0 km/h
3124 27-06-2003 10:15:25 22.9 C 9.2 g/m*3 22.9 C 0 km/h
3125 27-06-2003 10:37:25 24.1 C 8.97 g/m*3 24.1 C 0 km/h
Sensor: Nr:Datum:Temp:Abs-Feuchte:Windchill:Wind:
Aussen-T/F 3126 27-06-2003 10:59:25 24.7 C 9.05 g/m*3 24.7 C 0 km/h
3127 27-06-2003 11:21:25 25.8 C 8.67 g/m*3 25.8 C 0 km/h
3128 27-06-2003 11:43:25 26.6 C 9.06 g/m*3 26.6 C 0 km/h
3129 27-06-2003 12:05:25 28.1 C 8.75 g/m*3 28.1 C 0 km/h
3130 27-06-2003 12:27:25 28.9 C 8.86 g/m*3 28.9 C 0 km/h
3131 27-06-2003 12:49:25 28.9 C 8.86 g/m*3 28.9 C 0 km/h
3132 27-06-2003 13:11:25 30.6 C 8.77 g/m*3 30.6 C 0 km/h
3133 27-06-2003 13:33:25 30.4 C 9.3 g/m*3 30.4 C 0 km/h
3134 27-06-2003 13:55:25 30.7 C 8.5 g/m*3 30.7 C 0 km/h
3135 27-06-2003 14:17:25 30 C 8.79 g/m*3 30 C 0 km/h
3136 27-06-2003 14:39:25 31.2 C 8.41 g/m*3 31.2 C 0 km/h
3137 27-06-2003 15:01:25 31 C 8.96 g/m*3 31 C 0 km/h
3138 27-06-2003 15:23:25 31.9 C 9.07 g/m*3 31.9 C 0 km/h
3139 27-06-2003 15:45:25 31.7 C 8.31 g/m*3 31.7 C 0 km/h
3140 27-06-2003 16:07:25 30.5 C 8.72 g/m*3 30.5 C 0 km/h
3141 27-06-2003 16:29:25 30.3 C 10.79 g/m*3 30.3 C 0 km/h
3142 27-06-2003 16:51:25 28.1 C 10.12 g/m*3 28.1 C 0 km/h
3143 27-06-2003 17:13:25 25.8 C 11.8 g/m*3 25.8 C 0 km/h
3144 27-06-2003 17:35:25 26 C 11.2 g/m*3 26 C 0 km/h
3145 27-06-2003 17:57:25 25.4 C 10.83 g/m*3 25.4 C 0 km/h
3146 27-06-2003 18:19:25 25.2 C 10.71 g/m*3 25.2 C 0 km/h
3147 27-06-2003 18:41:25 24.2 C 11.44 g/m*3 24.2 C 0 km/h
3148 27-06-2003 19:03:25 23.9 C 12.11 g/m*3 23.9 C 0 km/h
3149 27-06-2003 19:25:25 23.2 C 12.27 g/m*3 23.2 C 0 km/h
3150 27-06-2003 19:47:25 22.9 C 12.26 g/m*3 22.9 C 0 km/h
Sensor: Nr:Datum:Temp:Abs-Feuchte:Windchill:Wind:
Aussen-T/F 3151 27-06-2003 20:09:25 22.8 C 12.8 g/m*3 22.8 C 0 km/h
3152 27-06-2003 20:53:25 22.4 C 12.31 g/m*3 22.4 C 0 km/h
3153 27-06-2003 21:15:25 22.4 C 12.11 g/m*3 22.4 C 0 km/h
3154 27-06-2003 21:37:25 22.1 C 11.91 g/m*3 22.1 C 0 km/h
3155 27-06-2003 21:59:25 21.9 C 11.96 g/m*3 21.9 C 0 km/h
3156 27-06-2003 22:21:25 21.8 C 12.09 g/m*3 21.8 C 0 km/h
3157 27-06-2003 22:43:25 21.7 C 12.21 g/m*3 21.7 C 0 km/h
3158 27-06-2003 23:05:25 21.2 C 12.23 g/m*3 21.2 C 0 km/h
3159 27-06-2003 23:27:25 21.1 C 12.34 g/m*3 21.1 C 0 km/h
3160 27-06-2003 23:49:25 21 C 12.46 g/m*3 21 C 0 km/h
3161 28-06-2003 00:11:25 20.8 C 12.31 g/m*3 20.8 C 0 km/h
3162 28-06-2003 00:33:25 20.6 C 12.53 g/m*3 20.6 C 0 km/h
3163 28-06-2003 00:55:25 20.2 C 12.76 g/m*3 20.2 C 0 km/h
3164 28-06-2003 01:17:25 20.4 C 12.74 g/m*3 20.4 C 0 km/h
3165 28-06-2003 01:39:25 20 C 12.79 g/m*3 20 C 0 km/h
3166 28-06-2003 02:01:25 19.9 C 13.06 g/m*3 19.9 C 0 km/h
3167 28-06-2003 02:23:25 19.7 C 13.08 g/m*3 19.7 C 0 km/h
3168 28-06-2003 02:45:25 19.7 C 13.08 g/m*3 19.7 C 0 km/h
3169 28-06-2003 03:07:25 19.5 C 13.26 g/m*3 19.5 C 0 km/h
3170 28-06-2003 03:29:25 19.5 C 13.26 g/m*3 19.5 C 0 km/h
3171 28-06-2003 03:51:25 19.4 C 12.68 g/m*3 19.4 C 0 km/h
3172 28-06-2003 04:13:25 19 C 12.55 g/m*3 19 C 0 km/h
3173 28-06-2003 04:35:25 18.8 C 12.56 g/m*3 18.8 C 0 km/h
3174 28-06-2003 04:57:25 18.8 C 12.88 g/m*3 18.8 C 0 km/h
3175 28-06-2003 05:19:25 18.8 C 13.21 g/m*3 18.8 C 0 km/h
Sensor: Nr:Datum:Temp:Abs-Feuchte:Windchill:Wind:
Aussen-T/F 3176 28-06-2003 05:41:25 19.3 C 13.1 g/m*3 19.3 C 0 km/h
3177 28-06-2003 06:03:25 19.3 C 13.1 g/m*3 19.3 C 0 km/h
3178 28-06-2003 06:25:25 19.3 C 13.1 g/m*3 19.3 C 0 km/h
3179 28-06-2003 06:47:25 19.2 C 13.03 g/m*3 19.2 C 0 km/h
3180 28-06-2003 07:09:25 19.2 C 13.03 g/m*3 19.2 C 0 km/h
3181 28-06-2003 07:31:25 19.3 C 13.1 g/m*3 19.3 C 0 km/h
3182 28-06-2003 07:53:25 19.6 C 12.83 g/m*3 19.6 C 0 km/h
3183 28-06-2003 08:15:25 19.4 C 12.85 g/m*3 19.4 C 0 km/h
3184 28-06-2003 08:37:25 20 C 12.62 g/m*3 20 C 0 km/h
3185 28-06-2003 08:59:25 20 C 12.44 g/m*3 20 C 0 km/h
3186 28-06-2003 09:21:25 20 C 11.92 g/m*3 20 C 0 km/h
3187 28-06-2003 09:43:25 20.4 C 12.03 g/m*3 20.4 C 0 km/h
3188 28-06-2003 10:05:25 20.7 C 11.88 g/m*3 20.7 C 0 km/h
3189 28-06-2003 10:27:25 21.1 C 11.79 g/m*3 21.1 C 0 km/h
3190 28-06-2003 10:49:25 23.2 C 11.85 g/m*3 23.2 C 0 km/h
3191 28-06-2003 11:11:25 23.4 C 11.57 g/m*3 23.4 C 0 km/h
3192 28-06-2003 11:33:25 23.5 C 11.84 g/m*3 23.5 C 0 km/h
3193 28-06-2003 11:55:25 24.1 C 11.6 g/m*3 24.1 C 0 km/h
3194 28-06-2003 12:17:25 25.7 C 11.49 g/m*3 25.7 C 0 km/h
3195 28-06-2003 12:39:25 25.8 C 11.32 g/m*3 25.8 C 0 km/h
3196 28-06-2003 13:01:25 26.3 C 10.89 g/m*3 26.3 C 0 km/h
3197 28-06-2003 13:23:25 27.8 C 9.95 g/m*3 27.8 C 0 km/h
3198 28-06-2003 13:45:25 26.2 C 10.34 g/m*3 26.2 C 0 km/h
3199 28-06-2003 14:07:25 26.4 C 10.46 g/m*3 26.4 C 0 km/h
3200 28-06-2003 14:29:25 25.5 C 10.65 g/m*3 25.5 C 0 km/h
Sensor: Nr:Datum:Temp:Abs-Feuchte:Windchill:Wind:
Aussen-T/F 3201 28-06-2003 14:51:25 24.5 C 10.97 g/m*3 24.5 C 0 km/h
3202 28-06-2003 15:13:25 26.1 C 10.53 g/m*3 26.1 C 0 km/h
3203 28-06-2003 15:35:25 26.8 C 10.18 g/m*3 26.8 C 0 km/h
3204 28-06-2003 15:57:25 27.5 C 10.32 g/m*3 27.5 C 0 km/h
3205 28-06-2003 16:19:25 28.3 C 9.95 g/m*3 28.3 C 0 km/h
3206 28-06-2003 16:41:25 28.4 C 10.01 g/m*3 28.4 C 0 km/h
3207 28-06-2003 17:03:25 30 C 9.7 g/m*3 30 C 0 km/h
3208 28-06-2003 17:25:25 30.4 C 9.92 g/m*3 30.4 C 0 km/h
3209 28-06-2003 17:47:25 30.6 C 9.71 g/m*3 30.6 C 0 km/h
3210 28-06-2003 18:09:25 30 C 9.7 g/m*3 30 C 0 km/h
3211 28-06-2003 18:31:25 28.7 C 9.89 g/m*3 28.7 C 0 km/h
3212 28-06-2003 18:53:25 26.8 C 9.93 g/m*3 26.8 C 0 km/h
3213 28-06-2003 19:15:25 26.6 C 10.32 g/m*3 26.6 C 0 km/h
3214 28-06-2003 19:37:25 25.8 C 10.35 g/m*3 25.8 C 0 km/h
3215 28-06-2003 19:59:25 26.7 C 10.12 g/m*3 26.7 C 0 km/h
3216 28-06-2003 20:21:25 25.7 C 10.29 g/m*3 25.7 C 0 km/h
3217 28-06-2003 20:43:25 24.5 C 10.52 g/m*3 24.5 C 0 km/h
3218 28-06-2003 21:05:25 23.6 C 10.63 g/m*3 23.6 C 0 km/h
3219 28-06-2003 21:27:25 23.5 C 11 g/m*3 23.5 C 0 km/h
3220 28-06-2003 21:49:25 22.8 C 11.18 g/m*3 22.8 C 0 km/h
3221 28-06-2003 22:11:25 21.7 C 11.06 g/m*3 21.7 C 0 km/h
3222 28-06-2003 22:33:25 21 C 10.99 g/m*3 21 C 0 km/h
3223 28-06-2003 22:55:25 20.6 C 11.1 g/m*3 20.6 C 0 km/h
3224 28-06-2003 23:17:25 20.5 C 11.03 g/m*3 20.5 C 0 km/h
3225 28-06-2003 23:39:25 20.4 C 11.14 g/m*3 20.4 C 0 km/h
Sensor: Nr:Datum:Temp:Abs-Feuchte:Windchill:Wind:
Aussen-T/F 3226 29-06-2003 00:01:25 19.8 C